Temp     Hi    Low   Out    Dew  Wind  Wind   Wind    Hi    Hi   Wind   Heat    THW   THSW                Rain  Solar   Solar Hi Solar   UV    UV    Hi     Heat    Cool    In     In    In     In           Wind  Wind    ISS   Arc.
  Date    Time     Out   Temp   Temp   Hum    Pt. Speed   Dir    Run Speed   Dir  Chill  Index  Index  Index   Bar    Rain  Rate   Rad.  Energy    Rad.  Index  Dose   UV     D-D     D-D    Temp   Hum    Dew   Heat     ET   Samp   Tx   Recept  Int.
---------------------------------------------------------------------------------------------------------------------------------------------------------------------------------------------------------------------------------------------------------
 9/02/19   0.15    6.2    6.2    5.9    87    4.2   0.0   ---   0.00   0.0   ---    6.2    6.1    6.1    4.1   598.6  0.00   0.0     0     0.00      0     0.0  0.00   0.0   0.127   0.000   12.6    60    5.0   11.9    0.00   349    1    100.0   15 
 9/02/19   0.30    6.4    6.6    6.2    88    4.5   0.0   ---   0.00   0.0   ---    6.4    6.4    6.4    4.4   598.6  0.00   0.0     0     0.00      0     0.0  0.00   0.0   0.124   0.000   12.6    60    5.0   11.9    0.00   350    1    100.0   15 
 9/02/19   0.45    6.4    6.4    5.8    89    4.7   0.0   ---   0.00   0.0   ---    6.4    6.4    6.4    4.4   598.6  0.00   0.0     0     0.00      0     0.0  0.00   0.0   0.124   0.000   12.6    60    5.0   11.9    0.00   350    1    100.0   15 
 9/02/19   1.00    6.2    6.4    6.2    89    4.5   0.0   ---   0.00   0.0   ---    6.2    6.2    6.2    4.3   598.6  0.00   0.0     0     0.00      0     0.0  0.00   0.0   0.126   0.000   12.6    60    5.0   11.8    0.00   351    1    100.0   15 
 9/02/19   1.15    5.7    6.3    5.7    90    4.2   0.0   ---   0.00   0.0   ---    5.7    5.7    5.7    3.7   598.6  0.00   0.0     0     0.00      0     0.0  0.00   0.0   0.131   0.000   12.6    61    5.2   11.9    0.00   350    1    100.0   15 
 9/02/19   1.30    5.9    6.0    5.7    90    4.4   0.0   ---   0.00   0.0   ---    5.9    5.9    5.9    3.9   598.6  0.00   0.0     0     0.00      0     0.0  0.00   0.0   0.129   0.000   12.6    61    5.2   11.9    0.00   350    1    100.0   15 
 9/02/19   1.45    6.0    6.1    5.8    90    4.5   0.0   ---   0.00   0.0   ---    6.0    6.0    6.0    4.1   584.4  0.00   0.0     0     0.00      0     0.0  0.00   0.0   0.128   0.000   12.6    61    5.2   11.9    0.00   350    1    100.0   15 
 9/02/19   2.00    5.6    6.2    5.5    90    4.0   0.0   ---   0.00   0.0   ---    5.6    5.6    5.6    3.6   585.7  0.00   0.0     0     0.00      0     0.0  0.00   0.0   0.133   0.000   12.6    61    5.2   11.9    0.00   350    1    100.0   15 
 9/02/19   2.15    6.0    6.1    5.6    91    4.6   0.0   ---   0.00   0.0   ---    6.0    6.0    6.0    4.1   585.7  0.00   0.0     0     0.00      0     0.0  0.00   0.0   0.128   0.000   12.4    61    5.1   11.8    0.00   352    1    100.0   15 
 9/02/19   2.30    5.5    6.1    5.2    91    4.1   0.0   ---   0.00   0.0   ---    5.5    5.5    5.5    3.5   585.7  0.00   0.0     0     0.00      0     0.0  0.00   0.0   0.134   0.000   12.4    61    5.1   11.8    0.00   350    1    100.0   15 
 9/02/19   2.45    6.1    6.1    5.5    91    4.7   0.0   ---   0.00   0.0   ---    6.1    6.1    6.1    4.1   585.7  0.00   0.0     0     0.00      0     0.0  0.00   0.0   0.128   0.000   12.4    61    5.1   11.8    0.00   350    1    100.0   15 
 9/02/19   3.00    5.2    6.1    5.2    91    3.9   0.0   ---   0.00   0.0   ---    5.2    5.2    5.2    3.2   585.7  0.00   0.0     0     0.00      0     0.0  0.00   0.0   0.137   0.000   12.4    61    5.1   11.7    0.00   351    1    100.0   15 
 9/02/19   3.15    5.3    5.4    5.2    91    3.9   0.0   ---   0.00   0.0   ---    5.3    5.3    5.3    3.3   594.2  0.00   0.0     0     0.00      0     0.0  0.00   0.0   0.136   0.000   12.4    60    4.8   11.7    0.00   349    1    100.0   15 
 9/02/19   3.30    5.2    5.3    5.1    92    4.0   0.0   ---   0.00   0.0   ---    5.2    5.2    5.2    3.2   594.2  0.00   0.0     0     0.00      0     0.0  0.00   0.0   0.137   0.000   12.4    60    4.8   11.7    0.00   352    1    100.0   15 
 9/02/19   3.45    4.6    5.4    4.6    92    3.4   0.0   ---   0.00   0.0   ---    4.6    4.6    4.6    2.6   594.2  0.00   0.0     0     0.00      0     0.0  0.00   0.0   0.144   0.000   12.4    60    4.8   11.7    0.00   350    1    100.0   15 
 9/02/19   4.00    4.7    5.4    4.6    92    3.5   0.0   ---   0.00   0.0   ---    4.7    4.7    4.7    2.7   594.2  0.00   0.0     0     0.00      0     0.0  0.00   0.0   0.142   0.000   12.3    60    4.7   11.6    0.00   350    1    100.0   15 
 9/02/19   4.15    4.6    4.8    4.4    92    3.4   0.0   ---   0.00   0.0   ---    4.6    4.6    4.6    2.6   594.2  0.00   0.0     0     0.00      0     0.0  0.00   0.0   0.143   0.000   12.3    60    4.7   11.6    0.00   351    1    100.0   15 
 9/02/19   4.30    4.3    5.2    4.3    92    3.1   0.0   ---   0.00   0.0   ---    4.3    4.3    4.3    2.3   594.2  0.00   0.0     0     0.00      0     0.0  0.00   0.0   0.146   0.000   12.3    60    4.7   11.6    0.00   351    1    100.0   15 
 9/02/19   4.45    4.1    4.9    4.1    92    2.9   0.0   ---   0.00   0.0   ---    4.1    4.1    4.1    2.1   594.2  0.00   0.0     0     0.00      0     0.0  0.00   0.0   0.148   0.000   12.2    60    4.7   11.6    0.00   348    1    100.0   15 
 9/02/19   5.00    4.2    4.6    4.1    92    3.0   0.0   ---   0.00   0.0   ---    4.2    4.2    4.2    2.2   594.2  0.00   0.0     0     0.00      0     0.0  0.00   0.0   0.148   0.000   12.2    60    4.7   11.6    0.00   350    1    100.0   15 
 9/02/19   5.15    4.9    5.2    4.2    92    3.7   0.0   ENE   0.00   4.8   ENE    4.9    4.9    4.9    2.9   594.2  0.00   0.0     0     0.00      0     0.0  0.00   0.0   0.140   0.000   12.2    60    4.7   11.6    0.00   347    1    100.0   15 
 9/02/19   5.30    4.3    4.8    3.9    92    3.1   0.0   ---   0.00   0.0   ---    4.3    4.3    4.3    2.3   594.2  0.00   0.0     0     0.00      0     0.0  0.00   0.0   0.146   0.000   12.2    59    4.4   11.6    0.00   351    1    100.0   15 
 9/02/19   5.45    4.8    4.8    4.3    93    3.8   0.0   ---   0.00   0.0   ---    4.8    4.8    4.8    2.8   594.2  0.00   0.0     0     0.00      0     0.0  0.00   0.0   0.141   0.000   12.1    59    4.3   11.4    0.00   350    1    100.0   15 
 9/02/19   6.00    4.2    4.9    4.1    93    3.1   0.0   ---   0.00   0.0   ---    4.2    4.2    4.2    2.2   594.2  0.00   0.0     0     0.00      0     0.0  0.00   0.0   0.148   0.000   12.1    59    4.3   11.4    0.00   351    1    100.0   15 
 9/02/19   6.15    4.4    4.5    4.2    93    3.4   0.0   ---   0.00   0.0   ---    4.4    4.4    4.4    2.4   594.2  0.00   0.0     0     0.00      0     0.0  0.00   0.0   0.145   0.000   12.1    59    4.3   11.4    0.00   351    1    100.0   15 
 9/02/19   6.30    4.5    5.2    3.7    93    3.5   0.0   ENE   0.00   4.8   ENE    4.5    4.5    4.5    2.5   594.2  0.00   0.0     0     0.00      0     0.0  0.00   0.0   0.144   0.000   12.1    59    4.3   11.4    0.00   349    1    100.0   15 
 9/02/19   6.45    4.6    4.6    4.1    93    3.5   0.0   ---   0.00   0.0   ---    4.6    4.6    4.6    2.6   594.2  0.00   0.0     0     0.00      0     0.0  0.00   0.0   0.144   0.000   12.1    59    4.3   11.4    0.00   350    1    100.0   15 
 9/02/19   7.00    4.3    4.6    3.8    93    3.2   0.0   ---   0.00   0.0   ---    4.3    4.3    4.3    2.3   594.2  0.00   0.0     0     0.00      0     0.0  0.00   0.0   0.146   0.000   12.1    59    4.3   11.4    0.00   350    1    100.0   15 
 9/02/19   7.15    4.4    4.9    4.2    93    3.4   0.0   ---   0.00   0.0   ---    4.4    4.4    4.4    2.4   594.2  0.00   0.0     0     0.00      0     0.0  0.00   0.0   0.145   0.000   12.1    59    4.3   11.4    0.00   350    1    100.0   15 
 9/02/19   7.30    4.3    4.8    4.3    93    3.2   0.0   ---   0.00   0.0   ---    4.3    4.3    4.3    2.3   594.2  0.00   0.0     3     0.06      7     0.0  0.00   0.0   0.146   0.000   12.1    59    4.3   11.4    0.00   350    1    100.0   15 
 9/02/19   7.45    4.9    5.1    4.2    93    3.9   0.0   ---   0.00   0.0   ---    4.9    4.9    4.9    3.2   594.2  0.00   0.0    16     0.34     25     0.0  0.00   0.0   0.139   0.000   12.1    59    4.3   11.4    0.00   351    1    100.0   15 
 9/02/19   8.00    4.2    5.0    4.2    93    3.2   0.0   ---   0.00   0.0   ---    4.2    4.2    4.2    2.6   594.2  0.00   0.0    34     0.73     42     0.0  0.00   0.0   0.147   0.000   12.1    59    4.3   11.4    0.00   351    1    100.0   15 
 9/02/19   8.15    5.1    5.3    4.2    93    4.0   0.0   ---   0.00   0.0   ---    5.1    5.1    5.1    3.6   594.2  0.00   0.0    45     0.97     54     0.0  0.00   0.0   0.138   0.000   12.1    59    4.3   11.4    0.00   350    1    100.0   15 
 9/02/19   8.30    5.1    5.1    4.6    93    4.1   0.0   ENE   0.00   1.6   ENE    5.1    5.1    5.1    3.9   594.2  0.00   0.0    67     1.44     93     0.0  0.00   0.0   0.138   0.000   12.1    59    4.3   11.4    0.00   350    1    100.0   15 
 9/02/19   8.45    5.9    5.9    5.2    94    5.1   0.0   ENE   0.00   1.6   ENE    5.9    6.0    6.0    7.1   594.2  0.00   0.0    97     2.09    120     0.0  0.00   0.0   0.129   0.000   12.1    60    4.5   11.4    0.00   352    1    100.0   15 
 9/02/19   9.00    5.9    6.1    5.7    93    4.9   0.0   ---   0.00   0.0   ---    5.9    6.0    6.0    7.7   594.2  0.00   0.0   127     2.73    213     0.0  0.00   0.0   0.129   0.000   12.1    60    4.5   11.4    0.03   350    1    100.0   15 
 9/02/19   9.15    7.7    7.7    5.9    94    6.8   0.0   ---   0.00   0.0   ---    7.7    7.9    7.9   11.3   594.2  0.00   0.0   231     4.97    274     0.0  0.00   0.0   0.111   0.000   12.1    61    4.8   11.5    0.00   349    1    100.0   15 
 9/02/19   9.30    9.0    9.0    7.8    94    8.1   0.0   ---   0.00   0.0   ---    9.0    9.2    9.2   13.4   594.2  0.00   0.0   273     5.87    294     0.0  0.00   0.0   0.097   0.000   12.1    61    4.8   11.5    0.00   351    1    100.0   15 
 9/02/19   9.45   10.3   10.3    9.0    94    9.4   0.0   ---   0.00   0.0   ---   10.3   10.5   10.5   14.4   594.2  0.00   0.0   271     5.83    336     0.0  0.00   0.0   0.084   0.000   12.2    61    4.9   11.6    0.00   351    1    100.0   15 
 9/02/19  10.00   11.2   11.2   10.3    94   10.2   0.0   ---   0.00   0.0   ---   11.2   11.3   11.3   15.9   594.2  0.00   0.0   313     6.73    355     0.0  0.00   0.0   0.075   0.000   12.4    62    5.3   11.8    0.13   352    1    100.0   15 
 9/02/19  10.15   11.7   11.7   11.2    93   10.6   0.0   ---   0.00   0.0   ---   11.7   11.8   11.8   16.4   594.2  0.00   0.0   325     6.99    374     0.0  0.00   0.0   0.069   0.000   12.4    62    5.3   11.8    0.00   351    1    100.0   15 
 9/02/19  10.30   12.4   12.4   11.7    92   11.2   0.0   ENE   0.00   6.4   ENE   12.4   12.5   12.5   18.6   594.2  0.00   0.0   419     9.01    524     0.0  0.00   0.0   0.061   0.000   12.4    62    5.4   11.8    0.00   351    1    100.0   15 
 9/02/19  10.45   12.4   12.7   12.4    89   10.7   4.8   ENE   1.21  11.3   ENE   12.4   12.5   12.5   19.7   594.2  0.00   0.0   494    10.62    568     0.0  0.00   0.0   0.061   0.000   12.6    62    5.5   11.9    0.00   351    1    100.0   15 
 9/02/19  11.00   12.8   12.8   12.4    86   10.5   4.8     E   1.21  16.1     E   12.8   12.8   12.8   19.5   594.2  0.00   0.0   483    10.39    550     0.0  0.00   0.0   0.057   0.000   12.6    63    5.7   12.0    0.20   352    1    100.0   15 
 9/02/19  11.15   13.1   13.2   12.8    84   10.5   4.8     E   1.21  14.5     E   13.1   13.1   13.1   21.6   594.2  0.00   0.0   592    12.73    628     0.0  0.00   0.0   0.054   0.000   12.8    63    5.9   12.2    0.00   351    1    100.0   15 
 9/02/19  11.30   13.1   13.2   12.8    83   10.3   4.8     E   1.21  12.9     E   13.1   13.0   13.0   21.6   594.2  0.00   0.0   605    13.01    664     0.0  0.00   0.0   0.054   0.000   12.9    63    6.0   12.3    0.00   351    1    100.0   15 
 9/02/19  11.45   13.3   13.3   13.1    82   10.3   4.8     E   1.21  11.3     E   13.3   13.2   13.2   22.5   594.2  0.00   0.0   659    14.17    696     0.0  0.00   0.0   0.053   0.000   13.1    63    6.2   12.4    0.00   351    1    100.0   15 
 9/02/19  12.00   13.2   13.4   13.2    81   10.0   6.4     E   1.61  16.1   ESE   13.0   13.0   12.8   21.6   594.2  0.00   0.0   629    13.53    675     0.0  0.00   0.0   0.054   0.000   13.2    63    6.3   12.6    0.30   352    1    100.0   15 
 9/02/19  12.15   12.9   13.2   12.9    82    9.9   8.0   ESE   2.01  16.1   ESE   12.4   12.8   12.3   20.8   594.2  0.00   0.0   612    13.16    724     0.0  0.00   0.0   0.057   0.000   13.4    64    6.7   12.8    0.00   351    1    100.0   15 
 9/02/19  12.30   13.3   13.3   12.9    82   10.3   6.4   ESE   1.61  17.7    SE   13.2   13.2   13.1   22.1   594.2  0.00   0.0   637    13.70    729     0.0  0.00   0.0   0.053   0.000   13.6    64    6.9   12.9    0.00   350    1    100.0   15 
 9/02/19  12.45   13.3   13.3   13.0    82   10.3   6.4    SE   1.61  16.1    SE   13.2   13.2   13.1   21.4   594.2  0.00   0.0   593    12.75    624     0.0  0.00   0.0   0.053   0.000   13.7    64    7.0   13.1    0.00   350    1    100.0   15 
 9/02/19  13.00   13.0   13.3   13.0    82   10.0   4.8    SE   1.21  19.3    SE   13.0   12.9   12.9   20.4   594.2  0.00   0.0   539    11.59    624     0.0  0.00   0.0   0.056   0.000   13.8    63    6.9   13.2    0.30   351    1    100.0   15 
 9/02/19  13.15   13.2   13.3   13.0    83   10.3   4.8    SE   1.21  16.1    SE   13.2   13.1   13.1   20.9   594.2  0.00   0.0   546    11.74    599     0.0  0.00   0.0   0.054   0.000   14.0    63    7.1   13.4    0.00   351    1    100.0   15 
 9/02/19  13.30   13.2   13.3   12.8    83   10.3   4.8    SE   1.21  14.5    SE   13.2   13.1   13.1   19.3   594.2  0.00   0.0   442     9.50    594     0.0  0.00   0.0   0.054   0.000   14.2    63    7.2   13.6    0.00   351    1    100.0   15 
 9/02/19  13.45   13.2   13.3   13.1    81   10.0   4.8    SE   1.21  14.5    SE   13.2   13.0   13.0   20.8   594.2  0.00   0.0   513    11.03    587     0.0  0.00   0.0   0.054   0.000   14.3    63    7.4   13.7    0.00   350    1    100.0   15 
 9/02/19  14.00   13.7   13.7   13.2    80   10.3   3.2    SE   0.80  14.5    SE   13.7   13.6   13.6   20.6   594.2  0.00   0.0   450     9.68    476     0.0  0.00   0.0   0.048   0.000   14.6    63    7.6   13.9    0.25   349    1    100.0   15 
 9/02/19  14.15   13.4   13.7   13.3    78    9.7   3.2    SE   0.80  11.3    SE   13.4   13.2   13.2   20.9   594.2  0.00   0.0   467    10.04    510     0.0  0.00   0.0   0.051   0.000   14.7    63    7.7   14.1    0.00   351    1    100.0   15 
 9/02/19  14.30   13.7   13.9   13.4    77    9.8   1.6    SE   0.40   8.0    SE   13.7   13.5   13.5   19.3   594.2  0.00   0.0   355     7.63    424     0.0  0.00   0.0   0.048   0.000   14.8    62    7.6   14.1    0.00   351    1    100.0   15 
 9/02/19  14.45   13.3   13.8   13.3    77    9.4   1.6    SE   0.40  11.3    SE   13.3   13.1   13.1   18.6   587.0  0.00   0.0   333     7.16    378     0.0  0.00   0.0   0.052   0.000   14.8    62    7.6   14.1    0.00   351    1    100.0   15 
 9/02/19  15.00   13.6   13.6   13.3    78    9.8   1.6    SE   0.40   9.7    SE   13.6   13.3   13.3   19.5   587.0  0.00   0.0   343     7.38    376     0.0  0.00   0.0   0.050   0.000   14.9    62    7.7   14.2    0.20   351    1    100.0   15 
 9/02/19  15.15   13.7   13.9   13.6    78   10.0   0.0    SE   0.00   9.7    SE   13.7   13.5   13.5   18.5   587.0  0.00   0.0   280     6.02    323     0.0  0.00   0.0   0.048   0.000   14.8    62    7.6   14.1    0.00   351    1    100.0   15 
 9/02/19  15.30   13.3   13.7   13.3    78    9.6   1.6    SE   0.40   6.4    SE   13.3   13.1   13.1   17.4   587.0  0.00   0.0   240     5.16    272     0.0  0.00   0.0   0.052   0.000   14.6    62    7.4   13.9    0.00   351    1    100.0   15 
 9/02/19  15.45   13.6   13.6   13.3    78    9.8   0.0    SE   0.00   9.7    SE   13.6   13.4   13.4   14.2   587.0  0.00   0.0   212     4.56    260     0.0  0.00   0.0   0.049   0.000   14.4    63    7.5   13.8    0.00   351    1    100.0   15 
 9/02/19  16.00   13.3   13.7   13.3    77    9.3   0.0    SE   0.00   6.4    SE   13.3   13.0   13.0   13.0   587.0  0.00   0.0   147     3.16    188     0.0  0.00   0.0   0.053   0.000   14.3    63    7.3   13.7    0.13   351    1    100.0   15 
 9/02/19  16.15   13.2   13.3   13.1    78    9.4   0.0    SE   0.00   3.2    SE   13.2   12.9   12.9   12.5   587.0  0.00   0.0   111     2.39    128     0.0  0.00   0.0   0.054   0.000   14.2    63    7.2   13.6    0.00   351    1    100.0   15 
 9/02/19  16.30   13.0   13.1   13.0    79    9.4   0.0    SE   0.00   4.8    SE   13.0   12.8   12.8   12.3   587.0  0.00   0.0    99     2.13    118     0.0  0.00   0.0   0.056   0.000   14.0    64    7.3   13.4    0.00   351    1    100.0   15 
 9/02/19  16.45   12.9   13.1   12.9    80    9.6   0.0    SE   0.00   1.6    SE   12.9   12.8   12.8   11.9   587.0  0.00   0.0    74     1.59     84     0.0  0.00   0.0   0.056   0.000   13.9    64    7.2   13.3    0.00   350    1    100.0   15 
 9/02/19  17.00   12.7   13.0   12.7    81    9.5   0.0    SE   0.00   3.2    SE   12.7   12.6   12.6   11.4   587.0  0.00   0.0    50     1.08     62     0.0  0.00   0.0   0.058   0.000   13.8    64    7.1   13.2    0.05   351    1    100.0   15 
 9/02/19  17.15   12.5   12.7   12.5    81    9.3   0.0   ---   0.00   0.0   ---   12.5   12.3   12.3   10.9   587.0  0.00   0.0    26     0.56     37     0.0  0.00   0.0   0.061   0.000   13.8    64    7.1   13.2    0.00   351    1    100.0   15 
 9/02/19  17.30   11.8   12.5   11.8    82    8.9   0.0   ---   0.00   0.0   ---   11.8   11.7   11.7   10.1   587.0  0.00   0.0    12     0.26     18     0.0  0.00   0.0   0.068   0.000   13.7    64    7.0   13.1    0.00   351    1    100.0   15 
 9/02/19  17.45   11.2   11.8   11.2    84    8.6   0.0   ---   0.00   0.0   ---   11.2   11.2   11.2    9.4   587.0  0.00   0.0     1     0.02      5     0.0  0.00   0.0   0.074   0.000   13.6    64    6.9   13.0    0.00   350    1    100.0   15 
 9/02/19  18.00   10.8   11.2   10.8    85    8.4   0.0   ---   0.00   0.0   ---   10.8   10.8   10.8    9.0   587.0  0.00   0.0     0     0.00      0     0.0  0.00   0.0   0.079   0.000   13.6    64    6.9   12.9    0.00   350    1    100.0   15 
 9/02/19  18.15   10.3   10.8   10.3    86    8.1   0.0   ---   0.00   0.0   ---   10.3   10.4   10.4    8.6   587.0  0.00   0.0     0     0.00      0     0.0  0.00   0.0   0.083   0.000   13.4    64    6.8   12.8    0.00   351    1    100.0   15 
 9/02/19  18.30   10.1   10.3   10.1    86    7.8   0.0   ---   0.00   0.0   ---   10.1   10.1   10.1    8.3   587.0  0.00   0.0     0     0.00      0     0.0  0.00   0.0   0.086   0.000   13.4    64    6.7   12.8    0.00   352    1    100.0   15 
 9/02/19  18.45    9.9   10.1    9.8    87    7.8   0.0   ---   0.00   0.0   ---    9.9   10.0   10.0    8.2   587.0  0.00   0.0     0     0.00      0     0.0  0.00   0.0   0.088   0.000   13.4    64    6.7   12.8    0.00   351    1    100.0   15 
 9/02/19  19.00    9.7    9.9    9.7    87    7.7   0.0   ---   0.00   0.0   ---    9.7    9.8    9.8    8.0   587.0  0.00   0.0     0     0.00      0     0.0  0.00   0.0   0.090   0.000   13.3    64    6.6   12.7    0.00   351    1    100.0   15 
 9/02/19  19.15    9.6    9.7    9.5    88    7.7   0.0   ---   0.00   0.0   ---    9.6    9.7    9.7    7.8   561.7  0.00   0.0     0     0.00      0     0.0  0.00   0.0   0.091   0.000   13.2    65    6.8   12.7    0.00   351    1    100.0   15 
 9/02/19  19.30    9.4    9.6    9.4    88    7.6   0.0   ---   0.00   0.0   ---    9.4    9.6    9.6    7.7   561.7  0.00   0.0     0     0.00      0     0.0  0.00   0.0   0.093   0.000   13.2    65    6.8   12.7    0.00   352    1    100.0   15 
 9/02/19  19.45    9.5    9.6    9.4    89    7.8   0.0   ---   0.00   0.0   ---    9.5    9.7    9.7    7.8   584.8  0.00   0.0     0     0.00      0     0.0  0.00   0.0   0.092   0.000   13.1    65    6.7   12.6    0.00   350    1    100.0   15 
 9/02/19  20.00    9.4    9.6    9.4    89    7.7   0.0   ---   0.00   0.0   ---    9.4    9.6    9.6    7.7   584.8  0.00   0.0     0     0.00      0     0.0  0.00   0.0   0.093   0.000   13.1    65    6.7   12.6    0.00   351    1    100.0   15 
 9/02/19  20.15    9.4    9.8    9.3    89    7.7   0.0   ---   0.00   0.0   ---    9.4    9.6    9.6    7.8   584.8  0.00   0.0     0     0.00      0     0.0  0.00   0.0   0.093   0.000   13.1    65    6.7   12.6    0.00   350    1    100.0   15 
 9/02/19  20.30    9.7    9.8    9.4    90    8.2   0.0   ---   0.00   0.0   ---    9.7    9.9    9.9    8.1   584.8  0.00   0.0     0     0.00      0     0.0  0.00   0.0   0.090   0.000   13.1    65    6.6   12.5    0.00   350    1    100.0   15 
 9/02/19  20.45    9.2    9.7    9.2    90    7.7   0.0   ---   0.00   0.0   ---    9.2    9.4    9.4    7.6   584.8  0.00   0.0     0     0.00      0     0.0  0.00   0.0   0.095   0.000   13.1    66    6.8   12.5    0.00   352    1    100.0   15 
 9/02/19  21.00    9.5    9.7    9.2    90    7.9   0.0   ---   0.00   0.0   ---    9.5    9.7    9.7    7.9   584.8  0.00   0.0     0     0.00      0     0.0  0.00   0.0   0.092   0.000   13.1    66    6.8   12.5    0.00   350    1    100.0   15 
 9/02/19  21.15    9.5    9.6    9.5    90    7.9   0.0   ---   0.00   0.0   ---    9.5    9.7    9.7    7.9   584.8  0.00   0.0     0     0.00      0     0.0  0.00   0.0   0.092   0.000   13.1    66    6.8   12.5    0.00   350    1    100.0   15 
 9/02/19  21.30    9.3    9.5    9.3    90    7.8   0.0   ---   0.00   0.0   ---    9.3    9.5    9.5    7.7   584.8  0.00   0.0     0     0.00      0     0.0  0.00   0.0   0.094   0.000   12.9    66    6.7   12.4    0.00   350    1    100.0   15 
 9/02/19  21.45    8.6    9.3    8.6    91    7.2   0.0   ---   0.00   0.0   ---    8.6    8.7    8.7    6.8   584.8  0.00   0.0     0     0.00      0     0.0  0.00   0.0   0.102   0.000   12.9    66    6.7   12.4    0.00   351    1    100.0   15 
 9/02/19  22.00    8.4    8.6    8.3    91    7.1   0.0   ---   0.00   0.0   ---    8.4    8.6    8.6    6.7   584.8  0.00   0.0     0     0.00      0     0.0  0.00   0.0   0.103   0.000   12.9    66    6.7   12.4    0.00   350    1    100.0   15 
 9/02/19  22.15    8.7    8.7    8.4    91    7.3   0.0   ---   0.00   0.0   ---    8.7    8.8    8.8    6.9   584.8  0.00   0.0     0     0.00      0     0.0  0.00   0.0   0.101   0.000   12.9    66    6.7   12.4    0.00   349    1    100.0   15 
 9/02/19  22.30    8.6    8.7    8.6    91    7.2   0.0   ---   0.00   0.0   ---    8.6    8.7    8.7    6.8   584.8  0.00   0.0     0     0.00      0     0.0  0.00   0.0   0.102   0.000   12.9    66    6.7   12.4    0.00   351    1    100.0   15 
 9/02/19  22.45    8.8    8.8    8.6    91    7.4   0.0   ---   0.00   0.0   ---    8.8    8.9    8.9    7.1   584.8  0.00   0.0     0     0.00      0     0.0  0.00   0.0   0.099   0.000   12.9    66    6.7   12.3    0.00   350    1    100.0   15 
 9/02/19  23.00    8.6    9.1    8.6    92    7.4   0.0   ---   0.00   0.0   ---    8.6    8.8    8.8    6.9   584.8  0.00   0.0     0     0.00      0     0.0  0.00   0.0   0.101   0.000   12.9    66    6.7   12.3    0.00   351    1    100.0   15 
 9/02/19  23.15    8.3    8.6    8.1    92    7.1   0.0   ---   0.00   0.0   ---    8.3    8.4    8.4    6.6   584.8  0.00   0.0     0     0.00      0     0.0  0.00   0.0   0.105   0.000   12.9    67    6.9   12.4    0.00   349    1    100.0   15 
 9/02/19  23.30    8.4    8.4    7.8    92    7.2   0.0   ---   0.00   0.0   ---    8.4    8.6    8.6    6.7   584.8  0.00   0.0     0     0.00      0     0.0  0.00   0.0   0.103   0.000   12.8    67    6.8   12.3    0.00   351    1    100.0   15 
 9/02/19  23.45    8.9    8.9    7.9    92    7.7   0.0   ---   0.00   0.0   ---    8.9    9.1    9.1    7.3   584.8  0.00   0.0     0     0.00      0     0.0  0.00   0.0   0.098   0.000   12.8    67    6.8   12.3    0.00   349    1    100.0   15 
10/02/19  00.00    8.5    8.9    8.0    92    7.3   0.0   ---   0.00   0.0   ---    8.5    8.7    8.7    6.8   584.8  0.00   0.0     0     0.00      0     0.0  0.00   0.0   0.102   0.000   12.8    67    6.8   12.3    0.00   350    1    100.0   15 
10/02/19   0.15    8.7    8.9    8.5    93    7.6   0.0    SE   0.00   3.2    SE    8.7    8.8    8.8    7.0   584.8  0.00   0.0     0     0.00      0     0.0  0.00   0.0   0.101   0.000   12.8    67    6.8   12.3    0.00   349    1    100.0   15 
10/02/19   0.30    9.1    9.2    8.5    92    7.8   0.0    SE   0.00   4.8    SE    9.1    9.2    9.2    7.4   584.8  0.00   0.0     0     0.00      0     0.0  0.00   0.0   0.097   0.000   12.8    67    6.8   12.3    0.00   350    1    100.0   15 
10/02/19   0.45    8.8    9.6    8.7    92    7.6   0.0    SE   0.00   4.8    SE    8.8    9.0    9.0    7.2   578.6  0.00   0.0     0     0.00      0     0.0  0.00   0.0   0.099   0.000   12.8    67    6.8   12.3    0.00   351    1    100.0   15 
10/02/19   1.00    8.8    9.7    8.8    93    7.7   0.0    SE   0.00   6.4    SE    8.8    8.9    8.9    7.1   578.6  0.00   0.0     0     0.00      0     0.0  0.00   0.0   0.100   0.000   12.8    67    6.8   12.3    0.00   351    1    100.0   15 
10/02/19   1.15    8.8    9.3    8.8    93    7.7   0.0   ---   0.00   0.0   ---    8.8    8.9    8.9    7.1   578.6  0.00   0.0     0     0.00      0     0.0  0.00   0.0   0.100   0.000   12.8    67    6.8   12.3    0.00   349    1    100.0   15 
10/02/19   1.30    8.7    9.1    8.6    93    7.7   0.0    SE   0.00   4.8    SE    8.7    8.9    8.9    7.1   578.6  0.00   0.0     0     0.00      0     0.0  0.00   0.0   0.100   0.000   12.8    67    6.8   12.3    0.00   352    1    100.0   15 
10/02/19   1.45    9.1    9.3    8.7    93    8.0   0.0    SE   0.00   4.8    SE    9.1    9.2    9.2    7.4   578.6  0.00   0.0     0     0.00      0     0.0  0.00   0.0   0.097   0.000   12.8    67    6.8   12.3    0.00   349    1    100.0   15 
10/02/19   2.00    8.9    9.2    8.8    93    7.9   0.0    SE   0.00   1.6    SE    8.9    9.1    9.1    7.3   578.6  0.00   0.0     0     0.00      0     0.0  0.00   0.0   0.098   0.000   12.7    67    6.7   12.2    0.00   349    1    100.0   15 
10/02/19   2.15    9.1    9.4    8.9    93    8.0   0.0    SE   0.00   4.8    SE    9.1    9.2    9.2    7.4   578.6  0.00   0.0     0     0.00      0     0.0  0.00   0.0   0.097   0.000   12.7    67    6.7   12.2    0.00   350    1    100.0   15 
10/02/19   2.30    9.3    9.3    9.0    93    8.2   0.0    SE   0.00   1.6    SE    9.3    9.5    9.5    7.7   578.6  0.00   0.0     0     0.00      0     0.0  0.00   0.0   0.094   0.000   12.7    67    6.7   12.2    0.00   352    1    100.0   15 
10/02/19   2.45    8.8    9.3    8.8    93    7.7   0.0    SE   0.00   1.6    SE    8.8    8.9    8.9    7.1   578.6  0.00   0.0     0     0.00      0     0.0  0.00   0.0   0.100   0.000   12.7    67    6.7   12.2    0.00   350    1    100.0   15 
10/02/19   3.00   10.4   10.6    8.8    93    9.3   0.0    SE   0.00   8.0    SE   10.4   10.6   10.6    8.9   578.6  0.00   0.0     0     0.00      0     0.0  0.00   0.0   0.083   0.000   12.7    68    7.0   12.2    0.00   350    1    100.0   15 
10/02/19   3.15   10.8   10.8   10.4    93    9.7   1.6    SE   0.40   8.0    SE   10.8   11.0   11.0    9.3   578.6  0.00   0.0     0     0.00      0     0.0  0.00   0.0   0.078   0.000   12.7    68    7.0   12.2    0.00   350    1    100.0   15 
10/02/19   3.30   10.8   10.9   10.7    93    9.7   0.0    SE   0.00   1.6    SE   10.8   10.9   10.9    9.2   578.6  0.00   0.0     0     0.00      0     0.0  0.00   0.0   0.079   0.000   12.7    68    7.0   12.2    0.00   352    1    100.0   15 
10/02/19   3.45   10.9   10.9   10.7    92    9.7   0.0    SE   0.00   1.6    SE   10.9   11.1   11.1    9.4   578.6  0.00   0.0     0     0.00      0     0.0  0.00   0.0   0.077   0.000   12.7    68    7.0   12.2    0.00   350    1    100.0   15 
10/02/19   4.00   11.1   11.2   10.9    92    9.9   0.0    SE   0.00   1.6    SE   11.1   11.2   11.2    9.5   578.6  0.00   0.0     0     0.00      0     0.0  0.00   0.0   0.075   0.000   12.7    68    7.0   12.2    0.00   349    1    100.0   15 
10/02/19   4.15   11.1   11.1   10.9    92    9.9   0.0    SE   0.00   6.4    SE   11.1   11.2   11.2    9.5   578.6  0.00   0.0     0     0.00      0     0.0  0.00   0.0   0.075   0.000   12.7    68    7.0   12.2    0.00   348    1    100.0   15 
10/02/19   4.30   11.6   11.6   11.0    92   10.3   3.2    SE   0.80   9.7    SE   11.6   11.7   11.7    9.9   578.6  0.00   0.0     0     0.00      0     0.0  0.00   0.0   0.071   0.000   12.7    68    7.0   12.2    0.00   349    1    100.0   15 
10/02/19   4.45   11.3   11.6   11.2    92   10.0   1.6    SE   0.40   8.0    SE   11.3   11.4   11.4    9.7   578.6  0.00   0.0     0     0.00      0     0.0  0.00   0.0   0.073   0.000   12.7    68    7.0   12.2    0.00   352    1    100.0   15 
10/02/19   5.00   11.2   11.6   11.2    92    9.9   3.2    SE   0.80   8.0    SE   11.2   11.3   11.3    9.6   578.6  0.00   0.0     0     0.00      0     0.0  0.00   0.0   0.075   0.000   12.7    68    7.0   12.2    0.00   350    1    100.0   15 
10/02/19   5.15   10.2   11.2   10.2    92    8.9   0.0    SE   0.00   6.4    SE   10.2   10.3   10.3    8.6   578.6  0.00   0.0     0     0.00      0     0.0  0.00   0.0   0.085   0.000   12.7    68    7.0   12.2    0.00   350    1    100.0   15 
10/02/19   5.30    9.7   10.2    9.6    92    8.5   0.0    SE   0.00   4.8    SE    9.7    9.9    9.9    8.2   578.6  0.00   0.0     0     0.00      0     0.0  0.00   0.0   0.090   0.000   12.7    68    7.0   12.2    0.00   350    1    100.0   15 
10/02/19   5.45    9.7    9.7    9.4    92    8.5   0.0    SE   0.00   3.2    SE    9.7    9.9    9.9    8.2   578.6  0.00   0.0     0     0.00      0     0.0  0.00   0.0   0.090   0.000   12.7    69    7.2   12.3    0.00   352    1    100.0   15 
10/02/19   6.00    9.4   10.0    9.4    92    8.2   0.0    SE   0.00   3.2    SE    9.4    9.6    9.6    7.8   578.6  0.00   0.0     0     0.00      0     0.0  0.00   0.0   0.093   0.000   12.7    69    7.2   12.3    0.00   350    1    100.0   15 
10/02/19   6.15    9.9    9.9    9.4    93    8.9   0.0    SE   0.00   4.8    SE    9.9   10.2   10.2    8.4   578.6  0.00   0.0     0     0.00      0     0.0  0.00   0.0   0.087   0.000   12.7    69    7.2   12.3    0.00   350    1    100.0   15 
10/02/19   6.30    9.8   10.0    9.6    92    8.5   0.0    SE   0.00   4.8    SE    9.8   10.0   10.0    8.2   578.6  0.00   0.0     0     0.00      0     0.0  0.00   0.0   0.089   0.000   12.7    69    7.2   12.3    0.00   351    1    100.0   15 
10/02/19   6.45    9.1   10.1    8.9    93    8.0   0.0    SE   0.00   4.8    SE    9.1    9.3    9.3    7.6   578.6  0.00   0.0     0     0.00      0     0.0  0.00   0.0   0.096   0.000   12.7    69    7.2   12.3    0.00   352    1    100.0   15 
10/02/19   7.00    9.2    9.9    8.8    93    8.1   0.0    SE   0.00   1.6    SE    9.2    9.4    9.4    7.6   578.6  0.00   0.0     0     0.00      0     0.0  0.00   0.0   0.095   0.000   12.7    69    7.2   12.3    0.00   351    1    100.0   15 
10/02/19   7.15    8.4    9.4    8.4    93    7.3   0.0   ---   0.00   0.0   ---    8.4    8.6    8.6    6.7   578.6  0.00   0.0     0     0.00      0     0.0  0.00   0.0   0.104   0.000   12.7    69    7.2   12.3    0.00   350    1    100.0   15 
10/02/19   7.30    8.4    8.7    8.3    93    7.4   0.0    SE   0.00   1.6    SE    8.4    8.6    8.6    6.9   578.6  0.00   0.0     7     0.15     16     0.0  0.00   0.0   0.103   0.000   12.7    69    7.2   12.3    0.00   350    1    100.0   15 
10/02/19   7.45    8.6    8.6    8.4    93    7.5   0.0   ---   0.00   0.0   ---    8.6    8.8    8.8    7.3   578.6  0.00   0.0    29     0.62     42     0.0  0.00   0.0   0.101   0.000   12.7    69    7.2   12.3    0.00   350    1    100.0   15 
10/02/19   8.00    9.3    9.3    8.6    93    8.2   0.0   ---   0.00   0.0   ---    9.3    9.5    9.5    8.3   578.6  0.00   0.0    54     1.16     65     0.0  0.00   0.0   0.094   0.000   12.7    69    7.2   12.3    0.00   352    1    100.0   15 
10/02/19   8.15    9.3    9.3    9.2    93    8.2   0.0   ---   0.00   0.0   ---    9.3    9.5    9.5    8.7   578.6  0.00   0.0    81     1.74    104     0.0  0.00   0.0   0.094   0.000   12.7    69    7.2   12.3    0.00   351    1    100.0   15 
10/02/19   8.30    9.6    9.6    9.3    93    8.5   0.0    SE   0.00   1.6    SE    9.6    9.8    9.8    8.8   578.6  0.00   0.0    63     1.35     84     0.0  0.00   0.0   0.091   0.000   12.7    69    7.2   12.3    0.00   350    1    100.0   15 
10/02/19   8.45    9.8    9.8    9.6    93    8.7   0.0   ---   0.00   0.0   ---    9.8   10.0   10.0   11.0   578.6  0.00   0.0    88     1.89    127     0.0  0.00   0.0   0.089   0.000   12.7    69    7.2   12.3    0.00   351    1    100.0   15 
10/02/19   9.00   10.2   10.2    9.7    93    9.1   0.0   ---   0.00   0.0   ---   10.2   10.4   10.4   12.4   578.6  0.00   0.0   137     2.95    200     0.0  0.00   0.0   0.085   0.000   12.7    69    7.2   12.3    0.05   352    1    100.0   15 
10/02/19   9.15   10.8   10.8   10.2    93    9.7   0.0   ---   0.00   0.0   ---   10.8   11.0   11.0   13.9   578.6  0.00   0.0   186     4.00    218     0.0  0.00   0.0   0.078   0.000   12.8    69    7.2   12.3    0.00   350    1    100.0   15 
10/02/19   9.30   11.3   11.3   10.8    93   10.2   0.0   ---   0.00   0.0   ---   11.3   11.4   11.4   13.9   578.6  0.00   0.0   158     3.40    216     0.0  0.00   0.0   0.073   0.000   12.8    69    7.2   12.3    0.00   350    1    100.0   15 
10/02/19   9.45   11.7   11.7   11.3    93   10.6   0.0    SE   0.00   8.0    SE   11.7   11.8   11.8   13.4   578.6  0.00   0.0   119     2.56    127     0.0  0.00   0.0   0.069   0.000   12.8    69    7.2   12.3    0.00   350    1    100.0   15 
10/02/19  10.00   12.3   12.3   11.7    92   11.0   1.6    SE   0.40   8.0    SE   12.3   12.3   12.3   14.6   578.3  0.00   0.0   156     3.35    320     0.0  0.00   0.0   0.063   0.000   12.8    69    7.2   12.3    0.08   350    1    100.0   15 
10/02/19  10.15   13.3   13.3   12.3    91   11.8   0.0    SE   0.00   6.4    SE   13.3   13.3   13.3   18.5   578.3  0.00   0.0   354     7.61    452     0.0  0.00   0.0   0.053   0.000   12.9    69    7.3   12.4    0.00   351    1    100.0   15 
10/02/19  10.30   13.3   13.5   13.3    87   11.2   1.6    SE   0.40  11.3    SE   13.3   13.3   13.3   17.9   586.2  0.00   0.0   310     6.67    534     0.0  0.00   0.0   0.052   0.000   12.9    69    7.4   12.5    0.00   350    1    100.0   15 
10/02/19  10.45   13.7   13.7   13.3    86   11.4   1.6    SE   0.40  11.3    SE   13.7   13.6   13.6   18.1   586.2  0.00   0.0   305     6.56    707     0.0  0.00   0.0   0.049   0.000   12.9    69    7.4   12.5    0.00   350    1    100.0   15 
10/02/19  11.00   13.6   14.1   13.6    85   11.1   4.8    SE   1.21  14.5    SE   13.6   13.6   13.6   17.8   586.2  0.00   0.0   284     6.11    339     0.0  0.00   0.0   0.049   0.000   13.1    69    7.5   12.6    0.00   350    1    100.0   15 
10/02/19  11.15   14.3   14.3   13.6    83   11.4   3.2    SE   0.80  16.1    SE   14.3   14.2   14.2   23.9   586.7  0.00   0.0   670    14.41    735     0.0  0.00   0.0   0.042   0.000   13.2    69    7.7   12.8    0.18   351    1    100.0   15 
10/02/19  11.30   13.8   14.3   13.8    82   10.8   3.2    SE   0.80  11.3    SE   13.8   13.7   13.7   18.3   586.7  0.00   0.0   329     7.07    399     0.0  0.00   0.0   0.047   0.000   13.2    69    7.7   12.8    0.00   351    1    100.0   15 
10/02/19  11.45   13.6   13.8   13.5    83   10.8   1.6    SE   0.40  11.3    SE   13.6   13.5   13.5   17.8   586.7  0.00   0.0   299     6.43    360     0.0  0.00   0.0   0.049   0.000   13.3    69    7.7   12.8    0.00   351    1    100.0   15 
10/02/19  12.00   13.4   13.7   13.4    83   10.6   1.6    SE   0.40  12.9    SE   13.4   13.3   13.3   16.7   586.7  0.00   0.0   238     5.12    445     0.0  0.00   0.0   0.051   0.000   13.3    69    7.7   12.8    0.20   350    1    100.0   15 
10/02/19  12.15   13.4   13.4   13.3    85   10.9   3.2    SE   0.80   9.7    SE   13.4   13.3   13.3   16.5   586.7  0.00   0.0   223     4.80    309     0.0  0.00   0.0   0.052   0.000   13.3    69    7.7   12.8    0.00   350    1    100.0   15 
10/02/19  12.30   13.7   13.7   13.4    85   11.2   1.6    SE   0.40   9.7    SE   13.7   13.7   13.7   18.1   586.7  0.00   0.0   304     6.54    404     0.0  0.00   0.0   0.048   0.000   13.3    69    7.7   12.8    0.00   350    1    100.0   15 
10/02/19  12.45   13.8   14.0   13.7    84   11.1   3.2    SE   0.80  11.3    SE   13.8   13.7   13.7   18.3   586.7  0.00   0.0   316     6.79    687     0.0  0.00   0.0   0.047   0.000   13.4    69    7.8   12.9    0.00   350    1    100.0   15 
10/02/19  13.00   13.7   13.9   13.7    84   11.1   3.2    SE   0.80  11.3    SE   13.7   13.7   13.7   16.2   586.7  0.00   0.0   187     4.02    464     0.0  0.00   0.0   0.048   0.000   13.4    69    7.8   12.9    0.15   351    1    100.0   15 
10/02/19  13.15   13.6   13.7   13.6    86   11.3   6.4    SE   1.61  29.0   SSW   13.6   13.6   13.5   14.5   586.7  0.00   0.0    98     2.11    128     0.0  0.00   0.0   0.049   0.000   13.3    69    7.7   12.8    0.00   351    1    100.0   15 
10/02/19  13.30   13.8   13.8   13.6    85   11.3  11.3     S   2.82  27.4     S   13.0   13.7   12.9   15.6   586.7  0.00   0.0   190     4.09    271     0.0  0.00   0.0   0.047   0.000   13.3    70    7.9   12.8    0.00   351    1    100.0   15 
10/02/19  13.45   13.9   13.9   13.7    85   11.5   9.7   SSW   2.41  25.7   SSW   13.4   13.9   13.3   16.3   586.7  0.00   0.0   194     4.17    294     0.0  0.00   0.0   0.046   0.000   13.4    70    8.0   12.9    0.00   351    1    100.0   15 
10/02/19  14.00   13.8   14.0   13.8    85   11.4  12.9   SSW   3.22  25.7   SSW   12.7   13.8   12.6   14.6   586.7  0.00   0.0   149     3.20    227     0.0  0.00   0.0   0.047   0.000   13.4    70    8.0   12.9    0.10   351    1    100.0   15 
10/02/19  14.15   13.8   13.9   13.8    85   11.4  11.3     S   2.82  33.8    SW   13.1   13.8   13.0   14.7   586.7  0.00   0.0   123     2.64    199     0.0  0.00   0.0   0.047   0.000   13.4    70    8.0   12.9    0.00   351    1    100.0   15 
10/02/19  14.30   13.8   13.9   13.8    84   11.1  12.9     S   3.22  30.6   SSW   12.6   13.7   12.6   13.9   586.7  0.00   0.0   106     2.28    146     0.0  0.00   0.0   0.047   0.000   13.4    70    8.0   12.9    0.00   350    1    100.0   15 
10/02/19  14.45   13.8   13.8   13.7    84   11.1   9.7     S   2.41  29.0   SSW   13.2   13.7   13.2   14.2   586.7  0.00   0.0    88     1.89    121     0.0  0.00   0.0   0.047   0.000   13.3    70    7.9   12.8    0.00   349    1    100.0   15 
10/02/19  15.00   13.7   13.8   13.7    84   11.0   9.7   SSW   2.41  25.7   SSE   13.1   13.6   13.0   13.6   586.7  0.00   0.0    64     1.38     81     0.0  0.00   0.0   0.049   0.000   13.3    71    8.1   12.8    0.08   349    1    100.0   15 
10/02/19  15.15   13.7   13.7   13.7    84   11.1   9.7     S   2.41  29.0   SSW   13.1   13.7   13.1   13.6   586.7  0.00   0.0    61     1.31     83     0.0  0.00   0.0   0.048   0.000   13.3    71    8.1   12.8    0.00   350    1    100.0   15 
10/02/19  15.30   13.8   13.8   13.7    85   11.4   8.0     S   2.01  20.9   SSW   13.5   13.8   13.4   13.7   586.7  0.00   0.0    50     1.08     60     0.0  0.00   0.0   0.047   0.000   13.3    71    8.1   12.8    0.00   352    1    100.0   15 
10/02/19  15.45   13.9   13.9   13.8    85   11.4   6.4     S   1.61  19.3     S   13.9   13.8   13.8   13.3   586.7  0.00   0.0    68     1.46     90     0.0  0.00   0.0   0.046   0.000   13.3    71    8.1   12.8    0.00   351    1    100.0   15 
10/02/19  16.00   14.0   14.0   13.9    85   11.5   4.8   SSE   1.21  17.7   SSE   14.0   13.9   13.9   13.3   586.7  0.00   0.0    58     1.25     74     0.0  0.00   0.0   0.045   0.000   13.3    71    8.1   12.8    0.05   351    1    100.0   15 
10/02/19  16.15   14.0   14.0   13.9    86   11.7   4.8   SSE   1.21  17.7   SSE   14.0   13.9   13.9   13.0   586.7  0.00   0.0    32     0.69     44     0.0  0.00   0.0   0.045   0.000   13.3    71    8.1   12.8    0.00   350    1    100.0   15 
10/02/19  16.30   14.0   14.0   13.9    86   11.7   8.0     S   2.01  19.3   SSW   13.7   13.9   13.6   12.7   586.7  0.00   0.0    33     0.71     42     0.0  0.00   0.0   0.045   0.000   13.3    71    8.1   12.8    0.00   352    1    100.0   15 
10/02/19  16.45   14.0   14.1   13.9    86   11.7   9.7     S   2.41  29.0   SSW   13.4   13.9   13.4   12.4   586.7  0.00   0.0    33     0.71     39     0.0  0.00   0.0   0.045   0.000   13.2    71    8.1   12.8    0.00   351    1    100.0   15 
10/02/19  17.00   13.9   14.1   13.8    87   11.8   8.0     S   2.01  20.9    SE   13.6   13.9   13.6   12.6   586.7  0.00   0.0    32     0.69     39     0.0  0.00   0.0   0.046   0.000   13.2    71    8.1   12.8    0.03   351    1    100.0   15 
10/02/19  17.15   13.8   13.9   13.7    87   11.7   6.4     S   1.61  19.3     S   13.8   13.8   13.8   12.7   586.7  0.00   0.0    21     0.45     30     0.0  0.00   0.0   0.047   0.000   13.2    71    8.1   12.8    0.00   350    1    100.0   15 
10/02/19  17.30   13.7   13.8   13.7    88   11.8   3.2   SSE   0.80  14.5     S   13.7   13.7   13.7   12.4   586.7  0.00   0.0     3     0.06      7     0.0  0.00   0.0   0.048   0.000   13.2    71    8.1   12.8    0.00   352    1    100.0   15 
10/02/19  17.45   13.7   13.7   13.7    88   11.8   4.8   SSE   1.21  11.3   SSE   13.7   13.7   13.7   12.3   586.7  0.00   0.0     0     0.00      0     0.0  0.00   0.0   0.048   0.000   13.2    72    8.3   12.8    0.00   351    1    100.0   15 
10/02/19  18.00   13.7   13.7   13.7    88   11.7   6.4   SSE   1.61  17.7     S   13.6   13.7   13.6   12.2   586.7  0.00   0.0     0     0.00      0     0.0  0.00   0.0   0.049   0.000   13.2    72    8.3   12.8    0.00   350    1    100.0   15 
10/02/19  18.15   13.7   13.7   13.7    87   11.6   4.8   SSE   1.21  17.7    SE   13.7   13.7   13.7   12.3   572.7  0.00   0.0     0     0.00      0     0.0  0.00   0.0   0.048   0.000   13.2    72    8.3   12.8    0.00   350    1    100.0   15 
10/02/19  18.30   13.7   13.7   13.7    88   11.8   3.2    SE   0.80  11.3   SSE   13.7   13.7   13.7   12.3   572.7  0.00   0.0     0     0.00      0     0.0  0.00   0.0   0.048   0.000   13.2    72    8.3   12.8    0.00   351    1    100.0   15 
10/02/19  18.45   13.5   13.7   13.5    88   11.6   1.6    SE   0.40   9.7    SE   13.5   13.5   13.5   12.1   572.7  0.00   0.0     0     0.00      0     0.0  0.00   0.0   0.050   0.000   13.2    72    8.3   12.8    0.00   350    1    100.0   15 
10/02/19  19.00   13.3   13.5   13.3    88   11.3   0.0    SE   0.00   9.7    SE   13.3   13.3   13.3   11.9   572.7  0.00   0.0     0     0.00      0     0.0  0.00   0.0   0.053   0.000   13.2    72    8.3   12.8    0.00   351    1    100.0   15 
10/02/19  19.15   13.0   13.3   13.0    88   11.1   0.0   ---   0.00   0.0   ---   13.0   13.0   13.0   11.6   572.7  0.00   0.0     0     0.00      0     0.0  0.00   0.0   0.056   0.000   13.2    72    8.3   12.8    0.00   351    1    100.0   15 
10/02/19  19.30   12.4   13.0   12.4    89   10.7   0.0     W   0.00   8.0     W   12.4   12.5   12.5   11.1   572.7  0.00   0.0     0     0.00      0     0.0  0.00   0.0   0.061   0.000   13.2    72    8.3   12.8    0.00   351    1    100.0   15 
10/02/19  19.45   12.7   12.7   12.3    90   11.1   0.0     W   0.00   1.6     W   12.7   12.8   12.8   11.4   578.7  0.00   0.0     0     0.00      0     0.0  0.00   0.0   0.058   0.000   13.1    72    8.2   12.7    0.00   350    1    100.0   15 
10/02/19  20.00   11.9   12.7   11.9    90   10.3   0.0   ---   0.00   0.0   ---   11.9   11.9   11.9   10.5   578.7  0.00   0.0     0     0.00      0     0.0  0.00   0.0   0.067   0.000   13.1    71    8.0   12.7    0.00   351    1    100.0   15 
10/02/19  20.15   11.4   11.8   11.4    91   10.0   0.0     W   0.00   1.6     W   11.4   11.6   11.6   10.1   578.7  0.00   0.0     0     0.00      0     0.0  0.00   0.0   0.072   0.000   13.1    71    8.0   12.7    0.00   351    1    100.0   15 
10/02/19  20.30   10.9   11.4   10.8    91    9.5   0.0   ---   0.00   0.0   ---   10.9   11.1   11.1    9.6   578.7  0.00   0.0     0     0.00      0     0.0  0.00   0.0   0.077   0.000   13.1    71    8.0   12.7    0.00   349    1    100.0   15 
10/02/19  20.45   10.7   11.3   10.7    91    9.3   0.0   ---   0.00   0.0   ---   10.7   10.8   10.8    9.3   578.7  0.00   0.0     0     0.00      0     0.0  0.00   0.0   0.079   0.000   13.1    71    7.9   12.7    0.00   352    1    100.0   15 
10/02/19  21.00   10.1   10.7   10.1    92    8.9   0.0   ---   0.00   0.0   ---   10.1   10.3   10.3    8.8   576.4  0.00   0.0     0     0.00      0     0.0  0.00   0.0   0.086   0.000   13.1    71    7.9   12.7    0.00   350    1    100.0   15 
10/02/19  21.15    9.8   10.1    9.8    92    8.5   0.0   ---   0.00   0.0   ---    9.8   10.0   10.0    8.5   576.4  0.00   0.0     0     0.00      0     0.0  0.00   0.0   0.089   0.000   13.1    71    7.9   12.7    0.00   349    1    100.0   15 
10/02/19  21.30    8.7    9.8    8.7    92    7.5   0.0   ---   0.00   0.0   ---    8.7    8.9    8.9    7.3   576.4  0.00   0.0     0     0.00      0     0.0  0.00   0.0   0.100   0.000   13.1    71    7.9   12.7    0.00   351    1    100.0   15 
10/02/19  21.45   10.8   10.8    8.7    92    9.5   0.0   ---   0.00   0.0   ---   10.8   10.9   10.9    9.5   576.4  0.00   0.0     0     0.00      0     0.0  0.00   0.0   0.079   0.000   12.9    71    7.8   12.6    0.00   351    1    100.0   15 
10/02/19  22.00    9.9   11.3    9.9    92    8.6   0.0     W   0.00   1.6     W    9.9   10.1   10.1    8.6   576.4  0.00   0.0     0     0.00      0     0.0  0.00   0.0   0.088   0.000   12.9    71    7.8   12.6    0.00   352    1    100.0   15 
10/02/19  22.15    9.8   11.8    9.4    92    8.5   0.0     W   0.00   8.0     W    9.8   10.0   10.0    8.5   571.1  0.00   0.0     0     0.00      0     0.0  0.00   0.0   0.089   0.000   12.9    71    7.8   12.6    0.00   351    1    100.0   15 
10/02/19  22.30   10.7   11.0    8.8    93    9.6   1.6     W   0.40  11.3     W   10.7   10.8   10.8    9.4   571.1  0.00   0.0     0     0.00      0     0.0  0.00   0.0   0.080   0.000   12.9    71    7.8   12.6    0.00   350    1    100.0   15 
10/02/19  22.45   10.2   10.6    9.6    92    8.9   0.0     W   0.00   1.6     W   10.2   10.3   10.3    8.8   579.9  0.00   0.0     0     0.00      0     0.0  0.00   0.0   0.085   0.000   12.9    71    7.8   12.6    0.00   349    1    100.0   15 
10/02/19  23.00   10.8   10.8   10.2    93    9.7   0.0     W   0.00   6.4     W   10.8   11.0   11.0    9.6   579.9  0.00   0.0     0     0.00      0     0.0  0.00   0.0   0.078   0.000   12.9    71    7.8   12.6    0.00   351    1    100.0   15 
10/02/19  23.15   10.7   10.8   10.7    93    9.6   0.0     W   0.00   4.8     W   10.7   10.8   10.8    9.4   579.9  0.00   0.0     0     0.00      0     0.0  0.00   0.0   0.080   0.000   12.9    71    7.8   12.6    0.00   351    1    100.0   15 
10/02/19  23.30   10.9   11.1   10.6    93    9.9   0.0     W   0.00   8.0     W   10.9   11.1   11.1    9.7   579.9  0.00   0.0     0     0.00      0     0.0  0.00   0.0   0.077   0.000   12.9    71    7.8   12.6    0.00   351    1    100.0   15 
10/02/19  23.45   10.9   11.1   10.8    93    9.8   0.0     W   0.00   6.4     W   10.9   11.1   11.1    9.6   579.9  0.00   0.0     0     0.00      0     0.0  0.00   0.0   0.078   0.000   12.9    71    7.8   12.6    0.00   351    1    100.0   15 
11/02/19  00.00   10.1   10.9   10.1    93    9.0   0.0     W   0.00   1.6     W   10.1   10.3   10.3    8.8  1029.7  0.00   0.0     0     0.00      0     0.0  0.00   0.0   0.086   0.000   12.9    71    7.8   12.6    0.00   351    1    100.0   15 
11/02/19   0.15    9.9   10.1    9.4    92    8.7   0.0     W   0.00   1.6     W    9.9   10.2   10.2    8.7  1029.7  0.00   0.0     0     0.00      0     0.0  0.00   0.0   0.087   0.000   12.9    71    7.8   12.6    0.00   349    1    100.0   15 
11/02/19   0.30   10.4   10.6    9.8    92    9.2   0.0     W   0.00   6.4     W   10.4   10.6   10.6    9.1  1029.7  0.00   0.0     0     0.00      0     0.0  0.00   0.0   0.082   0.000   12.9    71    7.8   12.5    0.00   352    1    100.0   15 
11/02/19   0.45    9.7   10.4    9.7    92    8.4   0.0     W   0.00   1.6     W    9.7    9.9    9.9    8.4  1029.7  0.00   0.0     0     0.00      0     0.0  0.00   0.0   0.090   0.000   12.9    71    7.8   12.5    0.00   351    1    100.0   15 
11/02/19   1.00    9.1    9.7    9.0    92    7.8   0.0     W   0.00   1.6     W    9.1    9.2    9.2    7.7  1029.7  0.00   0.0     0     0.00      0     0.0  0.00   0.0   0.097   0.000   12.9    71    7.8   12.5    0.00   350    1    100.0   15 
11/02/19   1.15   14.3   14.3    9.0    76   10.2   8.0   WNW   2.01  29.0   WNW   14.1   14.1   13.9   12.4  1029.7  0.00   0.0     0     0.00      0     0.0  0.00   0.0   0.042   0.000   12.9    71    7.8   12.5    0.00   351    1    100.0   15 
11/02/19   1.30   13.9   14.5   13.7    68    8.1   1.6    NW   0.40  30.6   SSW   13.9   13.4   13.4   11.9  1029.7  0.00   0.0     0     0.00      0     0.0  0.00   0.0   0.046   0.000   12.9    71    7.8   12.5    0.00   352    1    100.0   15 
11/02/19   1.45   15.2   15.2   14.0    50    4.9  11.3    NW   2.82  51.5   NNW   14.7   14.1   13.6   11.9   581.7  0.00   0.0     0     0.00      0     0.0  0.00   0.0   0.032   0.000   12.9    71    7.8   12.5    0.00   351    1    100.0   15 
11/02/19   2.00   15.1   15.3   15.1    49    4.4  25.7    NW   6.44  53.1    NW   11.8   13.9   10.6    9.4   581.7  0.00   0.0     0     0.00      0     0.0  0.00   0.0   0.034   0.000   12.9    71    7.8   12.5    0.05   350    1    100.0   15 
11/02/19   2.15   14.9   15.1   14.7    48    4.0  22.5   WNW   5.63  41.8    NW   12.0   13.7   10.8    9.6   581.7  0.00   0.0     0     0.00      0     0.0  0.00   0.0   0.036   0.000   12.9    70    7.5   12.4    0.00   349    1    100.0   15 
11/02/19   2.30   14.5   14.8   14.5    49    3.9  22.5   WNW   5.63  51.5   WNW   11.5   13.3   10.3    9.1   581.7  0.00   0.0     0     0.00      0     0.0  0.00   0.0   0.040   0.000   12.9    69    7.3   12.4    0.00   349    1    100.0   15 
11/02/19   2.45   14.3   14.5   14.3    51    4.3  24.1   WNW   6.04  53.1   WNW   11.2   13.3   10.1    8.9   581.7  0.00   0.0     0     0.00      0     0.0  0.00   0.0   0.042   0.000   12.9    68    7.1   12.4    0.00   351    1    100.0   15 
11/02/19   3.00   13.9   14.3   13.9    51    4.0  20.9   WNW   5.23  46.7   WNW   11.1   12.9   10.1    8.8   581.7  0.00   0.0     0     0.00      0     0.0  0.00   0.0   0.046   0.000   12.9    68    7.1   12.4    0.13   351    1    100.0   15 
11/02/19   3.15   13.6   13.9   13.6    55    4.7  20.9   WNW   5.23  48.3     W   10.7   12.7    9.8    8.4   581.7  0.00   0.0     0     0.00      0     0.0  0.00   0.0   0.050   0.000   12.9    68    7.2   12.4    0.00   350    1    100.0   15 
11/02/19   3.30   13.3   13.6   13.3    58    5.2  17.7   WNW   4.43  49.9     W   10.9   12.5   10.1    8.7   581.7  0.00   0.0     0     0.00      0     0.0  0.00   0.0   0.053   0.000   12.9    67    7.0   12.4    0.00   347    1    100.0   15 
11/02/19   3.45   13.1   13.4   13.1    55    4.3  24.1   WNW   6.04  61.2    NW    9.8   12.2    8.9    7.7   581.7  0.00   0.0     0     0.00      0     0.0  0.00   0.0   0.054   0.000   12.9    67    7.0   12.4    0.00   350    1    100.0   15 
11/02/19   4.00   12.8   13.2   12.8    55    4.0  24.1   WNW   6.04  53.1   WSW    9.4   11.9    8.6    7.3   581.9  0.00   0.0     0     0.00      0     0.0  0.00   0.0   0.058   0.000   12.9    67    7.0   12.4    0.13   350    1    100.0   15 
11/02/19   4.15   12.7   12.8   12.6    55    3.9  22.5     W   5.63  49.9     W    9.4   11.8    8.6    7.3   581.9  0.00   0.0     0     0.00      0     0.0  0.00   0.0   0.059   0.000   12.9    67    7.0   12.4    0.00   349    1    100.0   15 
11/02/19   4.30   12.6   12.7   12.6    55    3.8  24.1     W   6.04  54.7     W    9.2   11.8    8.3    7.1   581.9  0.00   0.0     0     0.00      0     0.0  0.00   0.0   0.060   0.000   12.9    66    6.7   12.3    0.00   351    1    100.0   15 
11/02/19   4.45   12.4   12.6   12.4    57    4.2  22.5   WNW   5.63  49.9     W    9.2   11.7    8.4    7.1   581.3  0.00   0.0     0     0.00      0     0.0  0.00   0.0   0.061   0.000   12.9    66    6.7   12.3    0.00   352    1    100.0   15 
11/02/19   5.00   12.4   12.5   12.3    57    4.1  17.7   WNW   4.43  48.3   WNW    9.9   11.6    9.1    7.7   581.3  0.00   0.0     0     0.00      0     0.0  0.00   0.0   0.062   0.000   12.9    66    6.7   12.3    0.10   351    1    100.0   15 
11/02/19   5.15   12.4   12.5   12.3    57    4.2  22.5     W   5.63  57.9   WNW    9.2   11.7    8.4    7.1   582.6  0.00   0.0     0     0.00      0     0.0  0.00   0.0   0.061   0.000   12.9    66    6.7   12.3    0.00   351    1    100.0   15 
11/02/19   5.30   12.3   12.5   12.3    58    4.3  24.1     W   6.04  53.1     W    8.8   11.6    8.1    6.9   582.6  0.00   0.0     0     0.00      0     0.0  0.00   0.0   0.062   0.000   12.9    66    6.7   12.3    0.00   348    1    100.0   15 
11/02/19   5.45   12.3   12.4   12.3    57    4.0  24.1     W   6.04  53.1     W    8.8   11.6    8.1    6.9   582.6  0.00   0.0     0     0.00      0     0.0  0.00   0.0   0.062   0.000   12.9    66    6.7   12.3    0.00   350    1    100.0   15 
11/02/19   6.00   12.3   12.4   12.3    58    4.3  25.7   WNW   6.44  53.1   WSW    8.7   11.6    7.9    6.7   582.6  0.00   0.0     0     0.00      0     0.0  0.00   0.0   0.062   0.000   12.9    66    6.7   12.3    0.10   351    1    100.0   15 
11/02/19   6.15   12.3   12.4   12.2    59    4.5  22.5   WNW   5.63  48.3     W    9.0   11.6    8.3    7.0   591.1  0.00   0.0     0     0.00      0     0.0  0.00   0.0   0.063   0.000   12.9    65    6.5   12.3    0.00   350    1    100.0   15 
11/02/19   6.30   12.2   12.3   12.1    59    4.4  25.7   WNW   6.44  53.1   WNW    8.6   11.6    7.9    6.7   591.1  0.00   0.0     0     0.00      0     0.0  0.00   0.0   0.064   0.000   12.9    65    6.5   12.3    0.00   351    1    100.0   15 
11/02/19   6.45   12.1   12.2   12.0    60    4.5  22.5   WNW   5.63  48.3   WNW    8.7   11.4    8.1    6.8   591.1  0.00   0.0     0     0.00      0     0.0  0.00   0.0   0.065   0.000   12.9    65    6.5   12.3    0.00   350    1    100.0   15 
11/02/19   7.00   11.9   12.1   11.8    61    4.7  22.5   WNW   5.63  51.5    NW    8.6   11.3    8.0    6.7   591.1  0.00   0.0     0     0.00      0     0.0  0.00   0.0   0.067   0.000   12.9    65    6.5   12.3    0.10   352    1    100.0   15 
11/02/19   7.15   11.9   12.0   11.8    60    4.4  22.5   WNW   5.63  48.3     W    8.6   11.3    7.9    6.7   581.5  0.00   0.0     0     0.00      0     0.0  0.00   0.0   0.067   0.000   12.9    65    6.5   12.3    0.00   350    1    100.0   15 
11/02/19   7.30   11.9   11.9   11.7    61    4.6  20.9   WNW   5.23  46.7   WNW    8.7   11.3    8.1    6.8   579.0  0.00   0.0     6     0.13     12     0.0  0.00   0.0   0.067   0.000   12.8    65    6.4   12.2    0.00   351    1    100.0   15 
11/02/19   7.45   11.9   11.9   11.8    63    5.1  25.7   WNW   6.44  61.2     W    8.2   11.3    7.6    6.6   579.0  0.00   0.0    21     0.45     32     0.0  0.00   0.0   0.067   0.000   12.8    65    6.4   12.2    0.00   348    1    100.0   15 
11/02/19   8.00   12.0   12.1   11.8    64    5.4  24.1   WNW   6.04  49.9   WNW    8.5   11.4    7.9    7.2   579.0  0.00   0.0    52     1.12     79     0.0  0.00   0.0   0.066   0.000   12.8    64    6.1   12.2    0.10   352    1    100.0   15 
11/02/19   8.15   12.4   12.4   12.0    63    5.5  24.1   WNW   6.04  45.1    SW    8.9   11.8    8.3    8.3   579.0  0.00   0.0   120     2.58    149     0.0  0.00   0.0   0.062   0.000   12.8    64    6.1   12.2    0.00   351    1    100.0   15 
11/02/19   8.30   12.4   12.5   12.3    65    6.0  22.5   WNW   5.63  48.3    NW    9.1   11.8    8.6    9.9   579.0  0.00   0.0   143     3.07    186     0.0  0.00   0.0   0.062   0.000   12.9    64    6.2   12.3    0.00   350    1    100.0   15 
11/02/19   8.45   12.5   12.6   12.4    66    6.3  25.7   WNW   6.44  56.3   NNW    8.9   12.0    8.4    9.9   584.9  0.00   0.0   162     3.48    202     0.0  0.00   0.0   0.061   0.000   12.9    64    6.2   12.3    0.00   351    1    100.0   15 
11/02/19   9.00   12.7   12.8   12.5    67    6.7  24.1   WNW   6.04  53.1   WNW    9.3   12.2    8.8   10.0   584.9  0.00   0.0   122     2.62    225     0.0  0.00   0.0   0.059   0.000   12.9    64    6.2   12.3    0.15   352    1    100.0   15 
11/02/19   9.15   13.1   13.2   12.7    65    6.6  25.7    NW   6.44  53.1   NNW    9.6   12.5    9.0   10.7   584.9  0.00   0.0   162     3.48    264     0.0  0.00   0.0   0.055   0.000   12.9    65    6.5   12.3    0.00   350    1    100.0   15 
11/02/19   9.30   13.3   13.3   13.1    64    6.7  22.5    NW   5.63  43.5    NW   10.2   12.7    9.6   11.1   584.9  0.00   0.0   141     3.03    246     0.0  0.00   0.0   0.052   0.000   12.9    65    6.5   12.3    0.00   351    1    100.0   15 
11/02/19   9.45   13.8   13.8   13.3    46    2.3  20.9    NW   5.23  53.1   WNW   10.9   12.6    9.8   13.1   584.9  0.00   0.0   300     6.45    529     0.0  0.00   0.0   0.047   0.000   12.9    65    6.5   12.4    0.00   351    1    100.0   15 
11/02/19  10.00   13.7   13.8   13.7    45    1.9  20.9    NW   5.23  46.7   WNW   10.8   12.4    9.6   12.6   584.9  0.00   0.0   275     5.91    383     0.0  0.00   0.0   0.049   0.000   12.9    65    6.5   12.4    0.23   349    1    100.0   15 
11/02/19  10.15   13.4   13.7   13.3    41    0.4  25.7    NW   6.44  48.3    NW    9.9   12.1    8.6   10.4   584.9  0.00   0.0   196     4.21    260     0.0  0.00   0.0   0.052   0.000   13.1    64    6.4   12.4    0.00   352    1    100.0   15 
11/02/19  10.30   13.1   13.4   13.1    43    0.8  27.4    NW   6.84  49.9   WNW    9.4   11.8    8.2    9.2   585.3  0.00   0.0   138     2.97    260     0.0  0.00   0.0   0.054   0.000   13.1    63    6.2   12.4    0.00   351    1    100.0   15 
11/02/19  10.45   13.5   13.5   13.1    40    0.1  25.7   WNW   6.44  57.9   WNW   10.0   12.1    8.6   10.2   585.3  0.00   0.0   182     3.91    362     0.0  0.00   0.0   0.050   0.000   13.1    61    5.7   12.4    0.00   351    1    100.0   15 
11/02/19  11.00   13.4   13.5   13.3    45    1.7  22.5    NW   5.63  49.9   NNW   10.2   12.2    9.0   11.1   585.3  0.00   0.0   218     4.69    359     0.0  0.00   0.0   0.052   0.000   13.1    61    5.7   12.4    0.28   351    1    100.0   15 
11/02/19  11.15   13.6   13.7   13.4    46    2.1  22.5    NW   5.63  49.9    NW   10.4   12.4    9.3   13.4   585.3  0.00   0.0   449     9.65    519     0.0  0.00   0.0   0.050   0.000   13.1    60    5.5   12.3    0.00   350    1    100.0   15 
11/02/19  11.30   13.6   13.8   13.6    46    2.2  27.4    NW   6.84  53.1   NNW   10.0   12.4    8.8   15.4   585.3  0.00   0.0   691    14.86    810     0.0  0.00   0.0   0.049   0.000   13.2    60    5.6   12.5    0.00   350    1    100.0   15 
11/02/19  11.45   13.1   13.6   13.1    42    0.5  29.0    NW   7.24  57.9    NW    9.3   11.8    8.0   10.6   585.3  0.00   0.0   291     6.26    401     0.0  0.00   0.0   0.054   0.000   13.2    59    5.4   12.4    0.00   350    1    100.0   15 
11/02/19  12.00   12.9   13.2   12.8    48    2.1  24.1    NW   6.04  48.3   WNW    9.5   11.8    8.4   10.4   585.3  0.00   0.0   215     4.62    241     0.0  0.00   0.0   0.057   0.000   13.2    58    5.1   12.4    0.36   350    1    100.0   15 
11/02/19  12.15   12.9   12.9   12.8    51    3.0  24.1   NNW   6.04  41.8   NNW    9.6   11.9    8.6   11.1   585.3  0.00   0.0   258     5.55    302     0.0  0.00   0.0   0.056   0.000   13.2    58    5.1   12.4    0.00   351    1    100.0   15 
11/02/19  12.30   12.9   13.0   12.9    48    2.2  19.3    NW   4.83  41.8    NW   10.2   11.8    9.1   11.7   585.3  0.00   0.0   249     5.35    255     0.0  0.00   0.0   0.056   0.000   13.2    58    5.1   12.4    0.00   350    1    100.0   15 
11/02/19  12.45   12.9   13.0   12.8    50    2.7  19.3    NW   4.83  46.7   WNW   10.1   11.9    9.1   12.0   585.3  0.00   0.0   268     5.76    318     0.0  0.00   0.0   0.057   0.000   13.2    58    5.1   12.4    0.00   347    1    100.0   15 
11/02/19  13.00   12.8   12.9   12.7    52    3.2  24.1   WNW   6.04  43.5   WNW    9.4   11.8    8.4   10.3   585.3  0.00   0.0   200     4.30    216     0.0  0.00   0.0   0.058   0.000   13.3    58    5.2   12.5    0.25   351    1    100.0   15 
11/02/19  13.15   13.1   13.1   12.8    49    2.6  20.9    NW   5.23  41.8    NW   10.1   12.0    9.1   11.2   585.3  0.00   0.0   208     4.47    220     0.0  0.00   0.0   0.055   0.000   13.3    58    5.2   12.5    0.00   351    1    100.0   15 
11/02/19  13.30   13.0   13.2   13.0    47    1.9  20.9    NW   5.23  40.2    NW   10.0   11.9    8.9   11.3   585.3  0.00   0.0   230     4.95    439     0.0  0.00   0.0   0.056   0.000   13.3    58    5.2   12.5    0.00   352    1    100.0   15 
11/02/19  13.45   13.0   13.2   12.9    48    2.2  17.7    NW   4.43  32.2   WNW   10.6   11.9    9.4   12.8   585.3  0.00   0.0   288     6.19    483     0.0  0.00   0.0   0.056   0.000   13.4    58    5.3   12.6    0.00   351    1    100.0   15 
11/02/19  14.00   12.9   13.0   12.8    46    1.5  22.5   WNW   5.63  38.6   WNW    9.7   11.7    8.5   11.3   585.3  0.00   0.0   264     5.68    329     0.0  0.00   0.0   0.057   0.000   13.4    58    5.3   12.7    0.25   350    1    100.0   15 
11/02/19  14.15   13.3   13.3   12.9    44    1.3  17.7    NW   4.43  32.2   WNW   10.9   12.1    9.7   13.4   585.3  0.00   0.0   327     7.03    599     0.0  0.00   0.0   0.052   0.000   13.4    58    5.3   12.7    0.00   351    1    100.0   15 
11/02/19  14.30   13.5   13.6   13.3    45    1.8  17.7   WNW   4.43  37.0     W   11.2   12.3    9.9   16.1   585.3  0.00   0.0   442     9.50    643     0.0  0.00   0.0   0.050   0.000   13.7    58    5.5   12.9    0.00   351    1    100.0   15 
11/02/19  14.45   13.2   13.5   13.2    46    1.8  20.9   WNW   5.23  51.5   WNW   10.3   12.1    9.1   12.9   585.3  0.00   0.0   315     6.77    517     0.0  0.00   0.0   0.053   0.000   13.8    58    5.7   13.1    0.00   350    1    100.0   15 
11/02/19  15.00   13.4   13.6   13.2    44    1.4  19.3   WNW   4.83  46.7   WNW   10.8   12.2    9.5   15.7   585.3  0.00   0.0   423     9.10    515     0.0  0.00   0.0   0.051   0.000   14.2    57    5.8   13.3    0.30   350    1    100.0   15 
11/02/19  15.15   13.5   13.5   13.3    46    2.1  17.7    NW   4.43  30.6    NW   11.2   12.3   10.0   14.7   585.3  0.00   0.0   323     6.95    434     0.0  0.00   0.0   0.050   0.000   14.3    57    5.9   13.5    0.00   350    1    100.0   15 
11/02/19  15.30   13.4   13.6   13.3    47    2.3  17.7    NW   4.43  37.0   WNW   11.0   12.2    9.8   14.8   585.3  0.00   0.0   317     6.82    450     0.0  0.00   0.0   0.052   0.000   14.3    57    5.9   13.5    0.00   352    1    100.0   15 
11/02/19  15.45   13.4   13.5   13.3    43    1.1  22.5    NW   5.63  46.7   NNW   10.2   12.1    8.9   10.0   585.3  0.00   0.0   292     6.28    388     0.0  0.00   0.0   0.052   0.000   14.3    56    5.6   13.4    0.00   351    1    100.0   15 
11/02/19  16.00   13.2   13.3   13.2    43    0.9  20.9    NW   5.23  43.5   NNW   10.3   11.9    9.0    9.2   585.3  0.00   0.0   195     4.19    288     0.0  0.00   0.0   0.053   0.000   14.1    56    5.5   13.3    0.28   351    1    100.0   15 
11/02/19  16.15   13.2   13.3   13.2    38   -0.8  24.1    NW   6.04  48.3   NNW    9.9   11.8    8.4    8.5   585.3  0.00   0.0   189     4.06    323     0.0  0.00   0.0   0.053   0.000   13.9    55    5.0   13.1    0.00   351    1    100.0   15 
11/02/19  16.30   13.1   13.2   13.0    43    0.7  22.5    NW   5.63  40.2    NW    9.9   11.8    8.7    7.8   585.3  0.00   0.0    85     1.83    105     0.0  0.00   0.0   0.055   0.000   13.8    54    4.6   12.8    0.00   352    1    100.0   15 
11/02/19  16.45   13.0   13.2   12.9    43    0.7  22.5    NW   5.63  40.2    NW    9.8   11.8    8.6    7.5   585.3  0.00   0.0    62     1.33     79     0.0  0.00   0.0   0.056   0.000   13.7    53    4.3   12.7    0.00   351    1    100.0   15 
11/02/19  17.00   13.2   13.2   13.0    42    0.6  25.7    NW   6.44  48.3   NNW    9.7   11.9    8.4    7.7   585.3  0.00   0.0    83     1.78     98     0.0  0.00   0.0   0.053   0.000   13.6    53    4.2   12.7    0.20   350    1    100.0   15 
11/02/19  17.15   13.1   13.2   13.1    42    0.5  27.4    NW   6.84  45.1    NW    9.4   11.8    8.2    7.2   585.3  0.00   0.0    56     1.20     77     0.0  0.00   0.0   0.054   0.000   13.6    53    4.1   12.6    0.00   351    1    100.0   15 
11/02/19  17.30   13.2   13.2   13.0    43    0.9  27.4    NW   6.84  54.7    NW    9.6   11.9    8.3    7.0   585.3  0.00   0.0    24     0.52     33     0.0  0.00   0.0   0.053   0.000   13.4    52    3.8   12.4    0.00   351    1    100.0   15 
11/02/19  17.45   13.1   13.2   12.9    44    1.1  22.5   NNW   5.63  40.2   NNW    9.9   11.9    8.7    7.2   585.3  0.00   0.0     7     0.15     14     0.0  0.00   0.0   0.054   0.000   13.4    52    3.7   12.4    0.00   352    1    100.0   15 
11/02/19  18.00   13.2   13.2   13.1    42    0.5  24.1    NW   6.04  41.8    NW    9.8   11.9    8.6    7.0   587.1  0.00   0.0     0     0.00      0     0.0  0.00   0.0   0.054   0.000   13.4    52    3.7   12.4    0.18   351    1    100.0   15 
11/02/19  18.15   13.0   13.2   13.0    43    0.7  22.5   NNW   5.63  35.4   NNW    9.8   11.8    8.6    6.9   587.1  0.00   0.0     0     0.00      0     0.0  0.00   0.0   0.056   0.000   13.3    52    3.6   12.3    0.00   350    1    100.0   15 
11/02/19  18.30   13.2   13.2   13.0    45    1.5  20.9    NW   5.23  38.6   NNW   10.2   11.9    9.0    7.3   587.1  0.00   0.0     0     0.00      0     0.0  0.00   0.0   0.054   0.000   13.3    52    3.6   12.3    0.00   351    1    100.0   15 
11/02/19  18.45   13.3   13.3   13.2    44    1.3  24.1    NW   6.04  41.8    NW    9.9   12.1    8.7    7.2   587.1  0.00   0.0     0     0.00      0     0.0  0.00   0.0   0.053   0.000   13.2    52    3.6   12.2    0.00   351    1    100.0   15 
11/02/19  19.00   13.3   13.4   13.2    47    2.2  22.5    NW   5.63  41.8   NNW   10.2   12.2    9.0    7.4   587.1  0.00   0.0     0     0.00      0     0.0  0.00   0.0   0.052   0.000   13.2    52    3.6   12.2    0.15   351    1    100.0   15 
11/02/19  19.15   13.3   13.4   13.2    48    2.5  19.3    NW   4.83  38.6    NW   10.6   12.2    9.5    7.8   587.1  0.00   0.0     0     0.00      0     0.0  0.00   0.0   0.053   0.000   13.2    52    3.6   12.2    0.00   347    1    100.0   15 
11/02/19  19.30   13.4   13.5   13.2    49    2.9  19.3    NW   4.83  35.4    NW   10.8   12.3    9.7    8.0   585.2  0.00   0.0     0     0.00      0     0.0  0.00   0.0   0.051   0.000   13.2    52    3.6   12.2    0.00   351    1    100.0   15 
11/02/19  19.45   13.6   13.6   13.3    50    3.4  20.9    NW   5.23  37.0    NW   10.7   12.6    9.7    8.1   590.2  0.00   0.0     0     0.00      0     0.0  0.00   0.0   0.049   0.000   13.2    53    3.8   12.3    0.00   352    1    100.0   15 
11/02/19  20.00   13.6   13.6   13.4    47    2.4  16.1   NNW   4.02  30.6    NW   11.6   12.4   10.4    8.6   590.2  0.00   0.0     0     0.00      0     0.0  0.00   0.0   0.050   0.000   13.2    53    3.8   12.3    0.13   350    1    100.0   15 
11/02/19  20.15   13.7   13.7   13.6    43    1.3  17.7   NNW   4.43  33.8    NW   11.3   12.4   10.1    8.3   590.2  0.00   0.0     0     0.00      0     0.0  0.00   0.0   0.049   0.000   13.2    53    3.8   12.3    0.00   351    1    100.0   15 
11/02/19  20.30   13.6   13.8   13.6    40    0.2  14.5   NNW   3.62  29.0     N   12.0   12.2   10.6    8.7   590.2  0.00   0.0     0     0.00      0     0.0  0.00   0.0   0.049   0.000   13.2    53    3.8   12.3    0.00   350    1    100.0   15 
11/02/19  20.45   13.5   13.6   13.4    42    0.8  14.5   NNW   3.62  35.4   NNE   11.8   12.2   10.5    8.6   590.2  0.00   0.0     0     0.00      0     0.0  0.00   0.0   0.050   0.000   13.1    53    3.7   12.2    0.00   351    1    100.0   15 
11/02/19  21.00   13.4   13.6   13.4    41    0.4  17.7   NNW   4.43  32.2    NW   11.1   12.1    9.7    7.9   590.2  0.00   0.0     0     0.00      0     0.0  0.00   0.0   0.051   0.000   13.1    52    3.5   12.2    0.13   352    1    100.0   15 
11/02/19  21.15   13.3   13.5   13.2    43    1.0  16.1   NNW   4.02  32.2     N   11.3   12.1   10.0    8.2   583.6  0.00   0.0     0     0.00      0     0.0  0.00   0.0   0.052   0.000   13.1    52    3.5   12.2    0.00   351    1    100.0   15 
11/02/19  21.30   13.2   13.4   13.1    44    1.2  12.9   NNW   3.22  29.0   NNW   11.9   12.0   10.7    8.7   583.6  0.00   0.0     0     0.00      0     0.0  0.00   0.0   0.053   0.000   13.1    52    3.5   12.2    0.00   351    1    100.0   15 
11/02/19  21.45   13.2   13.4   13.1    44    1.2  16.1   NNW   4.02  27.4   NNW   11.2   12.0    9.9    8.1   583.6  0.00   0.0     0     0.00      0     0.0  0.00   0.0   0.053   0.000   13.1    52    3.5   12.2    0.00   348    1    100.0   15 
11/02/19  22.00   13.1   13.2   13.1    43    0.7  12.9   NNW   3.22  27.4   NNW   11.7   11.8   10.5    8.5   583.6  0.00   0.0     0     0.00      0     0.0  0.00   0.0   0.055   0.000   13.1    52    3.5   12.2    0.10   352    1    100.0   15 
11/02/19  22.15   12.8   13.1   12.7    44    0.9   8.0   NNW   2.01  20.9   NNE   12.3   11.6   11.1    9.0   583.6  0.00   0.0     0     0.00      0     0.0  0.00   0.0   0.057   0.000   13.1    52    3.5   12.2    0.00   351    1    100.0   15 
11/02/19  22.30   12.8   12.9   12.7    43    0.5  12.9   NNW   3.22  25.7   NNW   11.4   11.6   10.2    8.2   583.6  0.00   0.0     0     0.00      0     0.0  0.00   0.0   0.057   0.000   13.1    52    3.5   12.2    0.00   350    1    100.0   15 
11/02/19  22.45   12.2   12.8   12.2    46    0.9  11.3   NNW   2.82  25.7   NNW   11.1   11.2   10.1    8.0   583.6  0.00   0.0     0     0.00      0     0.0  0.00   0.0   0.064   0.000   13.1    52    3.4   12.1    0.00   350    1    100.0   15 
11/02/19  23.00   12.0   12.2   11.9    46    0.7   9.7   NNW   2.41  19.3   NNW   11.1   10.9   10.0    7.9   583.6  0.00   0.0     0     0.00      0     0.0  0.00   0.0   0.066   0.000   13.1    51    3.1   12.1    0.10   352    1    100.0   15 
11/02/19  23.15   11.9   12.0   11.9    45    0.4  11.3   NNW   2.82  20.9   NNW   10.8   10.9    9.7    7.7   583.6  0.00   0.0     0     0.00      0     0.0  0.00   0.0   0.067   0.000   13.1    51    3.1   12.1    0.00   349    1    100.0   15 
11/02/19  23.30   11.9   12.2   11.9    43   -0.3  11.3   NNW   2.82  20.9    NW   10.7   10.8    9.6    7.5   583.6  0.00   0.0     0     0.00      0     0.0  0.00   0.0   0.067   0.000   13.1    51    3.1   12.1    0.00   351    1    100.0   15 
11/02/19  23.45   11.6   11.9   11.6    43   -0.6   9.7   NNW   2.41  19.3   NNW   10.6   10.5    9.5    7.3   583.6  0.00   0.0     0     0.00      0     0.0  0.00   0.0   0.071   0.000   13.1    51    3.1   12.1    0.00   349    1    100.0   15 
12/02/19  00.00   11.7   11.8   11.5    44   -0.1  11.3   NNW   2.82  20.9   NNW   10.5   10.7    9.4    7.3   583.6  0.00   0.0     0     0.00      0     0.0  0.00   0.0   0.069   0.000   12.9    51    3.0   11.9    0.10   351    1    100.0   15 
12/02/19   0.15   12.0   12.0   11.7    40   -1.2  14.5   NNW   3.62  24.1    NW   10.1   10.8    8.8    6.8   583.6  0.00   0.0     0     0.00      0     0.0  0.00   0.0   0.066   0.000   12.9    50    2.8   11.9    0.00   348    1    100.0   15 
12/02/19   0.30   11.6   12.0   11.6    44   -0.2  12.9   NNW   3.22  22.5     N   10.0   10.6    9.0    6.9   583.6  0.00   0.0     0     0.00      0     0.0  0.00   0.0   0.070   0.000   12.9    50    2.8   11.9    0.00   352    1    100.0   15 
12/02/19   0.45   11.8   12.1   11.6    44   -0.0  14.5   NNW   3.62  30.6   NNW    9.9   10.8    8.8    6.8   583.6  0.00   0.0     0     0.00      0     0.0  0.00   0.0   0.068   0.000   12.9    50    2.8   11.9    0.00   350    1    100.0   15 
12/02/19   1.00   11.8   11.9   11.8    42   -0.7  14.5   NNW   3.62  29.0   NNW    9.9   10.7    8.8    6.8   583.6  0.00   0.0     0     0.00      0     0.0  0.00   0.0   0.068   0.000   12.9    50    2.8   11.9    0.10   351    1    100.0   15 
12/02/19   1.15   12.0   12.1   11.8    46    0.7  16.1   NNW   4.02  25.7   NNW    9.7   10.9    8.7    6.8   583.6  0.00   0.0     0     0.00      0     0.0  0.00   0.0   0.066   0.000   12.9    49    2.4   11.8    0.00   350    1    100.0   15 
12/02/19   1.30   12.1   12.2   11.9    48    1.4  11.3   NNW   2.82  22.5   NNW   10.9   11.1    9.9    7.8  1014.4  0.00   0.0     0     0.00      0     0.0  0.00   0.0   0.065   0.000   12.9    49    2.4   11.8    0.00   352    1    100.0   15 
12/02/19   1.45   12.5   12.5   12.1    52    2.9  11.3   NNW   2.82  24.1     N   11.4   11.6   10.6    8.6  1014.4  0.00   0.0     0     0.00      0     0.0  0.00   0.0   0.061   0.000   12.9    50    2.7   11.9    0.00   351    1    100.0   15 
12/02/19   2.00   12.3   12.6   12.3    54    3.3  14.5   NNW   3.62  27.4    NW   10.4   11.5    9.6    7.8  1014.4  0.00   0.0     0     0.00      0     0.0  0.00   0.0   0.062   0.000   12.9    50    2.7   11.9    0.10   351    1    100.0   15 
12/02/19   2.15   12.3   12.4   12.2    51    2.4   9.7   NNW   2.41  22.5    NW   11.4   11.3   10.4    8.4  1014.4  0.00   0.0     0     0.00      0     0.0  0.00   0.0   0.063   0.000   12.9    51    3.0   11.9    0.00   350    1    100.0   15 
12/02/19   2.30   11.8   12.3   11.7    59    4.0   8.0   NNW   2.01  16.1     N   11.1   11.1   10.4    8.4  1014.4  0.00   0.0     0     0.00      0     0.0  0.00   0.0   0.068   0.000   12.9    51    3.0   11.9    0.00   351    1    100.0   15 
12/02/19   2.45   11.2   11.8   11.2    61    3.9   1.6   NNW   0.40  11.3   NNW   11.2   10.6   10.6    8.6  1014.4  0.00   0.0     0     0.00      0     0.0  0.00   0.0   0.075   0.000   12.9    52    3.3   12.0    0.00   350    1    100.0   15 
12/02/19   3.00   10.7   11.2   10.7    62    3.7   1.6   NNW   0.40   9.7   NNW   10.7   10.2   10.2    8.2  1014.4  0.00   0.0     0     0.00      0     0.0  0.00   0.0   0.079   0.000   12.9    52    3.3   12.0    0.05   350    1    100.0   15 
12/02/19   3.15    9.9   10.7    9.9    65    3.7   0.0   ---   0.00   0.0   ---    9.9    9.6    9.6    7.6   578.4  0.00   0.0     0     0.00      0     0.0  0.00   0.0   0.087   0.000   12.9    53    3.6   12.0    0.00   351    1    100.0   15 
12/02/19   3.30    9.6    9.9    9.4    68    3.9   0.0   ---   0.00   0.0   ---    9.6    9.3    9.3    7.3   578.4  0.00   0.0     0     0.00      0     0.0  0.00   0.0   0.091   0.000   12.9    53    3.6   12.0    0.00   351    1    100.0   15 
12/02/19   3.45    9.2    9.6    8.9    69    3.8   0.0   ---   0.00   0.0   ---    9.2    8.9    8.9    6.9   578.4  0.00   0.0     0     0.00      0     0.0  0.00   0.0   0.095   0.000   12.9    54    3.8   12.0    0.00   352    1    100.0   15 
12/02/19   4.00    8.5    9.2    8.5    69    3.1   0.0   ---   0.00   0.0   ---    8.5    8.2    8.2    6.2   587.6  0.00   0.0     0     0.00      0     0.0  0.00   0.0   0.102   0.000   12.9    54    3.8   12.0    0.03   350    1    100.0   15 
12/02/19   4.15    7.6    8.5    7.6    71    2.6   0.0   ---   0.00   0.0   ---    7.6    7.3    7.3    5.2   587.6  0.00   0.0     0     0.00      0     0.0  0.00   0.0   0.112   0.000   12.9    54    3.8   12.0    0.00   350    1    100.0   15 
12/02/19   4.30    6.2    7.6    6.2    73    1.7   0.0   ---   0.00   0.0   ---    6.2    5.9    5.9    3.9   587.6  0.00   0.0     0     0.00      0     0.0  0.00   0.0   0.126   0.000   12.9    54    3.8   12.0    0.00   350    1    100.0   15 
12/02/19   4.45    5.6    6.2    5.6    74    1.3   0.0   ---   0.00   0.0   ---    5.6    5.4    5.4    3.3   587.6  0.00   0.0     0     0.00      0     0.0  0.00   0.0   0.133   0.000   12.8    54    3.7   11.9    0.00   351    1    100.0   15 
12/02/19   5.00    5.3    5.8    5.3    75    1.2   0.0   ---   0.00   0.0   ---    5.3    5.1    5.1    2.9  1018.7  0.00   0.0     0     0.00      0     0.0  0.00   0.0   0.136   0.000   12.8    53    3.4   11.9    0.03   350    1    100.0   15 
12/02/19   5.15    4.4    5.3    4.3    76    0.5   0.0   ---   0.00   0.0   ---    4.4    4.1    4.1    2.0  1018.7  0.00   0.0     0     0.00      0     0.0  0.00   0.0   0.145   0.000   12.8    53    3.4   11.9    0.00   350    1    100.0   15 
12/02/19   5.30    4.2    4.4    4.1    78    0.7   0.0   ---   0.00   0.0   ---    4.2    4.0    4.0    1.9  1018.7  0.00   0.0     0     0.00      0     0.0  0.00   0.0   0.147   0.000   12.7    53    3.4   11.8    0.00   350    1    100.0   15 
12/02/19   5.45    3.9    4.3    3.9    78    0.5   0.0   ---   0.00   0.0   ---    3.9    3.8    3.8    1.7  1018.7  0.00   0.0     0     0.00      0     0.0  0.00   0.0   0.150   0.000   12.6    53    3.3   11.7    0.00   350    1    100.0   15 
12/02/19   6.00    3.4    3.9    3.3    79    0.1   0.0   ---   0.00   0.0   ---    3.4    3.2    3.2    1.1  1018.7  0.00   0.0     0     0.00      0     0.0  0.00   0.0   0.156   0.000   12.6    52    3.0   11.7    0.00   351    1    100.0   15 
12/02/19   6.15    3.1    3.5    3.1    80   -0.0   0.0   ---   0.00   0.0   ---    3.1    2.9    2.9    0.8  1018.7  0.00   0.0     0     0.00      0     0.0  0.00   0.0   0.159   0.000   12.6    52    3.0   11.7    0.00   351    1    100.0   15 
12/02/19   6.30    2.8    3.1    2.7    81   -0.2   0.0   ---   0.00   0.0   ---    2.8    2.6    2.6    0.4  1018.7  0.00   0.0     0     0.00      0     0.0  0.00   0.0   0.162   0.000   12.6    52    3.0   11.7    0.00   350    1    100.0   15 
12/02/19   6.45    4.2    4.3    2.8    79    0.8   0.0   ---   0.00   0.0   ---    4.2    4.0    4.0    1.9  1018.7  0.00   0.0     0     0.00      0     0.0  0.00   0.0   0.148   0.000   12.6    52    3.0   11.7    0.00   351    1    100.0   15 
12/02/19   7.00    5.4    5.4    4.2    74    1.2   1.6   NNW   0.40   6.4   NNW    5.4    5.2    5.2    3.1  1018.7  0.00   0.0     0     0.00      0     0.0  0.00   0.0   0.134   0.000   12.4    52    2.8   11.6    0.00   352    1    100.0   15 
12/02/19   7.15    4.8    5.6    4.8    73    0.4   0.0   ---   0.00   0.0   ---    4.8    4.6    4.6    2.4  1018.7  0.00   0.0     0     0.00      0     0.0  0.00   0.0   0.141   0.000   12.4    52    2.8   11.6    0.00   350    1    100.0   15 
12/02/19   7.30    5.3    5.3    4.8    72    0.6   0.0   NNW   0.00   6.4   NNW    5.3    5.0    5.0    3.0  1018.7  0.00   0.0     7     0.15     11     0.0  0.00   0.0   0.136   0.000   12.4    52    2.8   11.6    0.00   350    1    100.0   15 
12/02/19   7.45    7.3    7.3    5.3    64    0.9   3.2   NNW   0.80   8.0   NNW    7.3    6.9    6.9    5.0  1018.7  0.00   0.0    17     0.37     30     0.0  0.00   0.0   0.115   0.000   12.4    51    2.6   11.5    0.00   349    1    100.0   15 
12/02/19   8.00    8.2    8.2    7.3    59    0.6   3.2   NNW   0.80   8.0   NNW    8.2    7.7    7.7    6.2  1018.7  0.00   0.0    50     1.08     69     0.0  0.00   0.0   0.106   0.000   12.4    51    2.5   11.4    0.03   351    1    100.0   15 
12/02/19   8.15    8.7    8.7    8.2    58    0.9   3.2   NNW   0.80   6.4   NNW    8.7    8.2    8.2    7.2  1018.7  0.00   0.0    95     2.04    120     0.0  0.00   0.0   0.101   0.000   12.4    51    2.6   11.5    0.00   350    1    100.0   15 
12/02/19   8.30    9.3    9.3    8.7    59    1.7   0.0   NNW   0.00   4.8   NNW    9.3    8.8    8.8   10.6  1018.7  0.00   0.0   147     3.16    172     0.0  0.00   0.0   0.094   0.000   12.4    51    2.6   11.5    0.00   351    1    100.0   15 
12/02/19   8.45   10.1   10.1    9.3    58    2.2   0.0   NNW   0.00   3.2   NNW   10.1    9.6    9.6   12.4  1018.7  0.00   0.0   201     4.32    227     0.0  0.00   0.0   0.086   0.000   12.6    51    2.7   11.6    0.00   350    1    100.0   15 
12/02/19   9.00   11.1   11.1   10.1    56    2.7   1.6   NNW   0.40   4.8   NNW   11.1   10.4   10.4   14.4  1018.7  0.00   0.0   258     5.55    285     0.0  0.00   0.0   0.075   0.000   12.6    52    3.0   11.7    0.08   351    1    100.0   15 
12/02/19   9.15   12.2   12.2   11.2    53    2.9   1.6   NNW   0.40   6.4   NNW   12.2   11.3   11.3   16.2  1018.7  0.00   0.0   307     6.60    325     0.0  0.00   0.0   0.064   0.000   12.6    53    3.3   11.7    0.00   352    1    100.0   15 
12/02/19   9.30   13.0   13.0   12.2    50    2.8   4.8     N   1.21  11.3   NNW   13.0   12.0   12.0   17.4  1018.7  0.00   0.0   345     7.42    359     0.0  0.00   0.0   0.056   0.000   12.6    53    3.3   11.7    0.00   351    1    100.0   15 
12/02/19   9.45   13.3   13.3   13.0    45    1.6   9.7   NNW   2.41  22.5   NNW   12.6   12.1   11.4   17.2  1018.7  0.00   0.0   382     8.21    399     0.0  0.00   0.0   0.053   0.000   12.7    54    3.6   11.9    0.00   351    1    100.0   15 
12/02/19  10.00   13.6   13.6   13.3    45    1.9   4.8    NW   1.21  22.5   NNW   13.6   12.4   12.4   18.5  1018.7  0.00   0.0   416     8.95    431     0.0  0.00   0.0   0.049   0.000   12.8    53    3.4   11.9    0.20   351    1    100.0   15 
12/02/19  10.15   13.5   13.6   13.3    44    1.5  11.3   NNW   2.82  27.4   NNW   12.7   12.2   11.4   17.5  1018.7  0.00   0.0   444     9.55    455     0.0  0.00   0.0   0.050   0.000   12.9    53    3.5   12.0    0.00   351    1    100.0   15 
12/02/19  10.30   13.6   13.6   13.5    43    1.2   8.0   NNW   2.01  20.9     N   13.2   12.3   11.9   18.4  1018.7  0.00   0.0   473    10.17    487     0.0  0.00   0.0   0.050   0.000   12.9    53    3.6   12.0    0.00   349    1    100.0   15 
12/02/19  10.45   13.7   13.7   13.4    46    2.3  11.3   NNW   2.82  29.0    NW   12.9   12.6   11.7   18.3  1018.7  0.00   0.0   499    10.73    510     0.0  0.00   0.0   0.048   0.000   13.1    53    3.7   12.1    0.00   351    1    100.0   15 
12/02/19  11.00   13.8   14.0   13.7    46    2.4   9.7   NNW   2.41  24.1   NNW   13.3   12.7   12.1   19.0  1018.7  0.00   0.0   520    11.18    529     0.0  0.00   0.0   0.047   0.000   13.1    53    3.7   12.2    0.30   350    1    100.0   15 
12/02/19  11.15   13.7   13.8   13.7    48    2.9  14.5   NNW   3.62  25.7     N   12.1   12.6   11.0   17.3  1018.7  0.00   0.0   537    11.55    543     0.0  0.00   0.0   0.048   0.000   13.2    53    3.8   12.3    0.00   350    1    100.0   15 
12/02/19  11.30   13.9   14.1   13.7    48    3.1  12.9   NNW   3.22  27.4   NNW   12.8   12.8   11.7   18.3  1018.7  0.00   0.0   553    11.89    561     0.0  0.00   0.0   0.046   0.000   13.3    53    3.9   12.3    0.00   351    1    100.0   15 
12/02/19  11.45   14.3   14.3   13.9    46    2.9   9.7     N   2.41  25.7    NW   13.9   13.1   12.7   19.9  1018.7  0.00   0.0   568    12.21    573     0.0  0.00   0.0   0.042   0.000   13.4    53    4.0   12.4    0.00   351    1    100.0   15 
12/02/19  12.00   14.4   14.5   14.2    45    2.6   8.0     N   2.01  22.5   NNE   14.2   13.2   12.9   20.3  1018.7  0.00   0.0   578    12.43    585     0.0  0.00   0.0   0.041   0.000   13.6    53    4.1   12.6    0.36   351    1    100.0   15 
12/02/19  12.15   14.0   14.6   14.0    43    1.6  11.3   NNW   2.82  29.0   WNW   13.2   12.7   11.9   19.3  1018.7  0.00   0.0   587    12.62    591     0.0  0.00   0.0   0.045   0.000   13.7    54    4.5   12.7    0.00   351    1    100.0   15 
12/02/19  12.30   14.4   14.6   14.1    41    1.3  12.9    NW   3.22  25.7   NNE   13.4   13.1   12.0   19.2  1018.7  0.00   0.0   593    12.75    596     0.0  0.00   0.0   0.041   0.000   13.9    54    4.8   13.0    0.00   351    1    100.0   15 
12/02/19  12.45   14.3   14.6   14.2    44    2.2  12.9    NW   3.22  29.0   NNW   13.2   13.0   11.9   19.2  1018.7  0.00   0.0   591    12.71    596     0.0  0.00   0.0   0.042   0.000   14.2    54    5.0   13.2    0.00   350    1    100.0   15 
12/02/19  13.00   14.4   14.5   14.2    43    2.0  14.5   NNW   3.62  27.4   NNW   12.9   13.1   11.6   18.7  1018.7  0.00   0.0   585    12.58    587     0.0  0.00   0.0   0.041   0.000   14.4    54    5.2   13.5    0.38   351    1    100.0   15 
12/02/19  13.15   14.4   14.5   14.2    44    2.3  12.9   NNW   3.22  30.6   NNW   13.3   13.1   12.1   19.5  1018.7  0.00   0.0   575    12.36    584     0.0  0.00   0.0   0.041   0.000   14.7    53    5.2   13.7    0.00   351    1    100.0   15 
12/02/19  13.30   14.4   14.7   14.3    48    3.6  11.3   NNW   2.82  27.4   NNW   13.8   13.3   12.6   20.4   577.1  0.00   0.0   564    12.13    570     0.0  0.00   0.0   0.041   0.000   14.9    53    5.4   13.9    0.00   352    1    100.0   15 
12/02/19  13.45   14.2   14.6   14.1    49    3.6  12.9   NNW   3.22  30.6     N   13.1   13.1   12.0   19.7   577.1  0.00   0.0   550    11.83    559     0.0  0.00   0.0   0.043   0.000   15.2    53    5.7   14.2    0.00   351    1    100.0   15 
12/02/19  14.00   14.1   14.3   14.1    49    3.5  16.1   NNW   4.02  32.2     N   12.2   13.0   11.1   18.2   577.1  0.00   0.0   534    11.48    541     0.0  0.00   0.0   0.044   0.000   15.4    52    5.6   14.4    0.36   351    1    100.0   15 
12/02/19  14.15   14.5   14.5   14.1    48    3.6  11.3   NNW   2.82  30.6    NW   13.8   13.3   12.7   20.8   577.1  0.00   0.0   515    11.07    522     0.0  0.00   0.0   0.040   0.000   15.7    52    5.9   14.7    0.00   351    1    100.0   15 
12/02/19  14.30   14.3   14.6   14.3    46    2.8   9.7   NNW   2.41  29.0    NW   13.8   13.1   12.6   20.9   577.1  0.00   0.0   495    10.64    504     0.0  0.00   0.0   0.042   0.000   16.0    52    6.1   15.0    0.00   343    1    100.0   15 
12/02/19  14.45   14.2   14.5   14.2    41    1.1  12.9   NNW   3.22  25.7   NNW   13.1   12.8   11.7   19.4   577.1  0.00   0.0   470    10.11    485     0.0  0.00   0.0   0.043   0.000   16.2    52    6.3   15.2    0.00   345    1    100.0   15 
12/02/19  15.00   14.3   14.4   14.2    43    1.9   9.7   NNW   2.41  22.5   NNW   13.9   13.0   12.6   19.9   577.1  0.00   0.0   415     8.92    448     0.0  0.00   0.0   0.042   0.000   16.3    52    6.4   15.3    0.00   340    1     99.4   15 
12/02/19  15.15   14.2   14.3   14.2    42    1.4  11.3   NNW   2.82  19.3    NW   13.4   12.8   12.1   17.6   577.1  0.00   0.0   322     6.92    374     0.0  0.00   0.0   0.043   0.000   16.2    51    6.1   15.2    0.30   348    1    100.0   15 
12/02/19  15.30   14.2   14.2   14.1    43    1.8  11.3    NW   2.82  22.5    NW   13.5   12.9   12.2   18.7   577.1  0.00   0.0   353     7.59    387     0.0  0.00   0.0   0.043   0.000   16.2    51    6.0   15.1    0.00   351    1    100.0   15 
12/02/19  15.45   13.9   14.3   13.9    38   -0.2  12.9    NW   3.22  24.1     N   12.8   12.4   11.3   12.1   577.1  0.00   0.0   255     5.48    387     0.0  0.00   0.0   0.046   0.000   16.0    51    5.9   14.9    0.00   349    1    100.0   15 
12/02/19  16.00   13.9   14.0   13.8    38   -0.2  11.3   NNW   2.82  22.5   NNW   13.2   12.4   11.7   12.6   577.1  0.00   0.0   257     5.53    345     0.0  0.00   0.0   0.046   0.000   15.6    50    5.2   14.5    0.23   351    1    100.0   15 
12/02/19  16.15   13.4   13.9   13.4    43    1.1   6.4   NNW   1.61  17.7   NNW   13.3   12.2   12.1   12.1   577.1  0.00   0.0   178     3.83    207     0.0  0.00   0.0   0.051   0.000   15.4    50    5.0   14.3    0.00   350    1    100.0   15 
12/02/19  16.30   13.3   13.4   13.3    46    1.9   9.7   NNW   2.41  22.5   NNW   12.6   12.1   11.4   11.2   577.1  0.00   0.0   152     3.27    214     0.0  0.00   0.0   0.053   0.000   15.2    50    4.9   14.1    0.00   348    1    100.0   15 
12/02/19  16.45   12.9   13.3   12.9    45    1.3   8.0     N   2.01  22.5   NNW   12.5   11.8   11.3   10.3   577.1  0.00   0.0    85     1.83    105     0.0  0.00   0.0   0.056   0.000   14.9    50    4.6   13.8    0.00   348    1    100.0   15 
12/02/19  17.00   13.1   13.1   12.9    42    0.5   9.7   NNW   2.41  27.4     N   12.4   11.8   11.1    9.9   577.1  0.00   0.0    81     1.74     91     0.0  0.00   0.0   0.054   0.000   14.8    49    4.2   13.6    0.13   344    1    100.0   15 
12/02/19  17.15   12.8   13.2   12.8    38   -1.2  11.3     N   2.82  25.7     N   11.8   11.5   10.5    8.7   577.1  0.00   0.0    35     0.75     70     0.0  0.00   0.0   0.057   0.000   14.6    49    4.0   13.4    0.00   346    1    100.0   15 
12/02/19  17.30   12.7   12.9   12.7    36   -2.0  11.3     N   2.82  22.5     N   11.7   11.3   10.3    8.3   577.1  0.00   0.0    13     0.28     18     0.0  0.00   0.0   0.058   0.000   14.4    48    3.6   13.3    0.00   350    1    100.0   15 
12/02/19  17.45   12.2   12.7   12.2    39   -1.3   9.7   NNW   2.41  19.3   NNW   11.3   10.9   10.1    7.9   577.1  0.00   0.0     4     0.09     11     0.0  0.00   0.0   0.064   0.000   14.3    48    3.5   13.2    0.00   348    1    100.0   15 
12/02/19  18.00   11.6   12.2   11.6    45    0.1   4.8   NNW   1.21  11.3   NNW   11.6   10.6   10.6    8.5   577.1  0.00   0.0     0     0.00      0     0.0  0.00   0.0   0.070   0.000   14.2    48    3.3   13.0    0.08   351    1    100.0   15 
12/02/19  18.15   11.3   11.6   11.2    52    1.8   0.0   ---   0.00   0.0   ---   11.3   10.6   10.6    8.5   577.1  0.00   0.0     0     0.00      0     0.0  0.00   0.0   0.073   0.000   14.1    48    3.3   12.9    0.00   349    1    100.0   15 
12/02/19  18.30   11.1   11.3   11.1    54    2.1   0.0   NNW   0.00   4.8   NNW   11.1   10.4   10.4    8.3   577.1  0.00   0.0     0     0.00      0     0.0  0.00   0.0   0.076   0.000   14.1    49    3.5   13.0    0.00   349    1    100.0   15 
12/02/19  18.45   10.9   11.1   10.8    54    1.9   4.8   NNW   1.21   9.7   NNW   10.8   10.2   10.2    8.1   577.1  0.00   0.0     0     0.00      0     0.0  0.00   0.0   0.078   0.000   14.0    49    3.4   12.9    0.00   349    1    100.0   15 
12/02/19  19.00   10.8   10.9   10.7    54    1.9   0.0   NNW   0.00   4.8   NNW   10.8   10.2   10.2    8.1   577.1  0.00   0.0     0     0.00      0     0.0  0.00   0.0   0.078   0.000   13.9    49    3.4   12.8    0.03   350    1    100.0   15 
12/02/19  19.15   10.6   10.8   10.5    57    2.4   0.0   ---   0.00   0.0   ---   10.6   10.1   10.1    8.0   577.1  0.00   0.0     0     0.00      0     0.0  0.00   0.0   0.080   0.000   13.8    49    3.3   12.7    0.00   351    1    100.0   15 
12/02/19  19.30   10.0   10.7   10.0    60    2.6   0.0   ---   0.00   0.0   ---   10.0    9.6    9.6    7.5   577.1  0.00   0.0     0     0.00      0     0.0  0.00   0.0   0.087   0.000   13.8    50    3.6   12.8    0.00   350    1    100.0   15 
12/02/19  19.45    8.9   10.0    8.9    63    2.3   0.0   ---   0.00   0.0   ---    8.9    8.6    8.6    6.5   577.1  0.00   0.0     0     0.00      0     0.0  0.00   0.0   0.098   0.000   13.8    50    3.5   12.7    0.00   350    1    100.0   15 
12/02/19  20.00    8.8    8.9    8.6    66    2.8   0.0   ---   0.00   0.0   ---    8.8    8.4    8.4    6.4   577.1  0.00   0.0     0     0.00      0     0.0  0.00   0.0   0.099   0.000   13.7    50    3.4   12.6    0.03   351    1    100.0   15 
12/02/19  20.15    8.7    8.8    8.1    69    3.3   0.0   NNW   0.00   8.0   NNW    8.7    8.4    8.4    6.4   577.1  0.00   0.0     0     0.00      0     0.0  0.00   0.0   0.101   0.000   13.6    50    3.4   12.6    0.00   349    1    100.0   15 
12/02/19  20.30    9.1    9.2    8.7    70    3.9   0.0   NNW   0.00   9.7     N    9.1    8.8    8.8    6.8   577.1  0.00   0.0     0     0.00      0     0.0  0.00   0.0   0.097   0.000   13.6    51    3.7   12.6    0.00   351    1    100.0   15 
12/02/19  20.45    9.3    9.4    8.9    72    4.5   0.0     N   0.00   6.4     N    9.3    9.1    9.1    7.2   577.1  0.00   0.0     0     0.00      0     0.0  0.00   0.0   0.094   0.000   13.6    51    3.6   12.6    0.00   350    1    100.0   15 
12/02/19  21.00    9.3    9.4    9.2    74    4.9   0.0     N   0.00   4.8     N    9.3    9.1    9.1    7.2   577.1  0.00   0.0     0     0.00      0     0.0  0.00   0.0   0.094   0.000   13.6    52    3.9   12.6    0.03   350    1    100.0   15 
12/02/19  21.15    9.0    9.4    9.0    74    4.6   3.2     N   0.80   9.7     N    9.0    8.8    8.8    6.9   577.1  0.00   0.0     0     0.00      0     0.0  0.00   0.0   0.097   0.000   13.4    52    3.8   12.4    0.00   348    1    100.0   15 
12/02/19  21.30    8.4    9.1    8.4    76    4.5   1.6   NNE   0.40   8.0   NNE    8.4    8.3    8.3    6.3   577.1  0.00   0.0     0     0.00      0     0.0  0.00   0.0   0.103   0.000   13.4    53    4.0   12.5    0.00   351    1    100.0   15 
12/02/19  21.45    8.6    8.6    8.3    78    5.0   0.0   ---   0.00   0.0   ---    8.6    8.5    8.5    6.6   572.0  0.00   0.0     0     0.00      0     0.0  0.00   0.0   0.101   0.000   13.4    54    4.3   12.4    0.00   349    1    100.0   15 
12/02/19  22.00    8.8    9.3    8.6    78    5.2   3.2     N   0.80   8.0     N    8.8    8.7    8.7    6.8   572.0  0.00   0.0     0     0.00      0     0.0  0.00   0.0   0.099   0.000   13.4    54    4.3   12.4    0.03   349    1    100.0   15 
12/02/19  22.15    8.6    9.3    8.6    77    4.8   1.6     N   0.40   9.7     N    8.6    8.4    8.4    6.5   572.0  0.00   0.0     0     0.00      0     0.0  0.00   0.0   0.102   0.000   13.4    55    4.5   12.5    0.00   350    1    100.0   15 
12/02/19  22.30    7.4    8.6    7.4    81    4.4   3.2     N   0.80   8.0     N    7.4    7.3    7.3    5.3   572.0  0.00   0.0     0     0.00      0     0.0  0.00   0.0   0.113   0.000   13.3    55    4.4   12.4    0.00   351    1    100.0   15 
12/02/19  22.45    8.5    8.5    7.3    82    5.6   3.2     N   0.80   9.7     N    8.5    8.4    8.4    6.6   572.0  0.00   0.0     0     0.00      0     0.0  0.00   0.0   0.102   0.000   13.3    55    4.4   12.4    0.00   350    1    100.0   15 
12/02/19  23.00    8.3    8.6    8.1    82    5.4   1.6     N   0.40   9.7     N    8.3    8.3    8.3    6.3   572.0  0.00   0.0     0     0.00      0     0.0  0.00   0.0   0.104   0.000   13.3    55    4.4   12.4    0.00   349    1    100.0   15 
12/02/19  23.15    8.2    9.5    8.2    80    4.9   4.8     N   1.21  11.3     N    7.8    8.1    7.7    5.7   572.0  0.00   0.0     0     0.00      0     0.0  0.00   0.0   0.106   0.000   13.2    56    4.6   12.4    0.03   350    1    100.0   15 
12/02/19  23.30    7.9    8.2    7.8    83    5.2   3.2     N   0.80   9.7     N    7.9    7.9    7.9    5.9   572.0  0.00   0.0     0     0.00      0     0.0  0.00   0.0   0.108   0.000   13.2    56    4.6   12.4    0.00   350    1    100.0   15 
12/02/19  23.45    8.9    8.9    7.9    83    6.2   0.0     N   0.00   6.4     N    8.9    8.9    8.9    7.1   572.0  0.00   0.0     0     0.00      0     0.0  0.00   0.0   0.098   0.000   13.2    57    4.9   12.4    0.00   351    1    100.0   15 
13/02/19  00.00    8.6    9.0    8.6    83    5.9   0.0   ---   0.00   0.0   ---    8.6    8.6    8.6    6.7   572.0  0.00   0.0     0     0.00      0     0.0  0.00   0.0   0.101   0.000   13.2    57    4.9   12.4    0.03   351    1    100.0   15 
13/02/19   0.15    8.7    8.7    8.4    83    5.9   0.0   ---   0.00   0.0   ---    8.7    8.6    8.6    6.7   572.0  0.00   0.0     0     0.00      0     0.0  0.00   0.0   0.101   0.000   13.2    57    4.9   12.4    0.00   349    1    100.0   15 
13/02/19   0.30    8.4    8.7    8.4    83    5.7   0.0   ---   0.00   0.0   ---    8.4    8.3    8.3    6.4   572.0  0.00   0.0     0     0.00      0     0.0  0.00   0.0   0.104   0.000   13.1    57    4.8   12.3    0.00   350    1    100.0   15 
13/02/19   0.45    7.1    8.3    7.1    84    4.5   0.0   ---   0.00   0.0   ---    7.1    7.0    7.0    5.1   572.0  0.00   0.0     0     0.00      0     0.0  0.00   0.0   0.117   0.000   13.1    57    4.8   12.3    0.00   352    1    100.0   15 
13/02/19   1.00    6.8    7.2    6.3    86    4.6   0.0   ---   0.00   0.0   ---    6.8    6.7    6.7    4.8   578.1  0.00   0.0     0     0.00      0     0.0  0.00   0.0   0.120   0.000   13.1    57    4.8   12.3    0.00   351    1    100.0   15 
13/02/19   1.15    5.6    6.8    5.6    87    3.6   0.0   ---   0.00   0.0   ---    5.6    5.6    5.6    3.6   578.1  0.00   0.0     0     0.00      0     0.0  0.00   0.0   0.133   0.000   13.1    57    4.8   12.3    0.00   350    1    100.0   15 
13/02/19   1.30    5.2    5.8    5.2    88    3.3   0.0   ---   0.00   0.0   ---    5.2    5.1    5.1    3.1   578.1  0.00   0.0     0     0.00      0     0.0  0.00   0.0   0.137   0.000   13.1    57    4.7   12.3    0.00   351    1    100.0   15 
13/02/19   1.45    5.5    5.7    5.1    88    3.7   0.0   ---   0.00   0.0   ---    5.5    5.4    5.4    3.4   578.1  0.00   0.0     0     0.00      0     0.0  0.00   0.0   0.134   0.000   12.9    57    4.6   12.2    0.00   351    1    100.0   15 
13/02/19   2.00    6.1    6.9    5.5    89    4.4   0.0   ---   0.00   0.0   ---    6.1    6.1    6.1    4.1   578.1  0.00   0.0     0     0.00      0     0.0  0.00   0.0   0.127   0.000   12.9    57    4.6   12.2    0.00   350    1    100.0   15 
13/02/19   2.15    6.8    6.9    6.0    89    5.1   0.0   ---   0.00   0.0   ---    6.8    6.9    6.9    4.9   578.1  0.00   0.0     0     0.00      0     0.0  0.00   0.0   0.120   0.000   12.9    57    4.6   12.2    0.00   350    1    100.0   15 
13/02/19   2.30    5.2    6.8    5.1    89    3.5   0.0   ---   0.00   0.0   ---    5.2    5.1    5.1    3.1   578.1  0.00   0.0     0     0.00      0     0.0  0.00   0.0   0.137   0.000   12.9    57    4.6   12.1    0.00   351    1    100.0   15 
13/02/19   2.45    5.2    5.3    4.8    90    3.7   0.0   ---   0.00   0.0   ---    5.2    5.1    5.1    3.1   578.1  0.00   0.0     0     0.00      0     0.0  0.00   0.0   0.137   0.000   12.9    57    4.6   12.1    0.00   350    1    100.0   15 
13/02/19   3.00    4.9    5.9    4.9    90    3.4   0.0   ---   0.00   0.0   ---    4.9    4.8    4.8    2.8   578.1  0.00   0.0     0     0.00      0     0.0  0.00   0.0   0.140   0.000   12.9    57    4.6   12.1    0.00   351    1    100.0   15 
13/02/19   3.15    5.3    5.6    4.7    90    3.8   0.0   ---   0.00   0.0   ---    5.3    5.3    5.3    3.3   578.1  0.00   0.0     0     0.00      0     0.0  0.00   0.0   0.135   0.000   12.8    57    4.5   12.0    0.00   351    1    100.0   15 
13/02/19   3.30    4.7    5.3    4.7    91    3.4   0.0   ---   0.00   0.0   ---    4.7    4.7    4.7    2.7   578.1  0.00   0.0     0     0.00      0     0.0  0.00   0.0   0.142   0.000   12.8    57    4.5   12.0    0.00   351    1    100.0   15 
13/02/19   3.45    4.7    5.3    4.7    91    3.3   0.0   ---   0.00   0.0   ---    4.7    4.6    4.6    2.6   578.1  0.00   0.0     0     0.00      0     0.0  0.00   0.0   0.142   0.000   12.7    57    4.4   11.9    0.00   350    1    100.0   15 
13/02/19   4.00    4.8    4.8    4.1    91    3.4   0.0   ---   0.00   0.0   ---    4.8    4.7    4.7    2.7   578.1  0.00   0.0     0     0.00      0     0.0  0.00   0.0   0.141   0.000   12.7    57    4.4   11.9    0.00   352    1    100.0   15 
13/02/19   4.15    4.1    4.8    4.1    91    2.7   0.0   ---   0.00   0.0   ---    4.1    4.0    4.0    1.9   578.1  0.00   0.0     0     0.00      0     0.0  0.00   0.0   0.149   0.000   12.7    57    4.4   11.9    0.00   350    1    100.0   15 
13/02/19   4.30    4.2    4.3    3.8    91    2.8   0.0   ---   0.00   0.0   ---    4.2    4.1    4.1    2.1   578.1  0.00   0.0     0     0.00      0     0.0  0.00   0.0   0.148   0.000   12.6    57    4.3   11.8    0.00   351    1    100.0   15 
13/02/19   4.45    3.6    4.3    3.6    92    2.4   0.0   ---   0.00   0.0   ---    3.6    3.6    3.6    1.5   578.1  0.00   0.0     0     0.00      0     0.0  0.00   0.0   0.153   0.000   12.6    57    4.3   11.8    0.00   351    1    100.0   15 
13/02/19   5.00    3.9    4.0    3.6    92    2.8   0.0   ---   0.00   0.0   ---    3.9    3.9    3.9    1.8   578.1  0.00   0.0     0     0.00      0     0.0  0.00   0.0   0.150   0.000   12.6    57    4.3   11.8    0.00   350    1    100.0   15 
13/02/19   5.15    4.2    4.6    3.9    92    3.0   0.0   ---   0.00   0.0   ---    4.2    4.2    4.2    2.2   578.1  0.00   0.0     0     0.00      0     0.0  0.00   0.0   0.147   0.000   12.6    57    4.3   11.8    0.00   349    1    100.0   15 
13/02/19   5.30    4.1    4.3    3.8    92    2.9   0.0   ---   0.00   0.0   ---    4.1    4.1    4.1    2.1   578.1  0.00   0.0     0     0.00      0     0.0  0.00   0.0   0.149   0.000   12.6    57    4.3   11.8    0.00   350    1    100.0   15 
13/02/19   5.45    3.6    4.2    3.6    92    2.4   0.0   ---   0.00   0.0   ---    3.6    3.5    3.5    1.4   578.1  0.00   0.0     0     0.00      0     0.0  0.00   0.0   0.154   0.000   12.6    57    4.3   11.8    0.00   350    1    100.0   15 
13/02/19   6.00    4.2    4.2    3.4    92    3.0   0.0   ---   0.00   0.0   ---    4.2    4.2    4.2    2.2   578.1  0.00   0.0     0     0.00      0     0.0  0.00   0.0   0.147   0.000   12.6    56    4.0   11.8    0.00   350    1    100.0   15 
13/02/19   6.15    3.7    4.4    3.3    92    2.5   0.0   ---   0.00   0.0   ---    3.7    3.7    3.7    1.6   578.1  0.00   0.0     0     0.00      0     0.0  0.00   0.0   0.152   0.000   12.4    56    3.9   11.7    0.00   350    1    100.0   15 
13/02/19   6.30    3.4    3.9    3.2    92    2.3   0.0   ---   0.00   0.0   ---    3.4    3.4    3.4    1.3   578.1  0.00   0.0     0     0.00      0     0.0  0.00   0.0   0.155   0.000   12.4    56    3.9   11.7    0.00   351    1    100.0   15 
13/02/19   6.45    3.8    3.9    3.4    93    2.8   0.0   ---   0.00   0.0   ---    3.8    3.8    3.8    1.8   576.5  0.00   0.0     0     0.00      0     0.0  0.00   0.0   0.151   0.000   12.4    56    3.9   11.7    0.00   350    1    100.0   15 
13/02/19   7.00    3.8    4.2    3.7    92    2.7   0.0   ---   0.00   0.0   ---    3.8    3.8    3.8    1.7   576.5  0.00   0.0     0     0.00      0     0.0  0.00   0.0   0.151   0.000   12.4    56    3.9   11.7    0.00   350    1    100.0   15 
13/02/19   7.15    3.3    3.8    3.3    93    2.3   0.0   ---   0.00   0.0   ---    3.3    3.3    3.3    1.3   576.5  0.00   0.0     0     0.00      5     0.0  0.00   0.0   0.156   0.000   12.4    56    3.8   11.6    0.00   352    1    100.0   15 
13/02/19   7.30    3.5    3.5    3.1    93    2.5   0.0   ---   0.00   0.0   ---    3.5    3.5    3.5    1.6   576.5  0.00   0.0     8     0.17     11     0.0  0.00   0.0   0.155   0.000   12.4    56    3.8   11.6    0.00   350    1    100.0   15 
13/02/19   7.45    2.8    3.7    2.8    92    1.6   0.0   ---   0.00   0.0   ---    2.8    2.7    2.7    0.8  1010.8  0.00   0.0    19     0.41     35     0.0  0.00   0.0   0.162   0.000   12.4    56    3.8   11.6    0.00   350    1    100.0   15 
13/02/19   8.00    2.7    2.9    2.6    92    1.5   0.0   ---   0.00   0.0   ---    2.7    2.6    2.6    1.2  1010.8  0.00   0.0    53     1.14     70     0.0  0.00   0.0   0.163   0.000   12.3    56    3.7   11.5    0.00   350    1    100.0   15 
13/02/19   8.15    3.4    3.4    2.7    92    2.2   0.0   ---   0.00   0.0   ---    3.4    3.3    3.3    2.3   598.6  0.00   0.0    90     1.94    113     0.0  0.00   0.0   0.156   0.000   12.3    55    3.5   11.5    0.00   351    1    100.0   15 
13/02/19   8.30    4.1    4.2    3.4    92    2.9   0.0   ---   0.00   0.0   ---    4.1    4.1    4.1    5.5   598.6  0.00   0.0   133     2.86    155     0.0  0.00   0.0   0.148   0.000   12.3    55    3.5   11.5    0.00   351    1    100.0   15 
13/02/19   8.45    4.9    4.9    4.1    92    3.8   0.0   ---   0.00   0.0   ---    4.9    4.9    4.9    7.4   598.6  0.00   0.0   184     3.96    209     0.0  0.00   0.0   0.139   0.000   12.3    56    3.7   11.5    0.00   351    1    100.0   15 
13/02/19   9.00    6.3    6.3    4.9    92    5.1   0.0   ---   0.00   0.0   ---    6.3    6.3    6.3   10.0   598.6  0.00   0.0   241     5.18    269     0.0  0.00   0.0   0.126   0.000   12.4    56    3.8   11.6    0.05   351    1    100.0   15 
13/02/19   9.15    7.4    7.4    6.3    91    6.1   0.0     N   0.00   4.8     N    7.4    7.5    7.5   12.3   598.6  0.00   0.0   301     6.47    323     0.0  0.00   0.0   0.113   0.000   12.4    57    4.1   11.6    0.00   349    1    100.0   15 
13/02/19   9.30    9.8    9.8    7.5    81    6.7   0.0     N   0.00   6.4     N    9.8    9.8    9.8   15.3   598.6  0.00   0.0   342     7.35    359     0.0  0.00   0.0   0.089   0.000   12.4    57    4.2   11.7    0.00   350    1    100.0   15 
13/02/19   9.45   11.7   11.7    9.8    72    6.8   0.0   ---   0.00   0.0   ---   11.7   11.3   11.3   17.3   598.6  0.00   0.0   378     8.13    396     0.0  0.00   0.0   0.069   0.000   12.6    57    4.3   11.8    0.00   351    1    100.0   15 
13/02/19  10.00   11.8   11.8   11.6    57    3.5   0.0     N   0.00   9.7     N   11.8   11.1   11.1   17.1   598.6  0.00   0.0   413     8.88    427     0.0  0.00   0.0   0.068   0.000   12.7    57    4.4   11.9    0.15   351    1    100.0   15 
13/02/19  10.15   12.1   12.1   11.8    54    3.1   1.6     N   0.40   6.4     N   12.1   11.3   11.3   17.5   598.6  0.00   0.0   441     9.48    454     0.0  0.00   0.0   0.065   0.000   12.8    58    4.7   12.0    0.00   350    1    100.0   15 
13/02/19  10.30   12.4   12.4   12.1    53    3.1   1.6     N   0.40   9.7     N   12.4   11.6   11.6   17.9   598.6  0.00   0.0   466    10.02    478     0.0  0.00   0.0   0.061   0.000   12.9    58    4.8   12.1    0.00   350    1    100.0   15 
13/02/19  10.45   12.7   12.7   12.3    49    2.2   3.2     N   0.80  11.3     N   12.7   11.7   11.7   18.1   598.6  0.00   0.0   487    10.47    499     0.0  0.00   0.0   0.059   0.000   12.9    57    4.6   12.2    0.00   350    1    100.0   15 
13/02/19  11.00   12.9   13.1   12.7    46    1.5   3.2   NNE   0.80  11.3   NNE   12.9   11.7   11.7   18.3   598.6  0.00   0.0   512    11.01    524     0.0  0.00   0.0   0.057   0.000   13.1    57    4.7   12.3    0.25   351    1    100.0   15 
13/02/19  11.15   13.3   13.3   12.8    45    1.6   3.2    NE   0.80   9.7   NNE   13.3   12.1   12.1   18.9   585.8  0.00   0.0   535    11.50    545     0.0  0.00   0.0   0.052   0.000   13.1    57    4.8   12.3    0.00   351    1    100.0   15 
13/02/19  11.30   13.3   13.6   13.1    46    1.9   3.2   ENE   0.80  14.5   ENE   13.3   12.1   12.1   19.1   585.8  0.00   0.0   551    11.85    557     0.0  0.00   0.0   0.053   0.000   13.2    57    4.9   12.4    0.00   349    1    100.0   15 
13/02/19  11.45   13.3   13.4   13.1    45    1.6   4.8     E   1.21  11.3     E   13.3   12.1   12.1   19.1   585.8  0.00   0.0   563    12.11    568     0.0  0.00   0.0   0.053   0.000   13.4    57    5.0   12.6    0.00   350    1    100.0   15 
13/02/19  12.00   13.8   13.8   13.3    45    2.1   3.2   ESE   0.80  11.3   ESE   13.8   12.6   12.6   19.8   585.8  0.00   0.0   573    12.32    578     0.0  0.00   0.0   0.047   0.000   13.4    57    5.1   12.6    0.30   351    1    100.0   15 
13/02/19  12.15   14.0   14.1   13.6    45    2.2   4.8   ESE   1.21  14.5   ESE   14.0   12.8   12.8   20.1   585.8  0.00   0.0   580    12.47    584     0.0  0.00   0.0   0.045   0.000   13.7    57    5.3   12.8    0.00   350    1    100.0   15 
13/02/19  12.30   13.6   13.9   13.6    47    2.4   4.8   ESE   1.21  16.1   ESE   13.6   12.4   12.4   19.9   585.8  0.00   0.0   584    12.56    584     0.0  0.00   0.0   0.050   0.000   13.8    57    5.5   13.0    0.00   351    1    100.0   15 
13/02/19  12.45   13.4   13.7   13.4    49    2.9   4.8    SE   1.21  16.1    SE   13.4   12.3   12.3   19.8   585.8  0.00   0.0   582    12.51    584     0.0  0.00   0.0   0.052   0.000   14.1    57    5.7   13.3    0.00   352    1    100.0   15 
13/02/19  13.00   13.6   13.8   13.4    47    2.4   1.6    SE   0.40   9.7    SE   13.6   12.4   12.4   20.1   585.8  0.00   0.0   578    12.43    580     0.0  0.00   0.0   0.050   0.000   14.3    57    5.9   13.5    0.33   351    1    100.0   15 
13/02/19  13.15   13.9   14.2   13.6    39    0.2   6.4     E   1.61  14.5     E   13.9   12.5   12.5   20.2   585.8  0.00   0.0   572    12.30    575     0.0  0.00   0.0   0.046   0.000   14.6    56    5.9   13.8    0.00   349    1    100.0   15 
13/02/19  13.30   14.2   14.4   13.9    38    0.1   3.2     E   0.80  16.1    NE   14.2   12.7   12.7   20.5   585.8  0.00   0.0   562    12.08    568     0.0  0.00   0.0   0.043   0.000   14.9    56    6.2   14.1    0.00   349    1    100.0   15 
13/02/19  13.45   13.6   14.3   13.5    45    1.8   3.2   NNE   0.80  11.3    NE   13.6   12.3   12.3   20.3   585.8  0.00   0.0   549    11.81    555     0.0  0.00   0.0   0.050   0.000   15.1    56    6.4   14.3    0.00   351    1    100.0   15 
13/02/19  14.00   13.9   14.0   13.6    52    4.2   1.6   ENE   0.40   9.7   ENE   13.9   12.9   12.9   21.1   585.8  0.00   0.0   531    11.42    538     0.0  0.00   0.0   0.046   0.000   15.4    55    6.4   14.5    0.30   351    1    100.0   15 
13/02/19  14.15   13.3   13.9   13.2    52    3.7   6.4    SE   1.61  16.1   ESE   13.2   12.3   12.2   20.3   585.8  0.00   0.0   510    10.97    520     0.0  0.00   0.0   0.052   0.000   15.6    55    6.6   14.7    0.00   349    1    100.0   15 
13/02/19  14.30   13.9   14.1   13.3    49    3.3   1.6    SE   0.40   9.7    SE   13.9   12.8   12.8   20.9   585.8  0.00   0.0   486    10.45    497     0.0  0.00   0.0   0.046   0.000   15.9    55    6.9   15.0    0.00   347    1    100.0   15 
13/02/19  14.45   13.6   13.8   13.4    51    3.6   3.2    SE   0.80   9.7    SE   13.6   12.6   12.6   20.5   585.8  0.00   0.0   460     9.89    475     0.0  0.00   0.0   0.050   0.000   16.1    55    7.0   15.2    0.00   351    1    100.0   15 
13/02/19  15.00   13.6   13.8   13.4    51    3.7   3.2    SE   0.80   9.7    SE   13.6   12.6   12.6   20.3   585.8  0.00   0.0   431     9.27    445     0.0  0.00   0.0   0.049   0.000   16.2    54    6.9   15.3    0.25   349    1    100.0   15 
13/02/19  15.15   14.1   14.2   13.7    49    3.5   0.0    SE   0.00   6.4    SE   14.1   13.0   13.0   20.4   585.8  0.00   0.0   398     8.56    413     0.0  0.00   0.0   0.044   0.000   16.3    54    7.0   15.4    0.00   351    1    100.0   15 
13/02/19  15.30   13.9   14.4   13.9    51    4.0   1.6    SE   0.40   8.0    SE   13.9   12.9   12.9   20.1   585.8  0.00   0.0   366     7.87    383     0.0  0.00   0.0   0.046   0.000   16.3    54    7.0   15.4    0.00   349    1    100.0   15 
13/02/19  15.45   14.3   14.5   13.9    50    4.0   0.0    SE   0.00   4.8    SE   14.3   13.2   13.2   15.1   585.8  0.00   0.0   330     7.10    346     0.0  0.00   0.0   0.042   0.000   16.2    54    6.8   15.2    0.00   350    1    100.0   15 
13/02/19  16.00   13.7   14.5   13.7    44    1.7   0.0    SE   0.00   6.4    SE   13.7   12.4   12.4   13.9   585.8  0.00   0.0   293     6.30    311     0.0  0.00   0.0   0.048   0.000   15.8    55    6.8   14.9    0.18   352    1    100.0   15 
13/02/19  16.15   13.2   13.7   13.2    47    2.1   1.6    SE   0.40   9.7    SE   13.2   12.1   12.1   12.9   585.8  0.00   0.0   250     5.38    269     0.0  0.00   0.0   0.054   0.000   15.4    55    6.4   14.6    0.00   350    1    100.0   15 
13/02/19  16.30   12.9   13.2   12.9    48    2.2   1.6    SE   0.40   9.7    SE   12.9   11.8   11.8   12.1   585.8  0.00   0.0   194     4.17    221     0.0  0.00   0.0   0.056   0.000   15.2    55    6.2   14.3    0.00   350    1    100.0   15 
13/02/19  16.45   12.8   13.1   12.8    48    2.1   0.0    SE   0.00   6.4    SE   12.8   11.8   11.8   11.4   585.8  0.00   0.0   139     2.99    165     0.0  0.00   0.0   0.057   0.000   15.1    55    6.1   14.2    0.00   350    1    100.0   15 
13/02/19  17.00   12.6   12.8   12.6    49    2.1   1.6    SE   0.40   8.0    SE   12.6   11.6   11.6   10.6   585.8  0.00   0.0    90     1.94    111     0.0  0.00   0.0   0.060   0.000   14.8    56    6.1   13.9    0.10   350    1    100.0   15 
13/02/19  17.15   11.1   12.6   11.1    60    3.6   0.0    SE   0.00   4.8    SE   11.1   10.5   10.5    9.0   585.8  0.00   0.0    44     0.95     67     0.0  0.00   0.0   0.076   0.000   14.7    56    6.0   13.9    0.00   349    1    100.0   15 
13/02/19  17.30   10.3   11.0   10.3    64    3.8   0.0   ---   0.00   0.0   ---   10.3    9.9    9.9    8.1   585.8  0.00   0.0    15     0.32     18     0.0  0.00   0.0   0.084   0.000   14.6    55    5.6   13.7    0.00   351    1    100.0   15 
13/02/19  17.45    9.3   10.3    9.3    65    3.1   0.0   ---   0.00   0.0   ---    9.3    9.0    9.0    7.1   585.8  0.00   0.0     8     0.17     11     0.0  0.00   0.0   0.094   0.000   14.3    55    5.4   13.4    0.00   351    1    100.0   15 
13/02/19  18.00    8.7    9.3    8.7    66    2.7   0.0   ---   0.00   0.0   ---    8.7    8.3    8.3    6.3   585.8  0.00   0.0     0     0.00      0     0.0  0.00   0.0   0.100   0.000   14.3    55    5.4   13.4    0.03   351    1    100.0   15 
13/02/19  18.15    8.2    8.7    8.2    66    2.2   0.0   ---   0.00   0.0   ---    8.2    7.8    7.8    5.7   585.8  0.00   0.0     0     0.00      0     0.0  0.00   0.0   0.106   0.000   14.1    54    4.9   13.2    0.00   349    1    100.0   15 
13/02/19  18.30    7.6    8.2    7.6    67    1.8   0.0   ---   0.00   0.0   ---    7.6    7.2    7.2    5.2   585.8  0.00   0.0     0     0.00      0     0.0  0.00   0.0   0.112   0.000   14.0    54    4.8   13.1    0.00   349    1    100.0   15 
13/02/19  18.45    7.4    7.6    7.4    66    1.5   0.0    SE   0.00   1.6    SE    7.4    7.1    7.1    4.9   585.8  0.00   0.0     0     0.00      0     0.0  0.00   0.0   0.113   0.000   13.9    53    4.5   13.0    0.00   349    1    100.0   15 
13/02/19  19.00    7.3    7.4    7.3    66    1.4   0.0    SE   0.00   4.8    SE    7.3    6.9    6.9    4.8   585.8  0.00   0.0     0     0.00      0     0.0  0.00   0.0   0.115   0.000   13.8    53    4.4   12.9    0.03   348    1    100.0   15 
13/02/19  19.15    7.2    7.7    7.2    67    1.4   0.0   ---   0.00   0.0   ---    7.2    6.8    6.8    4.7   585.8  0.00   0.0     0     0.00      0     0.0  0.00   0.0   0.116   0.000   13.8    53    4.4   12.8    0.00   351    1    100.0   15 
13/02/19  19.30    7.1    7.2    6.9    68    1.6   0.0   ---   0.00   0.0   ---    7.1    6.8    6.8    4.7   585.8  0.00   0.0     0     0.00      0     0.0  0.00   0.0   0.117   0.000   13.7    53    4.3   12.7    0.00   350    1    100.0   15 
13/02/19  19.45    7.2    7.3    7.1    68    1.7   0.0   ---   0.00   0.0   ---    7.2    6.9    6.9    4.8   585.8  0.00   0.0     0     0.00      0     0.0  0.00   0.0   0.116   0.000   13.6    53    4.2   12.7    0.00   350    1    100.0   15 
13/02/19  20.00    7.9    8.1    7.2    69    2.5   0.0    SE   0.00   3.2    SE    7.9    7.6    7.6    5.6   585.8  0.00   0.0     0     0.00      0     0.0  0.00   0.0   0.109   0.000   13.6    53    4.1   12.6    0.03   350    1    100.0   15 
13/02/19  20.15    9.2    9.3    7.9    66    3.2   1.6    SE   0.40   8.0    SE    9.2    8.9    8.9    6.9   585.8  0.00   0.0     0     0.00      0     0.0  0.00   0.0   0.095   0.000   13.6    53    4.1   12.6    0.00   350    1    100.0   15 
13/02/19  20.30    9.1    9.2    9.0    67    3.2   3.2   ESE   0.80   9.7   ESE    9.1    8.7    8.7    6.7   585.8  0.00   0.0     0     0.00      0     0.0  0.00   0.0   0.097   0.000   13.4    53    4.0   12.5    0.00   351    1    100.0   15 
13/02/19  20.45    9.8    9.8    9.1    66    3.7   1.6   ESE   0.40   6.4   ESE    9.8    9.4    9.4    7.4   585.8  0.00   0.0     0     0.00      0     0.0  0.00   0.0   0.089   0.000   13.4    53    4.0   12.5    0.00   349    1    100.0   15 
13/02/19  21.00   10.6   10.7    9.7    62    3.6   0.0   ESE   0.00   1.6   ESE   10.6   10.1   10.1    8.1   585.8  0.00   0.0     0     0.00      0     0.0  0.00   0.0   0.081   0.000   13.4    53    4.0   12.4    0.03   348    1    100.0   15 
13/02/19  21.15    9.6   10.6    9.6    65    3.3   0.0   ESE   0.00   3.2   ESE    9.6    9.2    9.2    7.2   585.8  0.00   0.0     0     0.00      0     0.0  0.00   0.0   0.091   0.000   13.4    53    4.0   12.4    0.00   349    1    100.0   15 
13/02/19  21.30    8.4    9.5    8.4    69    3.0   0.0   ---   0.00   0.0   ---    8.4    8.1    8.1    6.1   585.8  0.00   0.0     0     0.00      0     0.0  0.00   0.0   0.104   0.000   13.4    54    4.3   12.4    0.00   347    1    100.0   15 
13/02/19  21.45    8.2    8.3    7.9    71    3.2   0.0   ESE   0.00   3.2   ESE    8.2    7.9    7.9    5.9   585.8  0.00   0.0     0     0.00      0     0.0  0.00   0.0   0.106   0.000   13.3    54    4.2   12.4    0.00   349    1    100.0   15 
13/02/19  22.00    9.6    9.6    8.2    69    4.2   0.0   ESE   0.00   4.8   ESE    9.6    9.4    9.4    7.4   594.0  0.00   0.0     0     0.00      0     0.0  0.00   0.0   0.091   0.000   13.2    54    4.1   12.3    0.03   348    1    100.0   15 
13/02/19  22.15    9.9   10.1    9.6    69    4.5   1.6   ESE   0.40   6.4   ESE    9.9    9.7    9.7    7.7   594.0  0.00   0.0     0     0.00      0     0.0  0.00   0.0   0.088   0.000   13.2    54    4.1   12.3    0.00   349    1    100.0   15 
13/02/19  22.30   10.1   10.1    9.7    70    4.9   0.0   ESE   0.00   6.4   ESE   10.1    9.9    9.9    7.9   571.7  0.00   0.0     0     0.00      0     0.0  0.00   0.0   0.086   0.000   13.2    54    4.1   12.3    0.00   351    1    100.0   15 
13/02/19  22.45   10.2   10.2   10.1    71    5.1   0.0   ESE   0.00   3.2   ESE   10.2    9.9    9.9    8.0   571.7  0.00   0.0     0     0.00      0     0.0  0.00   0.0   0.085   0.000   13.2    55    4.4   12.3    0.00   350    1    100.0   15 
13/02/19  23.00   10.3   10.4   10.2    71    5.2   0.0   ESE   0.00   6.4   ESE   10.3   10.1   10.1    8.1   571.7  0.00   0.0     0     0.00      0     0.0  0.00   0.0   0.084   0.000   13.2    55    4.4   12.3    0.03   350    1    100.0   15 
13/02/19  23.15   10.7   10.7   10.2    70    5.5   4.8   ESE   1.21  11.3   ESE   10.6   10.4   10.3    8.4   571.7  0.00   0.0     0     0.00      0     0.0  0.00   0.0   0.079   0.000   13.2    55    4.4   12.3    0.00   349    1    100.0   15 
13/02/19  23.30   10.1   10.7   10.1    70    4.9   1.6   ESE   0.40   8.0   ESE   10.1    9.9    9.9    7.9   571.7  0.00   0.0     0     0.00      0     0.0  0.00   0.0   0.086   0.000   13.2    56    4.6   12.4    0.00   351    1    100.0   15 
13/02/19  23.45   10.2   10.4   10.1    70    5.0   0.0   ESE   0.00   6.4   ESE   10.2   10.0   10.0    8.1   585.2  0.00   0.0     0     0.00      0     0.0  0.00   0.0   0.084   0.000   13.2    56    4.6   12.4    0.00   351    1    100.0   15 
14/02/19  00.00    9.7   10.2    9.7    72    4.9   0.0   ---   0.00   0.0   ---    9.7    9.5    9.5    7.6   585.2  0.00   0.0     0     0.00      0     0.0  0.00   0.0   0.090   0.000   13.2    56    4.6   12.4    0.03   349    1    100.0   15 
14/02/19   0.15    9.8    9.9    9.6    73    5.2   0.0   ---   0.00   0.0   ---    9.8    9.6    9.6    7.7   585.2  0.00   0.0     0     0.00      0     0.0  0.00   0.0   0.089   0.000   13.2    56    4.6   12.4    0.00   349    1    100.0   15 
14/02/19   0.30    9.8    9.8    9.6    75    5.6   0.0   ---   0.00   0.0   ---    9.8    9.7    9.7    7.7   585.2  0.00   0.0     0     0.00      0     0.0  0.00   0.0   0.089   0.000   13.1    56    4.5   12.3    0.00   351    1    100.0   15 
14/02/19   0.45    9.7    9.9    9.7    76    5.7   0.0   ---   0.00   0.0   ---    9.7    9.6    9.6    7.7   585.2  0.00   0.0     0     0.00      0     0.0  0.00   0.0   0.090   0.000   13.1    56    4.5   12.3    0.00   349    1    100.0   15 
14/02/19   1.00    8.0    9.7    8.0    76    4.0   0.0   ---   0.00   0.0   ---    8.0    7.8    7.8    5.8   585.2  0.00   0.0     0     0.00      0     0.0  0.00   0.0   0.108   0.000   13.1    57    4.8   12.3    0.00   351    1    100.0   15 
14/02/19   1.15    8.8    8.8    8.0    77    5.0   0.0   ESE   0.00   3.2   ESE    8.8    8.7    8.7    6.7   585.2  0.00   0.0     0     0.00      0     0.0  0.00   0.0   0.100   0.000   13.1    56    4.5   12.2    0.03   350    1    100.0   15 
14/02/19   1.30    8.8    8.9    8.7    75    4.6   0.0   ESE   0.00   1.6   ESE    8.8    8.7    8.7    6.7   585.2  0.00   0.0     0     0.00      0     0.0  0.00   0.0   0.099   0.000   13.1    57    4.7   12.3    0.00   350    1    100.0   15 
14/02/19   1.45    9.1    9.1    8.8    75    4.9   0.0   ---   0.00   0.0   ---    9.1    8.9    8.9    7.0   585.2  0.00   0.0     0     0.00      0     0.0  0.00   0.0   0.096   0.000   13.1    57    4.7   12.3    0.00   351    1    100.0   15 
14/02/19   2.00    9.1    9.2    8.9    74    4.7   0.0   ESE   0.00   6.4   ESE    9.1    8.9    8.9    6.9   585.2  0.00   0.0     0     0.00      0     0.0  0.00   0.0   0.097   0.000   12.9    57    4.6   12.2    0.03   351    1    100.0   15 
14/02/19   2.15    9.2    9.3    9.1    73    4.6   0.0   ESE   0.00   6.4   ESE    9.2    9.0    9.0    7.1   585.2  0.00   0.0     0     0.00      0     0.0  0.00   0.0   0.095   0.000   12.9    57    4.6   12.2    0.00   349    1    100.0   15 
14/02/19   2.30    9.1    9.2    8.9    73    4.5   0.0   ESE   0.00   1.6   ESE    9.1    8.9    8.9    6.9   585.2  0.00   0.0     0     0.00      0     0.0  0.00   0.0   0.096   0.000   12.9    57    4.6   12.2    0.00   347    1    100.0   15 
14/02/19   2.45    9.4    9.4    9.2    72    4.6   0.0   ESE   0.00   3.2   ESE    9.4    9.2    9.2    7.2   585.2  0.00   0.0     0     0.00      0     0.0  0.00   0.0   0.093   0.000   12.9    57    4.6   12.2    0.00   349    1    100.0   15 
14/02/19   3.00    9.4    9.6    9.4    72    4.6   0.0   ESE   0.00   4.8   ESE    9.4    9.2    9.2    7.2   585.2  0.00   0.0     0     0.00      0     0.0  0.00   0.0   0.093   0.000   12.9    57    4.6   12.2    0.03   351    1    100.0   15 
14/02/19   3.15    9.6    9.6    9.2    72    4.8   0.0   ---   0.00   0.0   ---    9.6    9.4    9.4    7.5   585.2  0.00   0.0     0     0.00      0     0.0  0.00   0.0   0.091   0.000   12.9    57    4.6   12.2    0.00   352    1    100.0   15 
14/02/19   3.30    9.5    9.8    9.5    72    4.7   0.0   ESE   0.00   4.8   ESE    9.5    9.3    9.3    7.3   585.2  0.00   0.0     0     0.00      0     0.0  0.00   0.0   0.092   0.000   12.9    57    4.6   12.2    0.00   350    1    100.0   15 
14/02/19   3.45    9.9    9.9    9.3    72    5.1   3.2   ESE   0.80   9.7   ESE    9.9    9.8    9.8    7.8   585.2  0.00   0.0     0     0.00      0     0.0  0.00   0.0   0.087   0.000   12.9    57    4.6   12.2    0.00   350    1    100.0   15 
14/02/19   4.00   10.3   10.4   10.0    70    5.0   8.0     E   2.01  16.1   ESE    9.3   10.0    9.1    7.1   571.9  0.00   0.0     0     0.00      0     0.0  0.00   0.0   0.084   0.000   12.9    57    4.6   12.1    0.03   351    1    100.0   15 
14/02/19   4.15   10.1   10.2    9.8    72    5.2   4.8     E   1.21  14.5     E    9.9    9.9    9.7    7.8   571.9  0.00   0.0     0     0.00      0     0.0  0.00   0.0   0.086   0.000   12.9    58    4.8   12.1    0.00   351    1    100.0   15 
14/02/19   4.30   10.2   10.4   10.0    71    5.2   3.2     E   0.80  12.9     E   10.2   10.0   10.0    8.1   571.9  0.00   0.0     0     0.00      0     0.0  0.00   0.0   0.084   0.000   12.9    58    4.8   12.1    0.00   351    1    100.0   15 
14/02/19   4.45   10.2   10.2   10.1    73    5.5   3.2     E   0.80   8.0     E   10.2   10.0   10.0    8.1   571.9  0.00   0.0     0     0.00      0     0.0  0.00   0.0   0.085   0.000   12.9    58    4.8   12.1    0.00   350    1    100.0   15 
14/02/19   5.00    9.9   10.2    9.8    75    5.7   1.6     E   0.40   6.4     E    9.9    9.8    9.8    7.9   571.9  0.00   0.0     0     0.00      0     0.0  0.00   0.0   0.088   0.000   12.9    58    4.8   12.1    0.03   350    1    100.0   15 
14/02/19   5.15    9.6    9.9    9.6    75    5.4   1.6     E   0.40   8.0     E    9.6    9.4    9.4    7.5   571.9  0.00   0.0     0     0.00      0     0.0  0.00   0.0   0.091   0.000   12.9    58    4.8   12.1    0.00   350    1    100.0   15 
14/02/19   5.30    9.9    9.9    9.6    73    5.3   1.6     E   0.40  14.5     E    9.9    9.8    9.8    7.8   571.9  0.00   0.0     0     0.00      0     0.0  0.00   0.0   0.087   0.000   12.9    58    4.8   12.1    0.00   347    1    100.0   15 
14/02/19   5.45    9.8   10.0    9.8    70    4.6   1.6     E   0.40  11.3     E    9.8    9.6    9.6    7.6   571.9  0.00   0.0     0     0.00      0     0.0  0.00   0.0   0.089   0.000   12.9    58    4.8   12.1    0.00   349    1    100.0   15 
14/02/19   6.00    9.7   10.0    9.7    67    3.8   4.8     E   1.21  11.3     E    9.4    9.4    9.2    7.2   571.9  0.00   0.0     0     0.00      0     0.0  0.00   0.0   0.090   0.000   12.9    58    4.8   12.1    0.03   350    1    100.0   15 
14/02/19   6.15    9.7    9.8    9.6    66    3.6   1.6     E   0.40   9.7     E    9.7    9.3    9.3    7.3   571.9  0.00   0.0     0     0.00      0     0.0  0.00   0.0   0.090   0.000   12.9    58    4.8   12.1    0.00   351    1    100.0   15 
14/02/19   6.30   10.8   10.8    9.6    62    3.8   9.7   NNW   2.41  25.7     N    9.6   10.3    9.1    7.1   571.9  0.00   0.0     0     0.00      0     0.0  0.00   0.0   0.079   0.000   12.9    58    4.8   12.1    0.00   351    1    100.0   15 
14/02/19   6.45   10.7   10.8   10.6    64    4.1   6.4     N   1.61  19.3     N   10.1   10.2    9.7    7.7   571.9  0.00   0.0     0     0.00      0     0.0  0.00   0.0   0.080   0.000   12.9    58    4.8   12.1    0.00   347    1    100.0   15 
14/02/19   7.00   11.0   11.1   10.7    59    3.3   8.0   NNW   2.01  20.9   NNW   10.2   10.4    9.7    7.7   571.9  0.00   0.0     0     0.00      0     0.0  0.00   0.0   0.076   0.000   12.9    58    4.8   12.1    0.05   349    1    100.0   15 
14/02/19   7.15   10.9   11.1   10.8    61    3.7   8.0   NNW   2.01  20.9   NNW   10.1   10.4    9.6    7.6   571.9  0.00   0.0     1     0.02      5     0.0  0.00   0.0   0.077   0.000   12.9    57    4.6   12.1    0.00   345    1    100.0   15 
14/02/19   7.30   10.7   10.9   10.7    62    3.7   6.4     N   1.61  20.9   NNE   10.2   10.2    9.7    7.8   571.9  0.00   0.0     9     0.19     12     0.0  0.00   0.0   0.079   0.000   12.8    57    4.5   12.0    0.00   352    1    100.0   15 
14/02/19   7.45   11.1   11.1   10.7    55    2.4   6.4     N   1.61  22.5     N   10.7   10.4   10.0    8.2   571.9  0.00   0.0    21     0.45     35     0.0  0.00   0.0   0.075   0.000   12.9    57    4.6   12.1    0.00   349    1    100.0   15 
14/02/19   8.00   11.1   11.1   10.9    59    3.4   4.8     N   1.21  19.3     N   11.1   10.6   10.5    9.1   571.9  0.00   0.0    53     1.14     79     0.0  0.00   0.0   0.075   0.000   12.9    57    4.6   12.1    0.05   350    1    100.0   15 
14/02/19   8.15   11.8   11.8   11.1    55    3.0   8.0     N   2.01  22.5   NNE   11.1   11.0   10.3    9.5   571.9  0.00   0.0   103     2.21    125     0.0  0.00   0.0   0.068   0.000   12.8    56    4.2   11.9    0.00   348    1    100.0   15 
14/02/19   8.30   12.1   12.1   11.8    59    4.3  11.3     N   2.82  30.6     N   10.9   11.4   10.2   12.2   571.9  0.00   0.0   154     3.31    179     0.0  0.00   0.0   0.065   0.000   12.8    56    4.2   11.9    0.00   349    1    100.0   15 
14/02/19   8.45   12.2   12.2   12.1    58    4.2  12.9     N   3.22  33.8     N   10.7   11.5   10.0   12.9   571.9  0.00   0.0   209     4.49    236     0.0  0.00   0.0   0.064   0.000   12.8    56    4.2   11.9    0.00   347    1    100.0   15 
14/02/19   9.00   12.8   12.8   12.2    49    2.3  11.3     N   2.82  27.4     N   11.8   11.7   10.7   14.8   571.9  0.00   0.0   268     5.76    292     0.0  0.00   0.0   0.058   0.000   12.9    56    4.3   12.1    0.15   351    1    100.0   15 
14/02/19   9.15   13.0   13.0   12.8    48    2.2  11.3   NNE   2.82  25.7     N   12.1   11.9   10.9   15.7   571.9  0.00   0.0   314     6.75    332     0.0  0.00   0.0   0.056   0.000   12.9    55    4.1   12.1    0.00   348    1    100.0   15 
14/02/19   9.30   13.3   13.3   13.0    46    1.9  11.3   NNW   2.82  25.7     N   12.4   12.2   11.3   16.6   571.9  0.00   0.0   353     7.59    371     0.0  0.00   0.0   0.052   0.000   12.9    55    4.1   12.1    0.00   351    1    100.0   15 
14/02/19   9.45   13.6   13.6   13.3    47    2.4   9.7     N   2.41  27.4   NNE   12.9   12.4   11.8   17.6   571.9  0.00   0.0   387     8.32    404     0.0  0.00   0.0   0.050   0.000   12.9    55    4.1   12.1    0.00   350    1    100.0   15 
14/02/19  10.00   13.8   13.8   13.6    46    2.3  12.9     N   3.22  27.4     N   12.6   12.6   11.4   17.2   571.9  0.00   0.0   420     9.03    434     0.0  0.00   0.0   0.047   0.000   12.9    53    3.6   12.0    0.25   345    1    100.0   15 
14/02/19  10.15   14.0   14.0   13.8    45    2.2   9.7     N   2.41  27.4   NNE   13.4   12.8   12.2   18.6   571.9  0.00   0.0   451     9.70    466     0.0  0.00   0.0   0.045   0.000   13.1    53    3.7   12.1    0.00   349    1    100.0   15 
14/02/19  10.30   14.2   14.2   14.0    48    3.3  11.3   NNE   2.82  27.4     N   13.4   13.0   12.3   18.7   571.9  0.00   0.0   479    10.30    492     0.0  0.00   0.0   0.043   0.000   13.1    53    3.7   12.2    0.00   349    1    100.0   15 
14/02/19  10.45   14.2   14.3   14.1    47    3.0  12.9     N   3.22  25.7     N   13.1   13.0   11.9   18.2   571.9  0.00   0.0   505    10.86    517     0.0  0.00   0.0   0.043   0.000   13.2    53    3.8   12.3    0.00   347    1    100.0   15 
14/02/19  11.00   14.0   14.2   13.9    51    4.0  16.1     N   4.02  25.7     N   12.1   12.9   11.0   17.1   571.9  0.00   0.0   527    11.33    534     0.0  0.00   0.0   0.045   0.000   13.2    52    3.6   12.2    0.33   347    1    100.0   15 
14/02/19  11.15   14.1   14.1   13.8    51    4.1  12.9   NNE   3.22  27.4   NNE   12.9   13.0   11.9   18.5   571.9  0.00   0.0   546    11.74    554     0.0  0.00   0.0   0.045   0.000   13.3    52    3.6   12.3    0.00   346    1    100.0   15 
14/02/19  11.30   14.1   14.2   13.9    51    4.1  11.3     N   2.82  25.7     N   13.3   13.0   12.3   19.3   571.9  0.00   0.0   564    12.13    571     0.0  0.00   0.0   0.045   0.000   13.4    53    4.0   12.5    0.00   348    1    100.0   15 
14/02/19  11.45   14.4   14.5   14.1    48    3.6  11.3     N   2.82  24.1   NNE   13.8   13.3   12.6   19.8   571.9  0.00   0.0   578    12.43    584     0.0  0.00   0.0   0.041   0.000   13.6    53    4.1   12.6    0.00   348    1    100.0   15 
14/02/19  12.00   14.8   14.8   14.4    47    3.6  11.3     N   2.82  25.7   NNW   14.2   13.6   13.0   20.3   571.9  0.00   0.0   588    12.64    592     0.0  0.00   0.0   0.036   0.000   13.7    53    4.3   12.7    0.36   348    1    100.0   15 
14/02/19  12.15   15.0   15.1   14.7    44    2.8  11.3   NNE   2.82  27.4   NNE   14.4   13.7   13.1   20.5   571.9  0.00   0.0   596    12.82    598     0.0  0.00   0.0   0.035   0.000   13.8    53    4.4   12.9    0.00   349    1    100.0   15 
14/02/19  12.30   14.9   15.0   14.8    42    2.1  14.5     N   3.62  27.4     N   13.5   13.5   12.1   19.0   571.9  0.00   0.0   599    12.88    601     0.0  0.00   0.0   0.036   0.000   14.0    53    4.6   13.1    0.00   350    1    100.0   15 
14/02/19  12.45   14.9   15.1   14.7    45    3.1  12.9   NNE   3.22  29.0   NNE   14.0   13.7   12.7   20.1   571.9  0.00   0.0   599    12.88    599     0.0  0.00   0.0   0.035   0.000   14.3    53    4.8   13.3    0.00   350    1    100.0   15 
14/02/19  13.00   14.8   15.0   14.6    42    2.0  16.1   NNE   4.02  27.4   NNE   12.9   13.4   11.6   18.4   571.9  0.00   0.0   595    12.79    599     0.0  0.00   0.0   0.037   0.000   14.4    52    4.7   13.4    0.41   348    1    100.0   15 
14/02/19  13.15   15.0   15.2   14.8    45    3.2  14.5   NNE   3.62  25.7   NNE   13.6   13.7   12.3   19.6   571.9  0.00   0.0   588    12.64    592     0.0  0.00   0.0   0.035   0.000   14.7    51    4.7   13.7    0.00   344    1    100.0   15 
14/02/19  13.30   15.2   15.3   15.1    40    1.7  12.9   NNE   3.22  25.7    NE   14.3   13.7   12.8   20.4   580.6  0.00   0.0   577    12.41    582     0.0  0.00   0.0   0.032   0.000   14.9    51    4.9   13.9    0.00   347    1    100.0   15 
14/02/19  13.45   15.4   15.6   15.2    36    0.4  11.3     N   2.82  25.7     N   14.9   13.7   13.2   21.2   580.6  0.00   0.0   563    12.11    571     0.0  0.00   0.0   0.031   0.000   15.2    51    5.1   14.2    0.00   347    1    100.0   15 
14/02/19  14.00   15.4   15.6   15.3    35   -0.0  12.9   NNE   3.22  27.4     N   14.5   13.7   12.8   20.4   587.5  0.00   0.0   543    11.68    554     0.0  0.00   0.0   0.031   0.000   15.4    50    5.1   14.3    0.38   350    1    100.0   15 
14/02/19  14.15   15.3   15.5   15.3    35   -0.1  16.1   NNE   4.02  29.0   NNE   13.6   13.6   11.9   19.0   587.5  0.00   0.0   524    11.27    536     0.0  0.00   0.0   0.031   0.000   15.6    49    4.9   14.4    0.00   347    1    100.0   15 
14/02/19  14.30   15.3   15.6   15.3    36    0.3  16.1   NNE   4.02  29.0    NE   13.6   13.6   11.9   19.1   587.5  0.00   0.0   500    10.75    513     0.0  0.00   0.0   0.032   0.000   15.9    48    4.9   14.7    0.00   349    1    100.0   15 
14/02/19  14.45   15.3   15.3   15.1    36    0.3  17.7   NNE   4.43  27.4    NE   13.3   13.7   11.6   18.4   587.5  0.00   0.0   475    10.21    490     0.0  0.00   0.0   0.031   0.000   16.1    48    5.0   14.9    0.00   348    1    100.0   15 
14/02/19  15.00   15.2   15.5   15.2    38    1.0  14.5   NNE   3.62  25.7   NNE   13.9   13.6   12.3   19.5   587.5  0.00   0.0   447     9.61    462     0.0  0.00   0.0   0.032   0.000   16.2    47    4.8   14.9    0.38   346    1    100.0   15 
14/02/19  15.15   15.3   15.4   15.2    36    0.3  12.9   NNE   3.22  25.7    NE   14.4   13.7   12.8   19.9   587.5  0.00   0.0   414     8.90    429     0.0  0.00   0.0   0.031   0.000   16.3    46    4.7   15.1    0.00   349    1    100.0   15 
14/02/19  15.30   15.3   15.4   15.3    37    0.7   9.7   NNE   2.41  22.5     N   15.1   13.7   13.4   20.7   587.5  0.00   0.0   379     8.15    396     0.0  0.00   0.0   0.031   0.000   16.3    47    5.0   15.1    0.00   350    1    100.0   15 
14/02/19  15.45   15.4   15.6   15.3    37    0.8   8.0   NNE   2.01  22.5   NNE   15.3   13.8   13.7   15.7   587.5  0.00   0.0   343     7.38    360     0.0  0.00   0.0   0.031   0.000   16.2    47    4.9   15.0    0.00   347    1    100.0   15 
14/02/19  16.00   15.2   15.4   15.1    38    0.9  11.3   NNE   2.82  22.5   NNE   14.7   13.6   13.1   14.6   587.5  0.00   0.0   302     6.49    323     0.0  0.00   0.0   0.033   0.000   15.9    46    4.3   14.7    0.28   340    1     99.4   15 
14/02/19  16.15   14.8   15.2   14.8    43    2.3   8.0   NNE   2.01  24.1    NE   14.6   13.4   13.3   14.2   587.5  0.00   0.0   253     5.44    267     0.0  0.00   0.0   0.037   0.000   15.6    46    4.0   14.3    0.00   350    1    100.0   15 
14/02/19  16.30   14.3   14.8   14.3    45    2.5   9.7   NNE   2.41  27.4     N   13.9   13.1   12.6   13.1   587.5  0.00   0.0   208     4.47    234     0.0  0.00   0.0   0.042   0.000   15.4    46    3.8   14.2    0.00   351    1    100.0   15 
14/02/19  16.45   14.1   14.3   14.1    48    3.2   9.7   NNE   2.41  24.1   NNE   13.6   12.9   12.4   12.2   587.5  0.00   0.0   153     3.29    178     0.0  0.00   0.0   0.045   0.000   15.1    47    3.9   13.9    0.00   346    1    100.0   15 
14/02/19  17.00   13.8   14.1   13.8    50    3.5  11.3   NNE   2.82  22.5   NNE   13.0   12.7   11.9   11.1   587.5  0.00   0.0   100     2.15    125     0.0  0.00   0.0   0.047   0.000   14.9    47    3.7   13.7    0.15   347    1    100.0   15 
14/02/19  17.15   13.3   13.8   13.3    51    3.4   4.8   NNE   1.21  17.7   NNE   13.3   12.3   12.3   10.9   587.5  0.00   0.0    49     1.05     74     0.0  0.00   0.0   0.052   0.000   14.8    48    3.9   13.6    0.00   346    1    100.0   15 
14/02/19  17.30   12.7   13.3   12.7    55    3.9   3.2     N   0.80  16.1   NNE   12.7   11.8   11.8   10.1   587.5  0.00   0.0    18     0.39     21     0.0  0.00   0.0   0.059   0.000   14.6    49    4.0   13.4    0.00   347    1    100.0   15 
14/02/19  17.45   12.5   12.7   12.4    55    3.7   4.8     N   1.21  14.5     N   12.5   11.7   11.7    9.8   587.5  0.00   0.0    12     0.26     16     0.0  0.00   0.0   0.061   0.000   14.6    50    4.2   13.4    0.00   349    1    100.0   15 
14/02/19  18.00   12.3   12.5   12.3    55    3.5   4.8   NNE   1.21  17.7   NNE   12.3   11.5   11.5    9.5   587.5  0.00   0.0     2     0.04      7     0.0  0.00   0.0   0.063   0.000   14.4    49    3.9   13.3    0.05   341    1     99.7   15 
14/02/19  18.15   12.4   12.4   12.3    54    3.4   6.4   NNE   1.61  16.1   NNE   12.2   11.6   11.3    9.3   587.5  0.00   0.0     0     0.00      0     0.0  0.00   0.0   0.061   0.000   14.3    49    3.8   13.2    0.00   340    1     99.4   15 
14/02/19  18.30   12.8   12.9   12.4    52    3.2  12.9   NNE   3.22  22.5     N   11.4   11.8   10.4    8.6   587.5  0.00   0.0     0     0.00      0     0.0  0.00   0.0   0.058   0.000   14.3    49    3.7   13.2    0.00   339    1     99.1   15 
14/02/19  18.45   12.8   12.9   12.7    54    3.7  16.1   NNE   4.02  25.7   NNE   10.6   11.9    9.7    7.9   587.5  0.00   0.0     0     0.00      0     0.0  0.00   0.0   0.058   0.000   14.1    49    3.5   13.0    0.00   343    1    100.0   15 
14/02/19  19.00   12.7   12.8   12.7    57    4.4  17.7   NNE   4.43  25.7   NNE   10.3   11.9    9.5    7.8   587.5  0.00   0.0     0     0.00      0     0.0  0.00   0.0   0.058   0.000   14.0    49    3.4   12.9    0.08   344    1    100.0   15 
14/02/19  19.15   12.7   12.7   12.6    59    4.9  16.1   NNE   4.02  24.1   NNE   10.5   11.9    9.8    8.1   587.5  0.00   0.0     0     0.00      0     0.0  0.00   0.0   0.059   0.000   13.9    50    3.7   12.9    0.00   346    1    100.0   15 
14/02/19  19.30   12.7   12.7   12.6    61    5.3  16.1   NNE   4.02  25.7   NNE   10.5   12.0    9.8    8.1   587.5  0.00   0.0     0     0.00      0     0.0  0.00   0.0   0.059   0.000   13.8    51    3.9   12.8    0.00   340    1     99.4   15 
14/02/19  19.45   12.6   12.7   12.5    61    5.2  14.5   NNE   3.62  24.1   NNE   10.7   11.9   10.1    8.3   587.5  0.00   0.0     0     0.00      0     0.0  0.00   0.0   0.060   0.000   13.8    52    4.1   12.8    0.00   343    1    100.0   15 
14/02/19  20.00   11.9   12.6   11.9    64    5.3  11.3     N   2.82  19.3   NNE   10.8   11.4   10.2    8.3   587.5  0.00   0.0     0     0.00      0     0.0  0.00   0.0   0.067   0.000   13.8    52    4.1   12.8    0.08   343    1    100.0   15 
14/02/19  20.15   11.8   12.0   11.8    66    5.7   9.7     N   2.41  20.9   NNE   10.9   11.3   10.4    8.5   587.5  0.00   0.0     0     0.00      0     0.0  0.00   0.0   0.068   0.000   13.8    53    4.4   12.9    0.00   336    1     98.2   15 
14/02/19  20.30   11.8   11.8   11.7    66    5.6   6.4   NNE   1.61  16.1     N   11.4   11.3   10.9    9.0   587.5  0.00   0.0     0     0.00      0     0.0  0.00   0.0   0.068   0.000   13.8    53    4.4   12.8    0.00   341    1     99.7   15 
14/02/19  20.45   11.9   12.1   11.8    66    5.8   6.4   NNE   1.61  19.3     N   11.6   11.4   11.1    9.2   587.5  0.00   0.0     0     0.00      0     0.0  0.00   0.0   0.067   0.000   13.8    53    4.4   12.8    0.00   344    1    100.0   15 
14/02/19  21.00   11.9   12.3   11.9    67    6.0   9.7   NNE   2.41  22.5   NNE   11.0   11.4   10.5    8.6   587.5  0.00   0.0     0     0.00      0     0.0  0.00   0.0   0.067   0.000   13.8    54    4.6   12.8    0.05   344    1    100.0   15 
14/02/19  21.15   11.8   12.0   11.8    68    6.1   8.0     N   2.01  19.3     N   11.2   11.4   10.7    8.8   587.5  0.00   0.0     0     0.00      0     0.0  0.00   0.0   0.068   0.000   13.8    54    4.6   12.8    0.00   344    1    100.0   15 
14/02/19  21.30   11.9   11.9   11.8    67    6.0   9.7     N   2.41  19.3   NNE   10.9   11.4   10.5    8.6   587.5  0.00   0.0     0     0.00      0     0.0  0.00   0.0   0.067   0.000   13.7    54    4.5   12.7    0.00   340    1     99.4   15 
14/02/19  21.45   12.3   12.3   11.8    67    6.3   9.7   NNE   2.41  24.1   NNE   11.4   11.8   10.9    9.0   587.5  0.00   0.0     0     0.00      0     0.0  0.00   0.0   0.063   0.000   13.7    55    4.8   12.8    0.00   342    1    100.0   15 
14/02/19  22.00   12.6   12.7   12.3    68    6.9  12.9     N   3.22  25.7   NNW   11.2   12.1   10.7    8.9   587.5  0.00   0.0     0     0.00      0     0.0  0.00   0.0   0.060   0.000   13.7    55    4.8   12.8    0.05   332    1     97.1   15 
14/02/19  22.15   12.6   12.7   12.6    69    7.1  12.9   NNW   3.22  27.4   NNW   11.2   12.2   10.7    9.0   587.5  0.00   0.0     0     0.00      0     0.0  0.00   0.0   0.060   0.000   13.7    56    5.0   12.8    0.00   336    1     98.2   15 
14/02/19  22.30   12.7   12.7   12.5    69    7.2  12.9   NNW   3.22  27.4     N   11.3   12.3   10.9    9.2   587.5  0.00   0.0     0     0.00      0     0.0  0.00   0.0   0.058   0.000   13.7    56    5.0   12.8    0.00   329    1     96.2   15 
14/02/19  22.45   12.7   12.8   12.6    67    6.7  11.3     N   2.82  29.0    NW   11.7   12.2   11.2    9.3   587.5  0.00   0.0     0     0.00      0     0.0  0.00   0.0   0.059   0.000   13.7    56    5.0   12.8    0.00   332    1     97.1   15 
14/02/19  23.00   12.9   12.9   12.6    64    6.2  12.9     N   3.22  27.4   NNW   11.5   12.3   10.9    9.1   587.5  0.00   0.0     0     0.00      0     0.0  0.00   0.0   0.057   0.000   13.6    57    5.2   12.8    0.05   339    1     99.1   15 
14/02/19  23.15   12.7   13.0   12.7    64    6.0  14.5   NNE   3.62  32.2   NNE   10.9   12.1   10.3    8.6   587.5  0.00   0.0     0     0.00      0     0.0  0.00   0.0   0.059   0.000   13.6    57    5.2   12.8    0.00   336    1     98.2   15 
14/02/19  23.30   12.8   13.0   12.7    62    5.7  19.3   NNE   4.83  32.2   NNE   10.0   12.1    9.3    7.8   587.5  0.00   0.0     0     0.00      0     0.0  0.00   0.0   0.058   0.000   13.6    56    5.0   12.8    0.00   343    1    100.0   15 
14/02/19  23.45   12.7   12.8   12.6    65    6.3  16.1     N   4.02  29.0   NNE   10.6   12.2   10.0    8.3   587.5  0.00   0.0     0     0.00      0     0.0  0.00   0.0   0.058   0.000   13.6    56    4.9   12.7    0.00   343    1    100.0   15 
15/02/19  00.00   12.6   12.8   12.6    69    7.1  16.1     N   4.02  30.6   NNE   10.4   12.2   10.0    8.4   587.5  0.00   0.0     0     0.00      0     0.0  0.00   0.0   0.060   0.000   13.6    57    5.2   12.7    0.08   342    1    100.0   15 
15/02/19   0.15   12.6   12.7   12.5    70    7.2  14.5     N   3.62  29.0     N   10.7   12.1   10.3    8.6   587.5  0.00   0.0     0     0.00      0     0.0  0.00   0.0   0.060   0.000   13.6    57    5.2   12.7    0.00   336    1     98.2   15 
15/02/19   0.30   12.6   12.6   12.4    71    7.4  14.5     N   3.62  30.6     N   10.7   12.2   10.3    8.7   587.5  0.00   0.0     0     0.00      0     0.0  0.00   0.0   0.060   0.000   13.6    58    5.4   12.8    0.00   337    1     98.5   15 
15/02/19   0.45   12.6   12.6   12.4    72    7.7  14.5   NNE   3.62  30.6   NNW   10.8   12.2   10.4    8.7   587.5  0.00   0.0     0     0.00      0     0.0  0.00   0.0   0.060   0.000   13.6    59    5.7   12.8    0.00   329    1     96.2   15 
15/02/19   1.00   12.4   12.7   12.4    74    7.9  16.1     N   4.02  30.6   NNE   10.2   12.2    9.9    8.4   581.5  0.00   0.0     0     0.00      0     0.0  0.00   0.0   0.061   0.000   13.6    59    5.7   12.8    0.05   327    1     95.6   15 
15/02/19   1.15   12.4   12.6   12.4    76    8.3  16.1   NNW   4.02  30.6   NNW   10.2   12.1    9.9    8.3   581.5  0.00   0.0     0     0.00      0     0.0  0.00   0.0   0.062   0.000   13.6    60    5.9   12.8    0.00   334    1     97.7   15 
15/02/19   1.30   12.3   12.4   12.3    77    8.4  16.1   NNW   4.02  32.2     N   10.1   12.1    9.9    8.3   581.5  0.00   0.0     0     0.00      0     0.0  0.00   0.0   0.062   0.000   13.6    60    5.9   12.8    0.00   322    1     94.2   15 
15/02/19   1.45   12.2   12.3   12.2    78    8.5  12.9   NNW   3.22  32.2   NNE   10.7   12.0   10.5    8.8   581.5  0.00   0.0     0     0.00      0     0.0  0.00   0.0   0.064   0.000   13.6    61    6.2   12.9    0.00   339    1     99.1   15 
15/02/19   2.00   12.3   12.3   12.2    79    8.7  14.5     N   3.62  32.2   NNW   10.4   12.1   10.2    8.6   581.5  0.00   0.0     0     0.00      0     0.0  0.00   0.0   0.063   0.000   13.6    61    6.2   12.9    0.05   331    1     96.8   15 
15/02/19   2.15   12.3   12.3   12.3    79    8.8  16.1   NNE   4.02  32.2     N   10.1   12.2    9.9    8.4   581.5  0.00   0.0     0     0.00      0     0.0  0.00   0.0   0.062   0.000   13.6    62    6.4   12.9    0.00   339    1     99.1   15 
15/02/19   2.30   12.2   12.3   12.1    79    8.7  14.5     N   3.62  33.8     N   10.3   12.1   10.2    8.6   581.5  0.00   0.0     0     0.00      0     0.0  0.00   0.0   0.064   0.000   13.6    62    6.4   12.9    0.00   342    1    100.0   15 
15/02/19   2.45   12.3   12.3   12.0    77    8.4  14.5     N   3.62  33.8    NE   10.4   12.1   10.2    8.6   581.5  0.00   0.0     0     0.00      0     0.0  0.00   0.0   0.063   0.000   13.6    63    6.6   12.9    0.00   337    1     98.5   15 
15/02/19   3.00   12.2   12.3   12.2    71    7.1  16.1     N   4.02  30.6     N   10.0   11.8    9.6    8.0   581.5  0.00   0.0     0     0.00      0     0.0  0.00   0.0   0.064   0.000   13.6    63    6.6   12.9    0.05   342    1    100.0   15 
15/02/19   3.15   12.3   12.3   12.2    68    6.6  14.5   NNE   3.62  29.0   NNE   10.4   11.9   10.0    8.3   581.5  0.00   0.0     0     0.00      0     0.0  0.00   0.0   0.062   0.000   13.6    62    6.4   12.9    0.00   339    1     99.1   15 
15/02/19   3.30   12.2   12.4   12.2    71    7.1  14.5   NNE   3.62  30.6    NE   10.3   11.8    9.9    8.2   581.5  0.00   0.0     0     0.00      0     0.0  0.00   0.0   0.064   0.000   13.4    62    6.3   12.8    0.00   338    1     98.8   15 
15/02/19   3.45   12.3   12.3   12.1    69    6.8  12.9   NNE   3.22  29.0    NE   10.8   11.8   10.3    8.6   581.5  0.00   0.0     0     0.00      0     0.0  0.00   0.0   0.063   0.000   13.4    61    6.1   12.8    0.00   338    1     98.8   15 
15/02/19   4.00   12.4   12.4   12.3    65    6.0  14.5   NNE   3.62  32.2     N   10.6   11.9   10.1    8.3   581.5  0.00   0.0     0     0.00      0     0.0  0.00   0.0   0.061   0.000   13.4    61    6.1   12.8    0.05   345    1    100.0   15 
15/02/19   4.15   12.4   12.6   12.3    65    6.0  16.1   NNE   4.02  29.0   NNE   10.2   11.8    9.6    7.9   581.5  0.00   0.0     0     0.00      0     0.0  0.00   0.0   0.062   0.000   13.4    60    5.8   12.7    0.00   345    1    100.0   15 
15/02/19   4.30   12.5   12.6   12.4    68    6.8  16.1   NNE   4.02  29.0   NNE   10.3   12.1    9.9    8.3   581.5  0.00   0.0     0     0.00      0     0.0  0.00   0.0   0.061   0.000   13.4    60    5.8   12.7    0.00   337    1     98.5   15 
15/02/19   4.45   12.4   12.6   12.3    70    7.1  16.1   NNE   4.02  27.4     N   10.2   12.0    9.8    8.2   581.5  0.00   0.0     0     0.00      0     0.0  0.00   0.0   0.062   0.000   13.4    60    5.8   12.7    0.00   338    1     98.8   15 
15/02/19   5.00   12.4   12.4   12.3    76    8.3  16.1   NNE   4.02  30.6   NNE   10.2   12.1    9.9    8.3   581.5  0.00   0.0     0     0.00      0     0.0  0.00   0.0   0.062   0.000   13.4    61    6.1   12.8    0.08   334    1     97.7   15 
15/02/19   5.15   12.3   12.4   12.2    78    8.6  16.1     N   4.02  29.0   NNE   10.1   12.1    9.8    8.3   581.5  0.00   0.0     0     0.00      0     0.0  0.00   0.0   0.063   0.000   13.4    62    6.3   12.8    0.00   339    1     99.1   15 
15/02/19   5.30   12.3   12.3   12.2    76    8.2  16.1   NNE   4.02  30.6     N   10.1   12.0    9.8    8.2   581.5  0.00   0.0     0     0.00      0     0.0  0.00   0.0   0.063   0.000   13.4    63    6.5   12.8    0.00   344    1    100.0   15 
15/02/19   5.45   12.3   12.4   12.3    78    8.6  14.5   NNE   3.62  30.6   NNE   10.4   12.1   10.2    8.6   581.5  0.00   0.0     0     0.00      0     0.0  0.00   0.0   0.063   0.000   13.4    63    6.5   12.8    0.00   335    1     98.0   15 
15/02/19   6.00   12.1   12.3   12.1    81    8.9  14.5     N   3.62  29.0   NNE   10.2   11.9   10.1    8.5   581.5  0.00   0.0     0     0.00      0     0.0  0.00   0.0   0.065   0.000   13.4    64    6.8   12.8    0.05   341    1     99.7   15 
15/02/19   6.15   12.2   12.2   12.0    82    9.2  12.9   NNE   3.22  27.4     N   10.7   12.1   10.6    8.9   581.5  0.00   0.0     0     0.00      0     0.0  0.00   0.0   0.064   0.000   13.4    64    6.8   12.8    0.00   344    1    100.0   15 
15/02/19   6.30   11.9   12.2   11.9    83    9.1  14.5   NNE   3.62  29.0    NE   10.0   11.8    9.9    8.3   581.5  0.00   0.0     0     0.00      0     0.0  0.00   0.0   0.067   0.000   13.4    65    7.0   12.9    0.00   341    1     99.7   15 
15/02/19   6.45   11.8   11.9   11.7    84    9.2  11.3     N   2.82  22.5     N   10.6   11.7   10.5    8.8   581.5  0.00   0.0     0     0.00      0     0.0  0.00   0.0   0.068   0.000   13.4    65    7.0   12.9    0.00   349    1    100.0   15 
15/02/19   7.00   11.6   11.8   11.6    84    9.0   8.0   NNE   2.01  20.9   NNE   10.9   11.6   10.8    9.1   581.5  0.00   0.0     0     0.00      0     0.0  0.00   0.0   0.070   0.000   13.4    66    7.2   12.9    0.03   344    1    100.0   15 
15/02/19   7.15   11.6   11.7   11.5    84    9.0   8.0   NNE   2.01  20.9   NNE   10.9   11.6   10.8    9.1   584.4  0.00   0.0     1     0.02      5     0.0  0.00   0.0   0.070   0.000   13.4    66    7.2   12.9    0.00   348    1    100.0   15 
15/02/19   7.30   11.7   11.8   11.7    84    9.1  12.9   NNE   3.22  25.7    NE   10.1   11.7   10.1    8.6   584.4  0.00   0.0    10     0.22     12     0.0  0.00   0.0   0.069   0.000   13.4    66    7.2   12.9    0.00   347    1    100.0   15 
15/02/19   7.45   11.8   11.8   11.7    85    9.3  14.5   NNE   3.62  25.7    NE    9.8   11.7    9.7    8.4   584.4  0.00   0.0    24     0.52     40     0.0  0.00   0.0   0.068   0.000   13.4    67    7.4   12.9    0.00   348    1    100.0   15 
15/02/19   8.00   11.9   12.0   11.8    85    9.4  16.1   NNE   4.02  24.1   NNE    9.6   11.8    9.6    8.6   584.4  0.00   0.0    58     1.25     76     0.0  0.00   0.0   0.067   0.000   13.4    67    7.4   12.9    0.03   346    1    100.0   15 
15/02/19   8.15   11.8   12.0   11.8    85    9.4  16.1   NNE   4.02  27.4   NNE    9.6   11.8    9.5    9.1   584.4  0.00   0.0   104     2.24    132     0.0  0.00   0.0   0.068   0.000   13.4    68    7.7   12.9    0.00   350    1    100.0   15 
15/02/19   8.30   12.1   12.1   11.8    85    9.7  16.1   NNE   4.02  22.5   NNE    9.9   12.1    9.8   11.7   584.4  0.00   0.0   154     3.31    181     0.0  0.00   0.0   0.065   0.000   13.4    68    7.7   12.9    0.00   349    1    100.0   15 
15/02/19   8.45   12.4   12.4   12.1    84    9.8  16.1   NNE   4.02  29.0   NNE   10.2   12.3   10.1   13.1   584.4  0.00   0.0   210     4.52    237     0.0  0.00   0.0   0.062   0.000   13.6    68    7.8   13.1    0.00   347    1    100.0   15 
15/02/19   9.00   12.7   12.7   12.4    84   10.0  16.1   NNE   4.02  29.0   NNE   10.5   12.6   10.4   14.3   584.4  0.00   0.0   267     5.74    290     0.0  0.00   0.0   0.059   0.000   13.6    69    8.0   13.1    0.13   346    1    100.0   15 
15/02/19   9.15   12.8   12.8   12.6    83   10.0  17.7   NNE   4.43  27.4   NNE   10.4   12.7   10.3   14.6   584.4  0.00   0.0   311     6.69    329     0.0  0.00   0.0   0.057   0.000   13.6    69    8.0   13.2    0.00   345    1    100.0   15 
15/02/19   9.30   13.0   13.0   12.8    83   10.2  17.7   NNE   4.43  27.4   NNE   10.6   12.9   10.4   15.3   584.4  0.00   0.0   351     7.55    366     0.0  0.00   0.0   0.056   0.000   13.6    69    8.0   13.2    0.00   346    1    100.0   15 
15/02/19   9.45   13.1   13.1   12.9    82   10.1  19.3   NNE   4.83  29.0   NNE   10.3   12.9   10.2   15.2   584.4  0.00   0.0   385     8.28    401     0.0  0.00   0.0   0.055   0.000   13.7    70    8.3   13.2    0.00   344    1    100.0   15 
15/02/19  10.00   13.0   13.2   13.0    82   10.0  20.9   NNE   5.23  32.2   NNE   10.0   12.9    9.9   14.9   584.4  0.00   0.0   418     8.99    431     0.0  0.00   0.0   0.056   0.000   13.8    70    8.4   13.3    0.23   345    1    100.0   15 
15/02/19  10.15   13.2   13.2   13.0    82   10.2  19.3   NNE   4.83  30.6   NNE   10.4   13.1   10.3   15.7   584.4  0.00   0.0   449     9.65    464     0.0  0.00   0.0   0.054   0.000   13.8    70    8.4   13.3    0.00   336    1     98.2   15 
15/02/19  10.30   13.3   13.4   13.2    82   10.3  19.3   NNE   4.83  30.6    NE   10.7   13.2   10.6   16.1   584.4  0.00   0.0   477    10.26    487     0.0  0.00   0.0   0.052   0.000   13.8    70    8.5   13.4    0.00   342    1    100.0   15 
15/02/19  10.45   13.4   13.5   13.2    81   10.2  17.7   NNE   4.43  32.2    NE   11.1   13.3   10.9   16.7   584.4  0.00   0.0   501    10.77    512     0.0  0.00   0.0   0.051   0.000   13.9    70    8.6   13.5    0.00   339    1     99.1   15 
15/02/19  11.00   13.4   13.6   13.2    81   10.2  19.3   NNE   4.83  30.6   NNE   10.8   13.3   10.6   16.3   584.4  0.00   0.0   522    11.22    531     0.0  0.00   0.0   0.051   0.000   13.9    70    8.6   13.5    0.28   343    1    100.0   15 
15/02/19  11.15   13.6   13.7   13.4    82   10.5  17.7   NNE   4.43  30.6   NNE   11.2   13.4   11.1   17.2   584.4  0.00   0.0   540    11.61    548     0.0  0.00   0.0   0.050   0.000   14.0    70    8.6   13.6    0.00   347    1    100.0   15 
15/02/19  11.30   13.6   13.9   13.5    82   10.5  14.5   NNE   3.62  27.4    NE   11.9   13.4   11.8   18.4   584.4  0.00   0.0   557    11.98    564     0.0  0.00   0.0   0.050   0.000   14.1    70    8.7   13.7    0.00   345    1    100.0   15 
15/02/19  11.45   13.7   13.8   13.4    82   10.6  16.1   NNE   4.02  27.4    NE   11.7   13.6   11.6   18.1   584.4  0.00   0.0   571    12.28    575     0.0  0.00   0.0   0.049   0.000   14.2    69    8.6   13.7    0.00   346    1    100.0   15 
15/02/19  12.00   13.8   13.8   13.7    82   10.8  16.1   NNE   4.02  25.7   NNE   11.9   13.7   11.8   18.4   584.4  0.00   0.0   581    12.49    585     0.0  0.00   0.0   0.047   0.000   14.3    69    8.7   13.9    0.30   346    1    100.0   15 
15/02/19  12.15   13.6   13.9   13.6    82   10.6  16.1   NNE   4.02  27.4   NNE   11.6   13.5   11.5   18.2   584.4  0.00   0.0   587    12.62    591     0.0  0.00   0.0   0.049   0.000   14.6    69    8.9   14.1    0.00   347    1    100.0   15 
15/02/19  12.30   13.9   14.0   13.6    81   10.7  12.9   NNE   3.22  27.4   NNE   12.8   13.8   12.6   20.0   584.4  0.00   0.0   589    12.67    591     0.0  0.00   0.0   0.046   0.000   14.7    68    8.9   14.3    0.00   345    1    100.0   15 
15/02/19  12.45   14.1   14.1   13.8    81   10.8  12.9    NE   3.22  30.6   NNE   12.9   13.9   12.8   20.3   590.6  0.00   0.0   589    12.67    591     0.0  0.00   0.0   0.045   0.000   14.9    68    9.0   14.4    0.00   350    1    100.0   15 
15/02/19  13.00   14.0   14.1   13.6    81   10.8  14.5    NE   3.62  29.0   NNE   12.4   13.9   12.3   19.6   590.6  0.00   0.0   586    12.60    589     0.0  0.00   0.0   0.045   0.000   15.1    67    9.0   14.6    0.33   346    1    100.0   15 
15/02/19  13.15   14.0   14.2   13.9    80   10.6  16.1   NNE   4.02  29.0    NE   12.1   13.8   11.9   19.0   590.6  0.00   0.0   578    12.43    584     0.0  0.00   0.0   0.045   0.000   15.3    67    9.2   14.8    0.00   344    1    100.0   15 
15/02/19  13.30   13.8   14.2   13.8    81   10.6  17.7   NNE   4.43  30.6    NE   11.6   13.7   11.4   18.3   587.1  0.00   0.0   568    12.21    573     0.0  0.00   0.0   0.047   0.000   15.6    67    9.4   15.1    0.00   344    1    100.0   15 
15/02/19  13.45   13.9   14.1   13.7    81   10.7  17.7   NNE   4.43  33.8   NNE   11.7   13.8   11.5   18.6   587.1  0.00   0.0   556    11.96    561     0.0  0.00   0.0   0.046   0.000   15.7    66    9.4   15.3    0.00   342    1    100.0   15 
15/02/19  14.00   13.7   14.1   13.7    81   10.5  19.3   NNE   4.83  33.8    NE   11.1   13.6   10.9   17.8   587.1  0.00   0.0   541    11.63    548     0.0  0.00   0.0   0.048   0.000   16.0    66    9.6   15.6    0.33   343    1    100.0   15 
15/02/19  14.15   13.9   14.0   13.7    81   10.7  19.3   NNE   4.83  33.8   NNE   11.3   13.8   11.2   18.2   587.1  0.00   0.0   521    11.20    531     0.0  0.00   0.0   0.046   0.000   16.2    66    9.8   15.7    0.00   340    1     99.4   15 
15/02/19  14.30   13.5   13.9   13.5    82   10.5  22.5   NNE   5.63  33.8   NNE   10.4   13.4   10.3   16.8   587.1  0.00   0.0   498    10.71    510     0.0  0.00   0.0   0.050   0.000   16.3    66   10.0   15.9    0.00   341    1     99.7   15 
15/02/19  14.45   13.7   13.8   13.5    82   10.6  17.7   NNE   4.43  32.2    NE   11.3   13.6   11.2   18.3   587.1  0.00   0.0   471    10.13    485     0.0  0.00   0.0   0.049   0.000   16.5    65    9.9   16.1    0.00   338    1     98.8   15 
15/02/19  15.00   13.6   13.8   13.4    82   10.6  17.7   NNE   4.43  32.2   NNE   11.3   13.5   11.2   18.2   587.1  0.00   0.0   443     9.53    455     0.0  0.00   0.0   0.049   0.000   16.7    65   10.1   16.3    0.28   340    1     99.4   15 
15/02/19  15.15   13.6   13.9   13.6    82   10.5  17.7   NNE   4.43  29.0   NNE   11.2   13.4   11.1   17.8   587.1  0.00   0.0   412     8.86    427     0.0  0.00   0.0   0.050   0.000   16.8    65   10.2   16.4    0.00   338    1     98.8   15 
15/02/19  15.30   13.5   13.7   13.3    83   10.7  20.9   NNE   5.23  32.2   NNE   10.6   13.4   10.5   16.5   587.1  0.00   0.0   377     8.11    392     0.0  0.00   0.0   0.050   0.000   16.8    65   10.2   16.4    0.00   343    1    100.0   15 
15/02/19  15.45   13.4   13.6   13.4    83   10.6  19.3   NNE   4.83  32.2   NNE   10.8   13.3   10.7   16.6   587.1  0.00   0.0   342     7.35    360     0.0  0.00   0.0   0.051   0.000   16.6    65   10.0   16.2    0.00   336    1     98.2   15 
15/02/19  16.00   13.5   13.5   13.3    83   10.7  16.1   NNE   4.02  38.6    NE   11.5   13.4   11.4   13.1   587.1  0.00   0.0   304     6.54    322     0.0  0.00   0.0   0.050   0.000   16.2    66    9.9   15.8    0.23   336    1     98.2   15 
15/02/19  16.15   13.3   13.5   13.2    84   10.6  20.9   NNE   5.23  35.4   NNE   10.3   13.2   10.3   11.4   587.1  0.00   0.0   264     5.68    283     0.0  0.00   0.0   0.053   0.000   16.0    66    9.6   15.6    0.00   342    1    100.0   15 
15/02/19  16.30   13.3   13.4   13.3    84   10.7  16.1   NNE   4.02  32.2   NNE   11.3   13.3   11.2   11.9   587.1  0.00   0.0   209     4.49    237     0.0  0.00   0.0   0.052   0.000   15.7    67    9.6   15.3    0.00   340    1     99.4   15 
15/02/19  16.45   13.2   13.3   13.2    84   10.6  12.9   NNE   3.22  32.2   NNE   11.9   13.2   11.9   12.1   587.1  0.00   0.0   152     3.27    178     0.0  0.00   0.0   0.053   0.000   15.6    67    9.4   15.1    0.00   341    1     99.7   15 
15/02/19  17.00   13.1   13.2   13.1    85   10.6  16.1   NNE   4.02  33.8   NNE   11.0   13.1   10.9   10.5   587.1  0.00   0.0   100     2.15    125     0.0  0.00   0.0   0.054   0.000   15.4    68    9.5   15.0    0.13   343    1    100.0   15 
15/02/19  17.15   12.9   13.1   12.9    86   10.7  14.5   NNE   3.62  32.2   NNE   11.2   12.9   11.2   10.2   587.1  0.00   0.0    53     1.14     76     0.0  0.00   0.0   0.056   0.000   15.3    68    9.4   14.8    0.00   348    1    100.0   15 
15/02/19  17.30   12.7   12.9   12.7    87   10.6  17.7   NNE   4.43  37.0   NNE   10.2   12.7   10.2    9.0   587.1  0.00   0.0    17     0.37     21     0.0  0.00   0.0   0.059   0.000   15.1    69    9.5   14.7    0.00   344    1    100.0   15 
15/02/19  17.45   12.6   12.7   12.5    88   10.6  16.1     N   4.02  27.4   NNE   10.4   12.6   10.4    9.0   587.1  0.00   0.0     9     0.19     12     0.0  0.00   0.0   0.060   0.000   15.1    69    9.4   14.6    0.00   345    1    100.0   15 
15/02/19  18.00   12.5   12.6   12.5    88   10.6  17.7   NNE   4.43  32.2     N   10.0   12.5   10.0    8.6   587.1  0.00   0.0     1     0.02      5     0.0  0.00   0.0   0.061   0.000   14.9    69    9.3   14.5    0.03   347    1    100.0   15 
15/02/19  18.15   12.4   12.5   12.4    88   10.5  14.5     N   3.62  27.4     N   10.6   12.4   10.6    9.1   587.1  0.00   0.0     0     0.00      0     0.0  0.00   0.0   0.061   0.000   14.9    70    9.5   14.5    0.00   348    1    100.0   15 
15/02/19  18.30   12.4   12.4   12.4    88   10.5   9.7     N   2.41  25.7    NE   11.6   12.4   11.6    9.8   587.1  0.00   0.0     0     0.00      0     0.0  0.00   0.0   0.062   0.000   14.8    70    9.4   14.4    0.00   348    1    100.0   15 
15/02/19  18.45   12.4   12.5   12.4    88   10.5  12.9     N   3.22  29.0     N   11.0   12.4   11.0    9.4   587.1  0.00   0.0     0     0.00      0     0.0  0.00   0.0   0.061   0.000   14.8    70    9.4   14.4    0.00   349    1    100.0   15 
15/02/19  19.00   12.4   12.5   12.4    88   10.5  14.5   NNE   3.62  27.4   NNE   10.6   12.4   10.6    9.1   587.1  0.00   0.0     0     0.00      0     0.0  0.00   0.0   0.061   0.000   14.7    70    9.3   14.3    0.03   348    1    100.0   15 
15/02/19  19.15   12.5   12.6   12.4    88   10.6  14.5   NNE   3.62  27.4     N   10.7   12.5   10.7    9.2   587.1  0.00   0.0     0     0.00      0     0.0  0.00   0.0   0.061   0.000   14.6    71    9.4   14.2    0.00   351    1    100.0   15 
15/02/19  19.30   12.3   12.6   12.3    89   10.5   9.7   NNE   2.41  25.7    NE   11.4   12.3   11.4    9.7   587.1  0.00   0.0     0     0.00      0     0.0  0.00   0.0   0.063   0.000   14.6    71    9.4   14.2    0.00   350    1    100.0   15 
15/02/19  19.45   12.2   12.3   12.1    89   10.5   6.4    NE   1.61  20.9    NE   11.9   12.3   12.0   10.3   587.1  0.00   0.0     0     0.00      0     0.0  0.00   0.0   0.064   0.000   14.6    71    9.4   14.2    0.00   351    1    100.0   15 
15/02/19  20.00   12.2   12.3   12.2    89   10.4   8.0   NNE   2.01  19.3    NE   11.6   12.2   11.6    9.9   587.1  0.00   0.0     0     0.00      0     0.0  0.00   0.0   0.064   0.000   14.6    71    9.4   14.2    0.03   348    1    100.0   15 
15/02/19  20.15   12.0   12.2   12.0    90   10.4   6.4   NNE   1.61  19.3   NNE   11.7   12.1   11.7   10.0   587.1  0.00   0.0     0     0.00      0     0.0  0.00   0.0   0.066   0.000   14.6    71    9.4   14.2    0.00   351    1    100.0   15 
15/02/19  20.30   12.2   12.2   12.0    90   10.6   6.4    NE   1.61  17.7    NE   11.9   12.2   11.9   10.3   587.1  0.00   0.0     0     0.00      0     0.0  0.00   0.0   0.064   0.000   14.6    71    9.4   14.2    0.00   351    1    100.0   15 
15/02/19  20.45   12.0   12.2   12.0    90   10.4   6.4   NNE   1.61  16.1    NE   11.7   12.1   11.7   10.0   587.1  0.00   0.0     0     0.00      0     0.0  0.00   0.0   0.066   0.000   14.4    71    9.2   14.1    0.00   351    1    100.0   15 
15/02/19  21.00   12.1   12.1   12.0    90   10.5   8.0    NE   2.01  17.7    NE   11.4   12.1   11.4    9.7   587.1  0.00   0.0     0     0.00      0     0.0  0.00   0.0   0.065   0.000   14.4    71    9.2   14.1    0.00   350    1    100.0   15 
15/02/19  21.15   12.2   12.3   11.9    90   10.6   9.7   NNE   2.41  20.9   NNE   11.3   12.2   11.3    9.7   587.1  0.00   0.0     0     0.00      0     0.0  0.00   0.0   0.064   0.000   14.4    72    9.5   14.1    0.03   351    1    100.0   15 
15/02/19  21.30   12.0   12.2   11.9    90   10.4   8.0   NNE   2.01  17.7   NNE   11.3   12.1   11.4    9.7   587.1  0.00   0.0     0     0.00      0     0.0  0.00   0.0   0.066   0.000   14.3    72    9.3   13.9    0.00   351    1    100.0   15 
15/02/19  21.45   11.9   11.9   11.6    90   10.3   4.8   NNE   1.21  11.3   NNE   11.9   11.9   11.9   10.2   587.1  0.00   0.0     0     0.00      0     0.0  0.00   0.0   0.067   0.000   14.3    72    9.3   13.9    0.00   350    1    100.0   15 
15/02/19  22.00   11.8   12.1   11.8    90   10.2   4.8   NNE   1.21   9.7   NNE   11.8   11.9   11.9   10.2   587.1  0.00   0.0     0     0.00      0     0.0  0.00   0.0   0.068   0.000   14.3    72    9.3   13.9    0.00   351    1    100.0   15 
15/02/19  22.15   11.1   11.9   11.1    90    9.5   1.6   NNE   0.40  11.3   NNE   11.1   11.2   11.2    9.5   587.1  0.00   0.0     0     0.00      0     0.0  0.00   0.0   0.075   0.000   14.3    72    9.3   13.9    0.00   350    1    100.0   15 
15/02/19  22.30   10.8   11.2   10.8    90    9.3   0.0   NNE   0.00   6.4   NNE   10.8   10.9   10.9    9.2   587.1  0.00   0.0     0     0.00      0     0.0  0.00   0.0   0.078   0.000   14.3    71    9.1   13.9    0.00   350    1    100.0   15 
15/02/19  22.45   10.5   10.8   10.4    90    8.9   1.6   NNE   0.40  20.9     E   10.5   10.6   10.6    8.9   587.1  0.00   0.0     0     0.00      0     0.0  0.00   0.0   0.082   0.000   14.3    71    9.1   13.9    0.00   351    1    100.0   15 
15/02/19  23.00   13.7   13.7   10.7    62    6.5   4.8   ENE   1.21  17.7   ESE   13.7   13.0   13.0   11.1   587.1  0.00   0.0     0     0.00      0     0.0  0.00   0.0   0.049   0.000   14.3    71    9.1   13.9    0.00   348    1    100.0   15 
15/02/19  23.15   12.9   13.7   12.9    57    4.6   3.2   ENE   0.80  14.5   ENE   12.9   12.2   12.2   10.2   587.1  0.00   0.0     0     0.00      0     0.0  0.00   0.0   0.056   0.000   14.3    70    8.9   13.8    0.00   348    1    100.0   15 
15/02/19  23.30   13.2   13.2   12.7    53    3.8   0.0   ENE   0.00   8.0   ENE   13.2   12.2   12.2   10.2   587.1  0.00   0.0     0     0.00      0     0.0  0.00   0.0   0.054   0.000   14.3    70    8.9   13.8    0.00   350    1    100.0   15 
15/02/19  23.45   12.8   13.2   12.4    53    3.5   0.0   ENE   0.00   6.4   ENE   12.8   11.9   11.9    9.9   587.1  0.00   0.0     0     0.00      0     0.0  0.00   0.0   0.057   0.000   14.3    69    8.7   13.8    0.00   352    1    100.0   15 
16/02/19  00.00   12.3   12.9   11.9    54    3.3   0.0   ENE   0.00   6.4   ENE   12.3   11.5   11.5    9.5   587.1  0.00   0.0     0     0.00      0     0.0  0.00   0.0   0.062   0.000   14.3    69    8.7   13.8    0.03   349    1    100.0   15 
16/02/19   0.15   10.9   12.2   10.7    61    3.7   1.6   ENE   0.40   8.0   ENE   10.9   10.4   10.4    8.4   587.1  0.00   0.0     0     0.00      0     0.0  0.00   0.0   0.078   0.000   14.2    68    8.3   13.7    0.00   349    1    100.0   15 
16/02/19   0.30   11.3   11.4   10.9    57    3.1   0.0   ENE   0.00   8.0   ENE   11.3   10.7   10.7    8.7   587.1  0.00   0.0     0     0.00      0     0.0  0.00   0.0   0.073   0.000   14.2    67    8.1   13.7    0.00   349    1    100.0   15 
16/02/19   0.45   10.3   11.3   10.3    60    2.9   1.6   ENE   0.40   8.0   ENE   10.3    9.8    9.8    7.8   587.1  0.00   0.0     0     0.00      0     0.0  0.00   0.0   0.083   0.000   14.1    66    7.8   13.6    0.00   349    1    100.0   15 
16/02/19   1.00   10.8   10.8   10.0    58    2.8   1.6   ENE   0.40   9.7   ENE   10.8   10.2   10.2    8.2   587.1  0.00   0.0     0     0.00      0     0.0  0.00   0.0   0.079   0.000   14.1    65    7.6   13.6    0.03   347    1    100.0   15 
16/02/19   1.15   11.3   11.4   10.6    55    2.6   1.6   ENE   0.40   8.0   ENE   11.3   10.6   10.6    8.6   587.1  0.00   0.0     0     0.00      0     0.0  0.00   0.0   0.073   0.000   14.0    65    7.5   13.4    0.00   350    1    100.0   15 
16/02/19   1.30   10.6   11.4   10.6    57    2.4   0.0   ENE   0.00   4.8   ENE   10.6   10.0   10.0    7.9   587.1  0.00   0.0     0     0.00      0     0.0  0.00   0.0   0.081   0.000   14.0    64    7.3   13.4    0.00   348    1    100.0   15 
16/02/19   1.45    9.8   10.8    9.8    61    2.6   4.8   ENE   1.21   8.0   ENE    9.6    9.3    9.1    7.1   587.1  0.00   0.0     0     0.00      0     0.0  0.00   0.0   0.089   0.000   14.0    63    7.1   13.4    0.00   348    1    100.0   15 
16/02/19   2.00    8.4    9.8    8.4    65    2.2   1.6   ENE   0.40   8.0   ENE    8.4    8.1    8.1    6.0   587.1  0.00   0.0     0     0.00      0     0.0  0.00   0.0   0.103   0.000   13.9    62    6.8   13.3    0.03   348    1    100.0   15 
16/02/19   2.15    8.7    8.9    8.2    65    2.4   1.6   ENE   0.40   6.4   ENE    8.7    8.3    8.3    6.2   587.1  0.00   0.0     0     0.00      0     0.0  0.00   0.0   0.101   0.000   13.9    62    6.8   13.3    0.00   349    1    100.0   15 
16/02/19   2.30    8.4    8.8    8.1    67    2.6   1.6   ENE   0.40   6.4   ENE    8.4    8.1    8.1    6.0   587.1  0.00   0.0     0     0.00      0     0.0  0.00   0.0   0.104   0.000   13.9    61    6.5   13.3    0.00   349    1    100.0   15 
16/02/19   2.45    7.4    9.1    7.4    69    2.1   1.6   ENE   0.40   8.0   ENE    7.4    7.2    7.2    5.1   587.1  0.00   0.0     0     0.00      0     0.0  0.00   0.0   0.113   0.000   13.8    60    6.2   13.1    0.00   348    1    100.0   15 
16/02/19   3.00    6.6    7.5    6.6    71    1.7   0.0   ENE   0.00   1.6   ENE    6.6    6.3    6.3    4.2   587.1  0.00   0.0     0     0.00      0     0.0  0.00   0.0   0.123   0.000   13.8    60    6.2   13.1    0.03   349    1    100.0   15 
16/02/19   3.15    5.6    6.5    5.6    76    1.7   0.0   ENE   0.00   6.4   ENE    5.6    5.3    5.3    3.2   587.1  0.00   0.0     0     0.00      0     0.0  0.00   0.0   0.133   0.000   13.8    59    5.9   13.0    0.00   349    1    100.0   15 
16/02/19   3.30    6.2    6.2    5.3    77    2.4   1.6   ENE   0.40   8.0   ENE    6.2    5.9    5.9    3.9   587.1  0.00   0.0     0     0.00      0     0.0  0.00   0.0   0.127   0.000   13.8    58    5.7   13.0    0.00   350    1    100.0   15 
16/02/19   3.45    6.8    7.4    5.8    75    2.7   0.0   ENE   0.00   9.7   ENE    6.8    6.6    6.6    4.5   587.1  0.00   0.0     0     0.00      0     0.0  0.00   0.0   0.120   0.000   13.7    58    5.5   12.9    0.00   348    1    100.0   15 
16/02/19   4.00    6.0    8.9    6.0    73    1.5   1.6   ENE   0.40   6.4   ENE    6.0    5.7    5.7    3.6   587.1  0.00   0.0     0     0.00      0     0.0  0.00   0.0   0.128   0.000   13.7    58    5.5   12.9    0.03   350    1    100.0   15 
16/02/19   4.15    7.2    7.2    5.7    74    2.9   0.0   ENE   0.00   4.8   ENE    7.2    7.0    7.0    5.0   587.1  0.00   0.0     0     0.00      0     0.0  0.00   0.0   0.116   0.000   13.6    57    5.2   12.8    0.00   346    1    100.0   15 
16/02/19   4.30    5.9    7.3    5.3    75    1.8   1.6   ENE   0.40   4.8   ENE    5.9    5.7    5.7    3.6   587.1  0.00   0.0     0     0.00      0     0.0  0.00   0.0   0.130   0.000   13.6    57    5.2   12.8    0.00   348    1    100.0   15 
16/02/19   4.45    6.3    7.9    5.9    71    1.5   0.0   ENE   0.00   4.8   ENE    6.3    6.1    6.1    3.9   587.1  0.00   0.0     0     0.00      0     0.0  0.00   0.0   0.125   0.000   13.6    56    5.0   12.8    0.00   347    1    100.0   15 
16/02/19   5.00    5.2    6.3    5.2    75    1.1   0.0   ENE   0.00   1.6   ENE    5.2    5.0    5.0    2.9   587.1  0.00   0.0     0     0.00      0     0.0  0.00   0.0   0.137   0.000   13.6    56    4.9   12.7    0.03   347    1    100.0   15 
16/02/19   5.15    5.3    5.5    5.0    77    1.6   0.0   ENE   0.00   6.4   ENE    5.3    5.1    5.1    3.0   587.1  0.00   0.0     0     0.00      0     0.0  0.00   0.0   0.135   0.000   13.6    56    4.9   12.7    0.00   350    1    100.0   15 
16/02/19   5.30    5.8    5.8    5.3    76    1.9   0.0   ENE   0.00   1.6   ENE    5.8    5.6    5.6    3.6   587.1  0.00   0.0     0     0.00      0     0.0  0.00   0.0   0.130   0.000   13.6    56    4.9   12.7    0.00   348    1    100.0   15 
16/02/19   5.45    5.1    5.8    4.8    78    1.5   0.0   ---   0.00   0.0   ---    5.1    4.9    4.9    2.8   587.1  0.00   0.0     0     0.00      0     0.0  0.00   0.0   0.138   0.000   13.4    55    4.6   12.6    0.00   351    1    100.0   15 
16/02/19   6.00    5.9    5.9    4.9    79    2.6   0.0   ---   0.00   0.0   ---    5.9    5.8    5.8    3.7   585.7  0.00   0.0     0     0.00      0     0.0  0.00   0.0   0.129   0.000   13.4    56    4.8   12.6    0.03   349    1    100.0   15 
16/02/19   6.15    5.3    5.9    5.3    80    2.2   0.0   ---   0.00   0.0   ---    5.3    5.2    5.2    3.1   585.7  0.00   0.0     0     0.00      0     0.0  0.00   0.0   0.135   0.000   13.4    56    4.8   12.6    0.00   345    1    100.0   15 
16/02/19   6.30    4.6    5.5    4.6    82    1.8   0.0   ---   0.00   0.0   ---    4.6    4.4    4.4    2.4   585.7  0.00   0.0     0     0.00      0     0.0  0.00   0.0   0.143   0.000   13.4    56    4.8   12.6    0.00   352    1    100.0   15 
16/02/19   6.45    4.5    5.2    4.4    84    2.0   0.0   ---   0.00   0.0   ---    4.5    4.4    4.4    2.3   585.7  0.00   0.0     0     0.00      0     0.0  0.00   0.0   0.144   0.000   13.4    56    4.8   12.6    0.00   349    1    100.0   15 
16/02/19   7.00    3.9    4.9    3.8    85    1.6   0.0   ---   0.00   0.0   ---    3.9    3.8    3.8    1.7   585.7  0.00   0.0     0     0.00      0     0.0  0.00   0.0   0.150   0.000   13.3    56    4.7   12.4    0.00   348    1    100.0   15 
16/02/19   7.15    4.1    4.2    3.8    86    2.0   0.0   ---   0.00   0.0   ---    4.1    4.0    4.0    1.9   585.7  0.00   0.0     2     0.04      7     0.0  0.00   0.0   0.148   0.000   13.3    56    4.7   12.4    0.00   348    1    100.0   15 
16/02/19   7.30    3.3    4.5    3.3    86    1.2   0.0   ---   0.00   0.0   ---    3.3    3.2    3.2    1.3   585.7  0.00   0.0    11     0.24     14     0.0  0.00   0.0   0.156   0.000   13.3    55    4.4   12.4    0.00   350    1    100.0   15 
16/02/19   7.45    3.2    3.5    3.2    87    1.3   1.6   ENE   0.40   8.0   ENE    3.2    3.1    3.1    1.3   585.7  0.00   0.0    28     0.60     46     0.0  0.00   0.0   0.157   0.000   13.2    55    4.4   12.3    0.00   352    1    100.0   15 
16/02/19   8.00    3.8    4.3    3.2    87    1.8   1.6   ENE   0.40   8.0   ENE    3.8    3.7    3.7    2.4   585.7  0.00   0.0    65     1.40     84     0.0  0.00   0.0   0.152   0.000   13.2    55    4.4   12.3    0.00   351    1    100.0   15 
16/02/19   8.15    4.4    4.4    3.7    87    2.4   0.0   ENE   0.00   1.6   ENE    4.4    4.3    4.3    3.5   585.7  0.00   0.0   107     2.30    130     0.0  0.00   0.0   0.145   0.000   13.2    55    4.4   12.3    0.00   346    1    100.0   15 
16/02/19   8.30    5.6    5.6    4.4    87    3.6   0.0   ---   0.00   0.0   ---    5.6    5.6    5.6    7.8   585.7  0.00   0.0   169     3.63    230     0.0  0.00   0.0   0.133   0.000   13.2    55    4.4   12.3    0.00   348    1    100.0   15 
16/02/19   8.45    6.8    6.8    5.6    85    4.4   0.0   ENE   0.00   1.6   ENE    6.8    6.7    6.7   10.0   585.7  0.00   0.0   217     4.67    241     0.0  0.00   0.0   0.120   0.000   13.2    56    4.6   12.4    0.00   352    1    100.0   15 
16/02/19   9.00    8.3    8.3    6.8    83    5.6   0.0   ENE   0.00   1.6   ENE    8.3    8.3    8.3   12.6   585.7  0.00   0.0   272     5.85    297     0.0  0.00   0.0   0.104   0.000   13.3    56    4.7   12.4    0.08   350    1    100.0   15 
16/02/19   9.15    9.8    9.8    8.3    80    6.5   0.0   ---   0.00   0.0   ---    9.8    9.8    9.8   14.9   585.7  0.00   0.0   317     6.82    355     0.0  0.00   0.0   0.089   0.000   13.3    57    4.9   12.4    0.00   347    1    100.0   15 
16/02/19   9.30   11.4   11.4    9.8    77    7.6   0.0   ---   0.00   0.0   ---   11.4   11.2   11.2   16.9  1019.1  0.00   0.0   357     7.68    374     0.0  0.00   0.0   0.072   0.000   13.4    57    5.0   12.6    0.00   351    1    100.0   15 
© www.elbaexplorer.com